<?xml version="1.0" encoding="UTF-8" standalone="no" ?>
<gpx xmlns="http://www.topografix.com/GPX/1/1" xmlns:xsi="http://www.w3.org/2001/XMLSchema-instance" xsi:schemaLocation="http://www.topografix.com/GPX/1/1 http://www.topografix.com/GPX/1/1/gpx.xsd" version="1.1" creator="VisuGPX - https://www.visugpx.com">
  <metadata>
    <name>Coulon verte</name>
  </metadata>
  <trk>
    <name><![CDATA[Coulon verte_1]]></name>
    <trkseg>
      <trkpt lat="46.32358" lon="-0.58567">
        <ele>7.8</ele>
        <time>2021-03-31T08:55:40Z</time>
      </trkpt>
      <trkpt lat="46.32358" lon="-0.58567">
        <ele>7.8</ele>
        <time>2021-03-31T08:55:41Z</time>
      </trkpt>
      <trkpt lat="46.32354" lon="-0.58573">
        <ele>7.8</ele>
        <time>2021-03-31T08:55:44Z</time>
      </trkpt>
      <trkpt lat="46.32352" lon="-0.58578">
        <ele>7.8</ele>
        <time>2021-03-31T08:55:45Z</time>
      </trkpt>
      <trkpt lat="46.32351" lon="-0.58599">
        <ele>7.8</ele>
        <time>2021-03-31T08:55:48Z</time>
      </trkpt>
      <trkpt lat="46.32348" lon="-0.58612">
        <ele>7.6</ele>
        <time>2021-03-31T08:55:50Z</time>
      </trkpt>
      <trkpt lat="46.32345" lon="-0.58625">
        <ele>7.6</ele>
        <time>2021-03-31T08:55:52Z</time>
      </trkpt>
      <trkpt lat="46.32344" lon="-0.58631">
        <ele>7.6</ele>
        <time>2021-03-31T08:55:53Z</time>
      </trkpt>
      <trkpt lat="46.32344" lon="-0.58636">
        <ele>7.6</ele>
        <time>2021-03-31T08:55:54Z</time>
      </trkpt>
      <trkpt lat="46.32343" lon="-0.58641">
        <ele>7.6</ele>
        <time>2021-03-31T08:55:55Z</time>
      </trkpt>
      <trkpt lat="46.32343" lon="-0.58644">
        <ele>7.6</ele>
        <time>2021-03-31T08:55:56Z</time>
      </trkpt>
      <trkpt lat="46.32343" lon="-0.58647">
        <ele>7.6</ele>
        <time>2021-03-31T08:55:57Z</time>
      </trkpt>
      <trkpt lat="46.32343" lon="-0.58649">
        <ele>7.6</ele>
        <time>2021-03-31T08:55:58Z</time>
      </trkpt>
      <trkpt lat="46.32343" lon="-0.58651">
        <ele>7.6</ele>
        <time>2021-03-31T08:55:59Z</time>
      </trkpt>
      <trkpt lat="46.32343" lon="-0.58654">
        <ele>7.6</ele>
        <time>2021-03-31T08:56:00Z</time>
      </trkpt>
      <trkpt lat="46.32344" lon="-0.5866">
        <ele>7.6</ele>
        <time>2021-03-31T08:56:01Z</time>
      </trkpt>
      <trkpt lat="46.32346" lon="-0.58671">
        <ele>7.8</ele>
        <time>2021-03-31T08:56:03Z</time>
      </trkpt>
      <trkpt lat="46.32352" lon="-0.58706">
        <ele>8.2</ele>
        <time>2021-03-31T08:56:07Z</time>
      </trkpt>
      <trkpt lat="46.32367" lon="-0.58764">
        <ele>8.2</ele>
        <time>2021-03-31T08:56:13Z</time>
      </trkpt>
      <trkpt lat="46.32371" lon="-0.58773">
        <ele>8</ele>
        <time>2021-03-31T08:56:14Z</time>
      </trkpt>
      <trkpt lat="46.32375" lon="-0.58783">
        <ele>8</ele>
        <time>2021-03-31T08:56:15Z</time>
      </trkpt>
      <trkpt lat="46.32386" lon="-0.58802">
        <ele>7.8</ele>
        <time>2021-03-31T08:56:17Z</time>
      </trkpt>
      <trkpt lat="46.32412" lon="-0.58851">
        <ele>7.6</ele>
        <time>2021-03-31T08:56:22Z</time>
      </trkpt>
      <trkpt lat="46.32423" lon="-0.58872">
        <ele>7.6</ele>
        <time>2021-03-31T08:56:24Z</time>
      </trkpt>
      <trkpt lat="46.32452" lon="-0.58939">
        <ele>7.6</ele>
        <time>2021-03-31T08:56:30Z</time>
      </trkpt>
      <trkpt lat="46.32465" lon="-0.58969">
        <ele>7.6</ele>
        <time>2021-03-31T08:56:33Z</time>
      </trkpt>
      <trkpt lat="46.32469" lon="-0.58978">
        <ele>8</ele>
        <time>2021-03-31T08:56:34Z</time>
      </trkpt>
      <trkpt lat="46.32472" lon="-0.58988">
        <ele>8</ele>
        <time>2021-03-31T08:56:35Z</time>
      </trkpt>
      <trkpt lat="46.32475" lon="-0.58996">
        <ele>8</ele>
        <time>2021-03-31T08:56:36Z</time>
      </trkpt>
      <trkpt lat="46.32478" lon="-0.59004">
        <ele>8</ele>
        <time>2021-03-31T08:56:37Z</time>
      </trkpt>
      <trkpt lat="46.32481" lon="-0.59011">
        <ele>8.2</ele>
        <time>2021-03-31T08:56:38Z</time>
      </trkpt>
      <trkpt lat="46.32484" lon="-0.59019">
        <ele>8.6</ele>
        <time>2021-03-31T08:56:39Z</time>
      </trkpt>
      <trkpt lat="46.32488" lon="-0.59028">
        <ele>8.8</ele>
        <time>2021-03-31T08:56:40Z</time>
      </trkpt>
      <trkpt lat="46.32493" lon="-0.59037">
        <ele>9</ele>
        <time>2021-03-31T08:56:41Z</time>
      </trkpt>
      <trkpt lat="46.32507" lon="-0.59067">
        <ele>9</ele>
        <time>2021-03-31T08:56:44Z</time>
      </trkpt>
      <trkpt lat="46.32518" lon="-0.59087">
        <ele>9.4</ele>
        <time>2021-03-31T08:56:46Z</time>
      </trkpt>
      <trkpt lat="46.32537" lon="-0.59114">
        <ele>9.4</ele>
        <time>2021-03-31T08:56:49Z</time>
      </trkpt>
      <trkpt lat="46.32564" lon="-0.59149">
        <ele>9.2</ele>
        <time>2021-03-31T08:56:53Z</time>
      </trkpt>
      <trkpt lat="46.32602" lon="-0.592">
        <ele>8.6</ele>
        <time>2021-03-31T08:56:59Z</time>
      </trkpt>
      <trkpt lat="46.32616" lon="-0.59221">
        <ele>8.2</ele>
        <time>2021-03-31T08:57:01Z</time>
      </trkpt>
      <trkpt lat="46.32621" lon="-0.59228">
        <ele>8.4</ele>
        <time>2021-03-31T08:57:02Z</time>
      </trkpt>
      <trkpt lat="46.32646" lon="-0.59271">
        <ele>8.4</ele>
        <time>2021-03-31T08:57:06Z</time>
      </trkpt>
      <trkpt lat="46.32663" lon="-0.59319">
        <ele>8.4</ele>
        <time>2021-03-31T08:57:10Z</time>
      </trkpt>
      <trkpt lat="46.32667" lon="-0.59369">
        <ele>8.4</ele>
        <time>2021-03-31T08:57:14Z</time>
      </trkpt>
      <trkpt lat="46.32663" lon="-0.5945">
        <ele>8.6</ele>
        <time>2021-03-31T08:57:20Z</time>
      </trkpt>
      <trkpt lat="46.32664" lon="-0.59474">
        <ele>8.6</ele>
        <time>2021-03-31T08:57:22Z</time>
      </trkpt>
      <trkpt lat="46.32665" lon="-0.59486">
        <ele>8.6</ele>
        <time>2021-03-31T08:57:23Z</time>
      </trkpt>
      <trkpt lat="46.32666" lon="-0.59497">
        <ele>8.8</ele>
        <time>2021-03-31T08:57:24Z</time>
      </trkpt>
      <trkpt lat="46.32667" lon="-0.59506">
        <ele>8.8</ele>
        <time>2021-03-31T08:57:25Z</time>
      </trkpt>
      <trkpt lat="46.32668" lon="-0.59515">
        <ele>9</ele>
        <time>2021-03-31T08:57:26Z</time>
      </trkpt>
      <trkpt lat="46.3267" lon="-0.59521">
        <ele>9</ele>
        <time>2021-03-31T08:57:27Z</time>
      </trkpt>
      <trkpt lat="46.3267" lon="-0.59526">
        <ele>9.2</ele>
        <time>2021-03-31T08:57:28Z</time>
      </trkpt>
      <trkpt lat="46.32671" lon="-0.59528">
        <ele>9.2</ele>
        <time>2021-03-31T08:57:29Z</time>
      </trkpt>
      <trkpt lat="46.32671" lon="-0.59529">
        <ele>9.2</ele>
        <time>2021-03-31T08:57:30Z</time>
      </trkpt>
      <trkpt lat="46.32671" lon="-0.59529">
        <ele>9.2</ele>
        <time>2021-03-31T08:57:31Z</time>
      </trkpt>
      <trkpt lat="46.3267" lon="-0.59539">
        <ele>9.8</ele>
        <time>2021-03-31T08:58:05Z</time>
      </trkpt>
      <trkpt lat="46.32669" lon="-0.59546">
        <ele>9.8</ele>
        <time>2021-03-31T08:58:06Z</time>
      </trkpt>
      <trkpt lat="46.32665" lon="-0.59563">
        <ele>9.8</ele>
        <time>2021-03-31T08:58:08Z</time>
      </trkpt>
      <trkpt lat="46.32658" lon="-0.59581">
        <ele>9.8</ele>
        <time>2021-03-31T08:58:10Z</time>
      </trkpt>
      <trkpt lat="46.32633" lon="-0.59628">
        <ele>9.2</ele>
        <time>2021-03-31T08:58:15Z</time>
      </trkpt>
      <trkpt lat="46.32617" lon="-0.59656">
        <ele>8</ele>
        <time>2021-03-31T08:58:18Z</time>
      </trkpt>
      <trkpt lat="46.3261" lon="-0.59664">
        <ele>7.8</ele>
        <time>2021-03-31T08:58:19Z</time>
      </trkpt>
      <trkpt lat="46.32603" lon="-0.5967">
        <ele>7.8</ele>
        <time>2021-03-31T08:58:20Z</time>
      </trkpt>
      <trkpt lat="46.32555" lon="-0.59703">
        <ele>7.4</ele>
        <time>2021-03-31T08:58:26Z</time>
      </trkpt>
      <trkpt lat="46.32505" lon="-0.59736">
        <ele>6.8</ele>
        <time>2021-03-31T08:58:32Z</time>
      </trkpt>
      <trkpt lat="46.32497" lon="-0.59739">
        <ele>6.8</ele>
        <time>2021-03-31T08:58:33Z</time>
      </trkpt>
      <trkpt lat="46.32436" lon="-0.5976">
        <ele>6.2</ele>
        <time>2021-03-31T08:58:40Z</time>
      </trkpt>
      <trkpt lat="46.32382" lon="-0.59776">
        <ele>6</ele>
        <time>2021-03-31T08:58:46Z</time>
      </trkpt>
      <trkpt lat="46.32366" lon="-0.59781">
        <ele>6</ele>
        <time>2021-03-31T08:58:48Z</time>
      </trkpt>
      <trkpt lat="46.32359" lon="-0.59783">
        <ele>6</ele>
        <time>2021-03-31T08:58:49Z</time>
      </trkpt>
      <trkpt lat="46.32353" lon="-0.59785">
        <ele>6</ele>
        <time>2021-03-31T08:58:50Z</time>
      </trkpt>
      <trkpt lat="46.32347" lon="-0.59786">
        <ele>6</ele>
        <time>2021-03-31T08:58:51Z</time>
      </trkpt>
      <trkpt lat="46.32342" lon="-0.59786">
        <ele>6</ele>
        <time>2021-03-31T08:58:52Z</time>
      </trkpt>
      <trkpt lat="46.32338" lon="-0.59786">
        <ele>6</ele>
        <time>2021-03-31T08:58:53Z</time>
      </trkpt>
      <trkpt lat="46.32335" lon="-0.59784">
        <ele>6</ele>
        <time>2021-03-31T08:58:54Z</time>
      </trkpt>
      <trkpt lat="46.32332" lon="-0.59782">
        <ele>6</ele>
        <time>2021-03-31T08:58:55Z</time>
      </trkpt>
      <trkpt lat="46.32329" lon="-0.59777">
        <ele>6</ele>
        <time>2021-03-31T08:58:56Z</time>
      </trkpt>
      <trkpt lat="46.32327" lon="-0.59771">
        <ele>6</ele>
        <time>2021-03-31T08:58:57Z</time>
      </trkpt>
      <trkpt lat="46.32325" lon="-0.59754">
        <ele>6</ele>
        <time>2021-03-31T08:58:59Z</time>
      </trkpt>
      <trkpt lat="46.32325" lon="-0.59744">
        <ele>6</ele>
        <time>2021-03-31T08:59:00Z</time>
      </trkpt>
      <trkpt lat="46.32324" lon="-0.59733">
        <ele>6</ele>
        <time>2021-03-31T08:59:01Z</time>
      </trkpt>
      <trkpt lat="46.32322" lon="-0.59721">
        <ele>6</ele>
        <time>2021-03-31T08:59:02Z</time>
      </trkpt>
      <trkpt lat="46.32312" lon="-0.59705">
        <ele>6</ele>
        <time>2021-03-31T08:59:04Z</time>
      </trkpt>
      <trkpt lat="46.32299" lon="-0.59698">
        <ele>6</ele>
        <time>2021-03-31T08:59:06Z</time>
      </trkpt>
      <trkpt lat="46.32294" lon="-0.59691">
        <ele>6</ele>
        <time>2021-03-31T08:59:07Z</time>
      </trkpt>
      <trkpt lat="46.3229" lon="-0.59683">
        <ele>5.8</ele>
        <time>2021-03-31T08:59:08Z</time>
      </trkpt>
      <trkpt lat="46.32288" lon="-0.59674">
        <ele>5.4</ele>
        <time>2021-03-31T08:59:09Z</time>
      </trkpt>
      <trkpt lat="46.32287" lon="-0.59663">
        <ele>5.2</ele>
        <time>2021-03-31T08:59:10Z</time>
      </trkpt>
      <trkpt lat="46.32285" lon="-0.59653">
        <ele>5</ele>
        <time>2021-03-31T08:59:11Z</time>
      </trkpt>
      <trkpt lat="46.32284" lon="-0.59641">
        <ele>5</ele>
        <time>2021-03-31T08:59:12Z</time>
      </trkpt>
      <trkpt lat="46.32282" lon="-0.59629">
        <ele>4.8</ele>
        <time>2021-03-31T08:59:13Z</time>
      </trkpt>
      <trkpt lat="46.32281" lon="-0.59616">
        <ele>4.6</ele>
        <time>2021-03-31T08:59:14Z</time>
      </trkpt>
      <trkpt lat="46.32274" lon="-0.59578">
        <ele>4.4</ele>
        <time>2021-03-31T08:59:17Z</time>
      </trkpt>
      <trkpt lat="46.32269" lon="-0.59553">
        <ele>4.2</ele>
        <time>2021-03-31T08:59:19Z</time>
      </trkpt>
      <trkpt lat="46.32257" lon="-0.59491">
        <ele>4.2</ele>
        <time>2021-03-31T08:59:24Z</time>
      </trkpt>
      <trkpt lat="46.32246" lon="-0.59448">
        <ele>4.2</ele>
        <time>2021-03-31T08:59:28Z</time>
      </trkpt>
      <trkpt lat="46.32243" lon="-0.59439">
        <ele>4.2</ele>
        <time>2021-03-31T08:59:29Z</time>
      </trkpt>
      <trkpt lat="46.32241" lon="-0.59432">
        <ele>4.2</ele>
        <time>2021-03-31T08:59:30Z</time>
      </trkpt>
      <trkpt lat="46.3224" lon="-0.59426">
        <ele>4.2</ele>
        <time>2021-03-31T08:59:31Z</time>
      </trkpt>
      <trkpt lat="46.32238" lon="-0.5942">
        <ele>4.4</ele>
        <time>2021-03-31T08:59:32Z</time>
      </trkpt>
      <trkpt lat="46.32236" lon="-0.59414">
        <ele>4.4</ele>
        <time>2021-03-31T08:59:33Z</time>
      </trkpt>
      <trkpt lat="46.32234" lon="-0.59406">
        <ele>4.6</ele>
        <time>2021-03-31T08:59:34Z</time>
      </trkpt>
      <trkpt lat="46.32225" lon="-0.59379">
        <ele>4.8</ele>
        <time>2021-03-31T08:59:37Z</time>
      </trkpt>
      <trkpt lat="46.32209" lon="-0.59324">
        <ele>5</ele>
        <time>2021-03-31T08:59:42Z</time>
      </trkpt>
      <trkpt lat="46.32194" lon="-0.59278">
        <ele>4.6</ele>
        <time>2021-03-31T08:59:46Z</time>
      </trkpt>
      <trkpt lat="46.32183" lon="-0.59246">
        <ele>4.4</ele>
        <time>2021-03-31T08:59:49Z</time>
      </trkpt>
      <trkpt lat="46.32179" lon="-0.59237">
        <ele>4.4</ele>
        <time>2021-03-31T08:59:50Z</time>
      </trkpt>
      <trkpt lat="46.32174" lon="-0.59227">
        <ele>4.4</ele>
        <time>2021-03-31T08:59:51Z</time>
      </trkpt>
      <trkpt lat="46.3217" lon="-0.59218">
        <ele>4.4</ele>
        <time>2021-03-31T08:59:52Z</time>
      </trkpt>
      <trkpt lat="46.3216" lon="-0.59199">
        <ele>4.4</ele>
        <time>2021-03-31T08:59:54Z</time>
      </trkpt>
      <trkpt lat="46.32155" lon="-0.59189">
        <ele>4.4</ele>
        <time>2021-03-31T08:59:55Z</time>
      </trkpt>
      <trkpt lat="46.32145" lon="-0.59173">
        <ele>4.4</ele>
        <time>2021-03-31T08:59:57Z</time>
      </trkpt>
      <trkpt lat="46.32141" lon="-0.59165">
        <ele>4.4</ele>
        <time>2021-03-31T08:59:58Z</time>
      </trkpt>
      <trkpt lat="46.32136" lon="-0.59158">
        <ele>4.4</ele>
        <time>2021-03-31T08:59:59Z</time>
      </trkpt>
      <trkpt lat="46.32132" lon="-0.59151">
        <ele>4.4</ele>
        <time>2021-03-31T09:00:00Z</time>
      </trkpt>
      <trkpt lat="46.32127" lon="-0.59144">
        <ele>4.4</ele>
        <time>2021-03-31T09:00:01Z</time>
      </trkpt>
      <trkpt lat="46.32121" lon="-0.59136">
        <ele>4.4</ele>
        <time>2021-03-31T09:00:02Z</time>
      </trkpt>
      <trkpt lat="46.32116" lon="-0.59127">
        <ele>4.4</ele>
        <time>2021-03-31T09:00:03Z</time>
      </trkpt>
      <trkpt lat="46.32113" lon="-0.59117">
        <ele>4.4</ele>
        <time>2021-03-31T09:00:04Z</time>
      </trkpt>
      <trkpt lat="46.3211" lon="-0.59108">
        <ele>4.4</ele>
        <time>2021-03-31T09:00:05Z</time>
      </trkpt>
      <trkpt lat="46.32109" lon="-0.5909">
        <ele>4.4</ele>
        <time>2021-03-31T09:00:07Z</time>
      </trkpt>
      <trkpt lat="46.32107" lon="-0.59085">
        <ele>4.4</ele>
        <time>2021-03-31T09:00:08Z</time>
      </trkpt>
      <trkpt lat="46.32104" lon="-0.59082">
        <ele>4.4</ele>
        <time>2021-03-31T09:00:09Z</time>
      </trkpt>
      <trkpt lat="46.32102" lon="-0.59082">
        <ele>4.4</ele>
        <time>2021-03-31T09:00:10Z</time>
      </trkpt>
      <trkpt lat="46.32099" lon="-0.59085">
        <ele>4.4</ele>
        <time>2021-03-31T09:00:11Z</time>
      </trkpt>
      <trkpt lat="46.32095" lon="-0.59091">
        <ele>4.4</ele>
        <time>2021-03-31T09:00:12Z</time>
      </trkpt>
      <trkpt lat="46.32088" lon="-0.59105">
        <ele>4.6</ele>
        <time>2021-03-31T09:00:14Z</time>
      </trkpt>
      <trkpt lat="46.32086" lon="-0.59112">
        <ele>4.6</ele>
        <time>2021-03-31T09:00:15Z</time>
      </trkpt>
      <trkpt lat="46.32084" lon="-0.59119">
        <ele>4.8</ele>
        <time>2021-03-31T09:00:16Z</time>
      </trkpt>
      <trkpt lat="46.32083" lon="-0.59125">
        <ele>4.8</ele>
        <time>2021-03-31T09:00:17Z</time>
      </trkpt>
      <trkpt lat="46.32082" lon="-0.59132">
        <ele>5</ele>
        <time>2021-03-31T09:00:18Z</time>
      </trkpt>
      <trkpt lat="46.32082" lon="-0.59138">
        <ele>5.2</ele>
        <time>2021-03-31T09:00:19Z</time>
      </trkpt>
      <trkpt lat="46.3208" lon="-0.59144">
        <ele>5.2</ele>
        <time>2021-03-31T09:00:20Z</time>
      </trkpt>
      <trkpt lat="46.32073" lon="-0.59178">
        <ele>5.4</ele>
        <time>2021-03-31T09:00:24Z</time>
      </trkpt>
      <trkpt lat="46.3206" lon="-0.59231">
        <ele>5.4</ele>
        <time>2021-03-31T09:00:29Z</time>
      </trkpt>
      <trkpt lat="46.32041" lon="-0.59301">
        <ele>4.8</ele>
        <time>2021-03-31T09:00:35Z</time>
      </trkpt>
      <trkpt lat="46.32037" lon="-0.59313">
        <ele>4.6</ele>
        <time>2021-03-31T09:00:36Z</time>
      </trkpt>
      <trkpt lat="46.32018" lon="-0.59399">
        <ele>4</ele>
        <time>2021-03-31T09:00:43Z</time>
      </trkpt>
      <trkpt lat="46.32008" lon="-0.59477">
        <ele>4</ele>
        <time>2021-03-31T09:00:49Z</time>
      </trkpt>
      <trkpt lat="46.32005" lon="-0.59503">
        <ele>4</ele>
        <time>2021-03-31T09:00:51Z</time>
      </trkpt>
      <trkpt lat="46.31998" lon="-0.5958">
        <ele>4.2</ele>
        <time>2021-03-31T09:00:57Z</time>
      </trkpt>
      <trkpt lat="46.32001" lon="-0.59658">
        <ele>4.6</ele>
        <time>2021-03-31T09:01:03Z</time>
      </trkpt>
      <trkpt lat="46.32002" lon="-0.59683">
        <ele>4.6</ele>
        <time>2021-03-31T09:01:05Z</time>
      </trkpt>
      <trkpt lat="46.32003" lon="-0.59719">
        <ele>4.6</ele>
        <time>2021-03-31T09:01:08Z</time>
      </trkpt>
      <trkpt lat="46.32003" lon="-0.59731">
        <ele>4.6</ele>
        <time>2021-03-31T09:01:09Z</time>
      </trkpt>
      <trkpt lat="46.32004" lon="-0.59744">
        <ele>4.6</ele>
        <time>2021-03-31T09:01:10Z</time>
      </trkpt>
      <trkpt lat="46.32009" lon="-0.59821">
        <ele>4.8</ele>
        <time>2021-03-31T09:01:16Z</time>
      </trkpt>
      <trkpt lat="46.3202" lon="-0.59898">
        <ele>4.4</ele>
        <time>2021-03-31T09:01:22Z</time>
      </trkpt>
      <trkpt lat="46.32025" lon="-0.59936">
        <ele>4.4</ele>
        <time>2021-03-31T09:01:25Z</time>
      </trkpt>
      <trkpt lat="46.3203" lon="-0.59984">
        <ele>4.2</ele>
        <time>2021-03-31T09:01:29Z</time>
      </trkpt>
      <trkpt lat="46.3203" lon="-0.59996">
        <ele>4</ele>
        <time>2021-03-31T09:01:30Z</time>
      </trkpt>
      <trkpt lat="46.32028" lon="-0.60007">
        <ele>4</ele>
        <time>2021-03-31T09:01:31Z</time>
      </trkpt>
      <trkpt lat="46.32025" lon="-0.60019">
        <ele>4</ele>
        <time>2021-03-31T09:01:32Z</time>
      </trkpt>
      <trkpt lat="46.32021" lon="-0.60031">
        <ele>4</ele>
        <time>2021-03-31T09:01:33Z</time>
      </trkpt>
      <trkpt lat="46.32019" lon="-0.60043">
        <ele>4</ele>
        <time>2021-03-31T09:01:34Z</time>
      </trkpt>
      <trkpt lat="46.32009" lon="-0.60091">
        <ele>3.8</ele>
        <time>2021-03-31T09:01:38Z</time>
      </trkpt>
      <trkpt lat="46.32009" lon="-0.60117">
        <ele>3.8</ele>
        <time>2021-03-31T09:01:40Z</time>
      </trkpt>
      <trkpt lat="46.32014" lon="-0.60196">
        <ele>3.8</ele>
        <time>2021-03-31T09:01:46Z</time>
      </trkpt>
      <trkpt lat="46.32015" lon="-0.60235">
        <ele>3.6</ele>
        <time>2021-03-31T09:01:49Z</time>
      </trkpt>
      <trkpt lat="46.32015" lon="-0.60248">
        <ele>3.6</ele>
        <time>2021-03-31T09:01:50Z</time>
      </trkpt>
      <trkpt lat="46.32021" lon="-0.60336">
        <ele>3.6</ele>
        <time>2021-03-31T09:01:57Z</time>
      </trkpt>
      <trkpt lat="46.32022" lon="-0.60349">
        <ele>3.6</ele>
        <time>2021-03-31T09:01:58Z</time>
      </trkpt>
      <trkpt lat="46.32023" lon="-0.60361">
        <ele>3.6</ele>
        <time>2021-03-31T09:01:59Z</time>
      </trkpt>
      <trkpt lat="46.32024" lon="-0.60374">
        <ele>3.6</ele>
        <time>2021-03-31T09:02:00Z</time>
      </trkpt>
      <trkpt lat="46.32025" lon="-0.60387">
        <ele>3.6</ele>
        <time>2021-03-31T09:02:01Z</time>
      </trkpt>
      <trkpt lat="46.32029" lon="-0.60412">
        <ele>3.6</ele>
        <time>2021-03-31T09:02:03Z</time>
      </trkpt>
      <trkpt lat="46.32036" lon="-0.60436">
        <ele>3.6</ele>
        <time>2021-03-31T09:02:05Z</time>
      </trkpt>
      <trkpt lat="46.32055" lon="-0.6048">
        <ele>3.4</ele>
        <time>2021-03-31T09:02:09Z</time>
      </trkpt>
      <trkpt lat="46.32059" lon="-0.6049">
        <ele>3.4</ele>
        <time>2021-03-31T09:02:10Z</time>
      </trkpt>
      <trkpt lat="46.32063" lon="-0.60501">
        <ele>3.4</ele>
        <time>2021-03-31T09:02:11Z</time>
      </trkpt>
      <trkpt lat="46.32066" lon="-0.60511">
        <ele>3.4</ele>
        <time>2021-03-31T09:02:12Z</time>
      </trkpt>
      <trkpt lat="46.32068" lon="-0.60522">
        <ele>3.6</ele>
        <time>2021-03-31T09:02:13Z</time>
      </trkpt>
      <trkpt lat="46.32071" lon="-0.60532">
        <ele>3.6</ele>
        <time>2021-03-31T09:02:14Z</time>
      </trkpt>
      <trkpt lat="46.32073" lon="-0.60543">
        <ele>3.6</ele>
        <time>2021-03-31T09:02:15Z</time>
      </trkpt>
      <trkpt lat="46.3209" lon="-0.60623">
        <ele>3.2</ele>
        <time>2021-03-31T09:02:22Z</time>
      </trkpt>
      <trkpt lat="46.32093" lon="-0.60634">
        <ele>3</ele>
        <time>2021-03-31T09:02:23Z</time>
      </trkpt>
      <trkpt lat="46.32099" lon="-0.60655">
        <ele>3</ele>
        <time>2021-03-31T09:02:25Z</time>
      </trkpt>
      <trkpt lat="46.3211" lon="-0.60684">
        <ele>3.2</ele>
        <time>2021-03-31T09:02:28Z</time>
      </trkpt>
      <trkpt lat="46.32115" lon="-0.60694">
        <ele>3.2</ele>
        <time>2021-03-31T09:02:29Z</time>
      </trkpt>
      <trkpt lat="46.32118" lon="-0.60704">
        <ele>3.2</ele>
        <time>2021-03-31T09:02:30Z</time>
      </trkpt>
      <trkpt lat="46.32122" lon="-0.60715">
        <ele>3.2</ele>
        <time>2021-03-31T09:02:31Z</time>
      </trkpt>
      <trkpt lat="46.32128" lon="-0.60738">
        <ele>3</ele>
        <time>2021-03-31T09:02:33Z</time>
      </trkpt>
      <trkpt lat="46.32144" lon="-0.60821">
        <ele>3.2</ele>
        <time>2021-03-31T09:02:40Z</time>
      </trkpt>
      <trkpt lat="46.32144" lon="-0.60869">
        <ele>3.4</ele>
        <time>2021-03-31T09:02:44Z</time>
      </trkpt>
      <trkpt lat="46.32143" lon="-0.6088">
        <ele>3.4</ele>
        <time>2021-03-31T09:02:45Z</time>
      </trkpt>
      <trkpt lat="46.32141" lon="-0.6089">
        <ele>3.4</ele>
        <time>2021-03-31T09:02:46Z</time>
      </trkpt>
      <trkpt lat="46.3214" lon="-0.609">
        <ele>3.4</ele>
        <time>2021-03-31T09:02:47Z</time>
      </trkpt>
      <trkpt lat="46.32137" lon="-0.60911">
        <ele>3.4</ele>
        <time>2021-03-31T09:02:48Z</time>
      </trkpt>
      <trkpt lat="46.32136" lon="-0.60922">
        <ele>3.4</ele>
        <time>2021-03-31T09:02:49Z</time>
      </trkpt>
      <trkpt lat="46.32133" lon="-0.60946">
        <ele>3.4</ele>
        <time>2021-03-31T09:02:51Z</time>
      </trkpt>
      <trkpt lat="46.3213" lon="-0.61008">
        <ele>3.4</ele>
        <time>2021-03-31T09:02:56Z</time>
      </trkpt>
      <trkpt lat="46.32131" lon="-0.61096">
        <ele>3.2</ele>
        <time>2021-03-31T09:03:03Z</time>
      </trkpt>
      <trkpt lat="46.32133" lon="-0.61108">
        <ele>3.2</ele>
        <time>2021-03-31T09:03:04Z</time>
      </trkpt>
      <trkpt lat="46.32148" lon="-0.6117">
        <ele>3</ele>
        <time>2021-03-31T09:03:09Z</time>
      </trkpt>
      <trkpt lat="46.32169" lon="-0.61226">
        <ele>3</ele>
        <time>2021-03-31T09:03:14Z</time>
      </trkpt>
      <trkpt lat="46.32203" lon="-0.61303">
        <ele>2.8</ele>
        <time>2021-03-31T09:03:21Z</time>
      </trkpt>
      <trkpt lat="46.32216" lon="-0.61334">
        <ele>3</ele>
        <time>2021-03-31T09:03:24Z</time>
      </trkpt>
      <trkpt lat="46.32226" lon="-0.61358">
        <ele>3</ele>
        <time>2021-03-31T09:03:26Z</time>
      </trkpt>
      <trkpt lat="46.32232" lon="-0.61382">
        <ele>3</ele>
        <time>2021-03-31T09:03:28Z</time>
      </trkpt>
      <trkpt lat="46.32233" lon="-0.61393">
        <ele>3.2</ele>
        <time>2021-03-31T09:03:29Z</time>
      </trkpt>
      <trkpt lat="46.32232" lon="-0.61405">
        <ele>3.2</ele>
        <time>2021-03-31T09:03:30Z</time>
      </trkpt>
      <trkpt lat="46.32229" lon="-0.61416">
        <ele>3.2</ele>
        <time>2021-03-31T09:03:31Z</time>
      </trkpt>
      <trkpt lat="46.32225" lon="-0.61427">
        <ele>3.2</ele>
        <time>2021-03-31T09:03:32Z</time>
      </trkpt>
      <trkpt lat="46.32219" lon="-0.61436">
        <ele>3.2</ele>
        <time>2021-03-31T09:03:33Z</time>
      </trkpt>
      <trkpt lat="46.32212" lon="-0.61444">
        <ele>3.2</ele>
        <time>2021-03-31T09:03:34Z</time>
      </trkpt>
      <trkpt lat="46.32205" lon="-0.61451">
        <ele>3.2</ele>
        <time>2021-03-31T09:03:35Z</time>
      </trkpt>
      <trkpt lat="46.32197" lon="-0.61458">
        <ele>3.2</ele>
        <time>2021-03-31T09:03:36Z</time>
      </trkpt>
      <trkpt lat="46.3219" lon="-0.61465">
        <ele>3.2</ele>
        <time>2021-03-31T09:03:37Z</time>
      </trkpt>
      <trkpt lat="46.3217" lon="-0.61491">
        <ele>3.2</ele>
        <time>2021-03-31T09:03:40Z</time>
      </trkpt>
      <trkpt lat="46.3213" lon="-0.61559">
        <ele>2.8</ele>
        <time>2021-03-31T09:03:47Z</time>
      </trkpt>
      <trkpt lat="46.32119" lon="-0.61577">
        <ele>2.8</ele>
        <time>2021-03-31T09:03:49Z</time>
      </trkpt>
      <trkpt lat="46.32114" lon="-0.61586">
        <ele>2.8</ele>
        <time>2021-03-31T09:03:50Z</time>
      </trkpt>
      <trkpt lat="46.32109" lon="-0.61596">
        <ele>2.8</ele>
        <time>2021-03-31T09:03:51Z</time>
      </trkpt>
      <trkpt lat="46.32104" lon="-0.61606">
        <ele>2.8</ele>
        <time>2021-03-31T09:03:52Z</time>
      </trkpt>
      <trkpt lat="46.32099" lon="-0.61616">
        <ele>2.8</ele>
        <time>2021-03-31T09:03:53Z</time>
      </trkpt>
      <trkpt lat="46.32095" lon="-0.61627">
        <ele>2.8</ele>
        <time>2021-03-31T09:03:54Z</time>
      </trkpt>
      <trkpt lat="46.32091" lon="-0.61637">
        <ele>2.8</ele>
        <time>2021-03-31T09:03:55Z</time>
      </trkpt>
      <trkpt lat="46.32087" lon="-0.61648">
        <ele>2.8</ele>
        <time>2021-03-31T09:03:56Z</time>
      </trkpt>
      <trkpt lat="46.32068" lon="-0.61703">
        <ele>2.8</ele>
        <time>2021-03-31T09:04:01Z</time>
      </trkpt>
      <trkpt lat="46.32066" lon="-0.61715">
        <ele>2.8</ele>
        <time>2021-03-31T09:04:02Z</time>
      </trkpt>
      <trkpt lat="46.32066" lon="-0.61728">
        <ele>2.8</ele>
        <time>2021-03-31T09:04:03Z</time>
      </trkpt>
      <trkpt lat="46.32068" lon="-0.61778">
        <ele>2.8</ele>
        <time>2021-03-31T09:04:07Z</time>
      </trkpt>
      <trkpt lat="46.3207" lon="-0.61802">
        <ele>2.8</ele>
        <time>2021-03-31T09:04:09Z</time>
      </trkpt>
      <trkpt lat="46.32072" lon="-0.61812">
        <ele>2.8</ele>
        <time>2021-03-31T09:04:10Z</time>
      </trkpt>
      <trkpt lat="46.32074" lon="-0.61821">
        <ele>2.8</ele>
        <time>2021-03-31T09:04:11Z</time>
      </trkpt>
      <trkpt lat="46.32076" lon="-0.61827">
        <ele>2.8</ele>
        <time>2021-03-31T09:04:12Z</time>
      </trkpt>
      <trkpt lat="46.32078" lon="-0.61832">
        <ele>3</ele>
        <time>2021-03-31T09:04:13Z</time>
      </trkpt>
      <trkpt lat="46.32079" lon="-0.61836">
        <ele>3</ele>
        <time>2021-03-31T09:04:14Z</time>
      </trkpt>
      <trkpt lat="46.32081" lon="-0.61839">
        <ele>3</ele>
        <time>2021-03-31T09:04:15Z</time>
      </trkpt>
      <trkpt lat="46.32082" lon="-0.61842">
        <ele>3</ele>
        <time>2021-03-31T09:04:16Z</time>
      </trkpt>
      <trkpt lat="46.32083" lon="-0.61844">
        <ele>3</ele>
        <time>2021-03-31T09:04:17Z</time>
      </trkpt>
      <trkpt lat="46.32085" lon="-0.61846">
        <ele>3.2</ele>
        <time>2021-03-31T09:04:18Z</time>
      </trkpt>
      <trkpt lat="46.32086" lon="-0.61848">
        <ele>3.4</ele>
        <time>2021-03-31T09:04:19Z</time>
      </trkpt>
      <trkpt lat="46.32086" lon="-0.61848">
        <ele>4</ele>
        <time>2021-03-31T09:04:20Z</time>
      </trkpt>
      <trkpt lat="46.32086" lon="-0.61848">
        <ele>4.6</ele>
        <time>2021-03-31T09:04:21Z</time>
      </trkpt>
      <trkpt lat="46.3209" lon="-0.61858">
        <ele>5.8</ele>
        <time>2021-03-31T09:04:56Z</time>
      </trkpt>
      <trkpt lat="46.32101" lon="-0.61889">
        <ele>5.8</ele>
        <time>2021-03-31T09:05:01Z</time>
      </trkpt>
      <trkpt lat="46.32118" lon="-0.61935">
        <ele>5.6</ele>
        <time>2021-03-31T09:05:06Z</time>
      </trkpt>
      <trkpt lat="46.32122" lon="-0.61944">
        <ele>5.4</ele>
        <time>2021-03-31T09:05:07Z</time>
      </trkpt>
      <trkpt lat="46.32125" lon="-0.61951">
        <ele>5.2</ele>
        <time>2021-03-31T09:05:08Z</time>
      </trkpt>
      <trkpt lat="46.32129" lon="-0.61959">
        <ele>5</ele>
        <time>2021-03-31T09:05:09Z</time>
      </trkpt>
      <trkpt lat="46.32132" lon="-0.61967">
        <ele>5</ele>
        <time>2021-03-31T09:05:10Z</time>
      </trkpt>
      <trkpt lat="46.32135" lon="-0.61975">
        <ele>4.8</ele>
        <time>2021-03-31T09:05:11Z</time>
      </trkpt>
      <trkpt lat="46.32138" lon="-0.61984">
        <ele>4.8</ele>
        <time>2021-03-31T09:05:12Z</time>
      </trkpt>
      <trkpt lat="46.32147" lon="-0.62009">
        <ele>4.6</ele>
        <time>2021-03-31T09:05:15Z</time>
      </trkpt>
      <trkpt lat="46.32161" lon="-0.62047">
        <ele>4.4</ele>
        <time>2021-03-31T09:05:19Z</time>
      </trkpt>
      <trkpt lat="46.32174" lon="-0.62105">
        <ele>4.2</ele>
        <time>2021-03-31T09:05:24Z</time>
      </trkpt>
      <trkpt lat="46.32178" lon="-0.6213">
        <ele>4.2</ele>
        <time>2021-03-31T09:05:26Z</time>
      </trkpt>
      <trkpt lat="46.3219" lon="-0.62174">
        <ele>3.8</ele>
        <time>2021-03-31T09:05:30Z</time>
      </trkpt>
      <trkpt lat="46.32199" lon="-0.62194">
        <ele>3.6</ele>
        <time>2021-03-31T09:05:32Z</time>
      </trkpt>
      <trkpt lat="46.32214" lon="-0.62224">
        <ele>3.4</ele>
        <time>2021-03-31T09:05:35Z</time>
      </trkpt>
      <trkpt lat="46.32239" lon="-0.6227">
        <ele>3.2</ele>
        <time>2021-03-31T09:05:40Z</time>
      </trkpt>
      <trkpt lat="46.32244" lon="-0.62277">
        <ele>3.2</ele>
        <time>2021-03-31T09:05:41Z</time>
      </trkpt>
      <trkpt lat="46.32248" lon="-0.62283">
        <ele>3.2</ele>
        <time>2021-03-31T09:05:42Z</time>
      </trkpt>
      <trkpt lat="46.32251" lon="-0.62287">
        <ele>3.4</ele>
        <time>2021-03-31T09:05:43Z</time>
      </trkpt>
      <trkpt lat="46.32254" lon="-0.62291">
        <ele>3.4</ele>
        <time>2021-03-31T09:05:44Z</time>
      </trkpt>
      <trkpt lat="46.32256" lon="-0.62296">
        <ele>3.6</ele>
        <time>2021-03-31T09:05:45Z</time>
      </trkpt>
      <trkpt lat="46.32256" lon="-0.62301">
        <ele>3.6</ele>
        <time>2021-03-31T09:05:46Z</time>
      </trkpt>
      <trkpt lat="46.32255" lon="-0.62307">
        <ele>3.8</ele>
        <time>2021-03-31T09:05:47Z</time>
      </trkpt>
      <trkpt lat="46.32252" lon="-0.62313">
        <ele>3.8</ele>
        <time>2021-03-31T09:05:48Z</time>
      </trkpt>
      <trkpt lat="46.32241" lon="-0.62336">
        <ele>4.2</ele>
        <time>2021-03-31T09:05:51Z</time>
      </trkpt>
      <trkpt lat="46.32237" lon="-0.62345">
        <ele>4.2</ele>
        <time>2021-03-31T09:05:52Z</time>
      </trkpt>
      <trkpt lat="46.32216" lon="-0.62384">
        <ele>4.2</ele>
        <time>2021-03-31T09:05:56Z</time>
      </trkpt>
      <trkpt lat="46.32195" lon="-0.62427">
        <ele>4</ele>
        <time>2021-03-31T09:06:00Z</time>
      </trkpt>
      <trkpt lat="46.3218" lon="-0.62457">
        <ele>3</ele>
        <time>2021-03-31T09:06:03Z</time>
      </trkpt>
      <trkpt lat="46.32169" lon="-0.62472">
        <ele>2.8</ele>
        <time>2021-03-31T09:06:05Z</time>
      </trkpt>
      <trkpt lat="46.32164" lon="-0.62479">
        <ele>2.6</ele>
        <time>2021-03-31T09:06:06Z</time>
      </trkpt>
      <trkpt lat="46.32159" lon="-0.62484">
        <ele>2.6</ele>
        <time>2021-03-31T09:06:07Z</time>
      </trkpt>
      <trkpt lat="46.32155" lon="-0.62488">
        <ele>2.6</ele>
        <time>2021-03-31T09:06:08Z</time>
      </trkpt>
      <trkpt lat="46.32151" lon="-0.62492">
        <ele>2.6</ele>
        <time>2021-03-31T09:06:09Z</time>
      </trkpt>
      <trkpt lat="46.32147" lon="-0.62493">
        <ele>2.6</ele>
        <time>2021-03-31T09:06:10Z</time>
      </trkpt>
      <trkpt lat="46.32144" lon="-0.62492">
        <ele>2.6</ele>
        <time>2021-03-31T09:06:11Z</time>
      </trkpt>
      <trkpt lat="46.32141" lon="-0.62491">
        <ele>2.6</ele>
        <time>2021-03-31T09:06:12Z</time>
      </trkpt>
      <trkpt lat="46.3214" lon="-0.6249">
        <ele>2.6</ele>
        <time>2021-03-31T09:06:13Z</time>
      </trkpt>
      <trkpt lat="46.3214" lon="-0.6249">
        <ele>3</ele>
        <time>2021-03-31T09:06:14Z</time>
      </trkpt>
      <trkpt lat="46.32137" lon="-0.6248">
        <ele>6.2</ele>
        <time>2021-03-31T09:06:25Z</time>
      </trkpt>
      <trkpt lat="46.32135" lon="-0.62474">
        <ele>6.2</ele>
        <time>2021-03-31T09:06:26Z</time>
      </trkpt>
      <trkpt lat="46.32132" lon="-0.62468">
        <ele>6.2</ele>
        <time>2021-03-31T09:06:27Z</time>
      </trkpt>
      <trkpt lat="46.32129" lon="-0.62461">
        <ele>6.2</ele>
        <time>2021-03-31T09:06:28Z</time>
      </trkpt>
      <trkpt lat="46.32126" lon="-0.62453">
        <ele>6.2</ele>
        <time>2021-03-31T09:06:29Z</time>
      </trkpt>
      <trkpt lat="46.32122" lon="-0.62445">
        <ele>6.2</ele>
        <time>2021-03-31T09:06:30Z</time>
      </trkpt>
      <trkpt lat="46.32117" lon="-0.62438">
        <ele>6.2</ele>
        <time>2021-03-31T09:06:31Z</time>
      </trkpt>
      <trkpt lat="46.32113" lon="-0.62429">
        <ele>6.2</ele>
        <time>2021-03-31T09:06:32Z</time>
      </trkpt>
      <trkpt lat="46.32109" lon="-0.6242">
        <ele>6.2</ele>
        <time>2021-03-31T09:06:33Z</time>
      </trkpt>
      <trkpt lat="46.32104" lon="-0.62411">
        <ele>6</ele>
        <time>2021-03-31T09:06:34Z</time>
      </trkpt>
      <trkpt lat="46.321" lon="-0.62402">
        <ele>5.4</ele>
        <time>2021-03-31T09:06:35Z</time>
      </trkpt>
      <trkpt lat="46.32095" lon="-0.62393">
        <ele>5.2</ele>
        <time>2021-03-31T09:06:36Z</time>
      </trkpt>
      <trkpt lat="46.3209" lon="-0.62383">
        <ele>4.6</ele>
        <time>2021-03-31T09:06:37Z</time>
      </trkpt>
      <trkpt lat="46.3208" lon="-0.62364">
        <ele>3.8</ele>
        <time>2021-03-31T09:06:39Z</time>
      </trkpt>
      <trkpt lat="46.3207" lon="-0.62344">
        <ele>3.2</ele>
        <time>2021-03-31T09:06:41Z</time>
      </trkpt>
      <trkpt lat="46.32064" lon="-0.62334">
        <ele>3</ele>
        <time>2021-03-31T09:06:42Z</time>
      </trkpt>
      <trkpt lat="46.32059" lon="-0.62325">
        <ele>2.6</ele>
        <time>2021-03-31T09:06:43Z</time>
      </trkpt>
      <trkpt lat="46.32024" lon="-0.62257">
        <ele>1.8</ele>
        <time>2021-03-31T09:06:50Z</time>
      </trkpt>
      <trkpt lat="46.31988" lon="-0.62186">
        <ele>1.6</ele>
        <time>2021-03-31T09:06:57Z</time>
      </trkpt>
      <trkpt lat="46.31978" lon="-0.62166">
        <ele>1.6</ele>
        <time>2021-03-31T09:06:59Z</time>
      </trkpt>
      <trkpt lat="46.31947" lon="-0.62106">
        <ele>1.6</ele>
        <time>2021-03-31T09:07:05Z</time>
      </trkpt>
      <trkpt lat="46.31937" lon="-0.62086">
        <ele>1.6</ele>
        <time>2021-03-31T09:07:07Z</time>
      </trkpt>
      <trkpt lat="46.31901" lon="-0.62015">
        <ele>1.6</ele>
        <time>2021-03-31T09:07:14Z</time>
      </trkpt>
      <trkpt lat="46.31891" lon="-0.61995">
        <ele>1.6</ele>
        <time>2021-03-31T09:07:16Z</time>
      </trkpt>
      <trkpt lat="46.31853" lon="-0.61923">
        <ele>1.8</ele>
        <time>2021-03-31T09:07:23Z</time>
      </trkpt>
      <trkpt lat="46.31843" lon="-0.61903">
        <ele>1.8</ele>
        <time>2021-03-31T09:07:25Z</time>
      </trkpt>
      <trkpt lat="46.31824" lon="-0.61866">
        <ele>2</ele>
        <time>2021-03-31T09:07:29Z</time>
      </trkpt>
      <trkpt lat="46.31819" lon="-0.61857">
        <ele>2.2</ele>
        <time>2021-03-31T09:07:30Z</time>
      </trkpt>
      <trkpt lat="46.31814" lon="-0.61847">
        <ele>2.2</ele>
        <time>2021-03-31T09:07:31Z</time>
      </trkpt>
      <trkpt lat="46.31809" lon="-0.61838">
        <ele>2.2</ele>
        <time>2021-03-31T09:07:32Z</time>
      </trkpt>
      <trkpt lat="46.31795" lon="-0.61811">
        <ele>2</ele>
        <time>2021-03-31T09:07:35Z</time>
      </trkpt>
      <trkpt lat="46.31782" lon="-0.61785">
        <ele>2.2</ele>
        <time>2021-03-31T09:07:38Z</time>
      </trkpt>
      <trkpt lat="46.31777" lon="-0.61775">
        <ele>2.4</ele>
        <time>2021-03-31T09:07:39Z</time>
      </trkpt>
      <trkpt lat="46.31773" lon="-0.61766">
        <ele>2.4</ele>
        <time>2021-03-31T09:07:40Z</time>
      </trkpt>
      <trkpt lat="46.31768" lon="-0.61757">
        <ele>2.4</ele>
        <time>2021-03-31T09:07:41Z</time>
      </trkpt>
      <trkpt lat="46.31753" lon="-0.61731">
        <ele>2.4</ele>
        <time>2021-03-31T09:07:44Z</time>
      </trkpt>
      <trkpt lat="46.31748" lon="-0.61723">
        <ele>2.6</ele>
        <time>2021-03-31T09:07:45Z</time>
      </trkpt>
      <trkpt lat="46.31741" lon="-0.61707">
        <ele>2.6</ele>
        <time>2021-03-31T09:07:47Z</time>
      </trkpt>
      <trkpt lat="46.31738" lon="-0.61701">
        <ele>2.6</ele>
        <time>2021-03-31T09:07:48Z</time>
      </trkpt>
      <trkpt lat="46.31735" lon="-0.61695">
        <ele>2.6</ele>
        <time>2021-03-31T09:07:49Z</time>
      </trkpt>
      <trkpt lat="46.31732" lon="-0.6169">
        <ele>2.8</ele>
        <time>2021-03-31T09:07:50Z</time>
      </trkpt>
      <trkpt lat="46.3173" lon="-0.61686">
        <ele>3</ele>
        <time>2021-03-31T09:07:51Z</time>
      </trkpt>
      <trkpt lat="46.31728" lon="-0.61684">
        <ele>3</ele>
        <time>2021-03-31T09:07:52Z</time>
      </trkpt>
      <trkpt lat="46.31727" lon="-0.61682">
        <ele>3.2</ele>
        <time>2021-03-31T09:07:53Z</time>
      </trkpt>
      <trkpt lat="46.31727" lon="-0.61681">
        <ele>3.6</ele>
        <time>2021-03-31T09:07:54Z</time>
      </trkpt>
      <trkpt lat="46.31727" lon="-0.61681">
        <ele>3.6</ele>
        <time>2021-03-31T09:07:55Z</time>
      </trkpt>
      <trkpt lat="46.31727" lon="-0.61681">
        <ele>3.8</ele>
        <time>2021-03-31T09:07:56Z</time>
      </trkpt>
      <trkpt lat="46.31725" lon="-0.61672">
        <ele>5.6</ele>
        <time>2021-03-31T09:08:01Z</time>
      </trkpt>
      <trkpt lat="46.31723" lon="-0.61668">
        <ele>5.6</ele>
        <time>2021-03-31T09:08:02Z</time>
      </trkpt>
      <trkpt lat="46.31721" lon="-0.61665">
        <ele>5.8</ele>
        <time>2021-03-31T09:08:03Z</time>
      </trkpt>
      <trkpt lat="46.31719" lon="-0.61661">
        <ele>6</ele>
        <time>2021-03-31T09:08:04Z</time>
      </trkpt>
      <trkpt lat="46.31716" lon="-0.61656">
        <ele>6</ele>
        <time>2021-03-31T09:08:05Z</time>
      </trkpt>
      <trkpt lat="46.31712" lon="-0.6165">
        <ele>6</ele>
        <time>2021-03-31T09:08:06Z</time>
      </trkpt>
      <trkpt lat="46.31709" lon="-0.61644">
        <ele>6</ele>
        <time>2021-03-31T09:08:07Z</time>
      </trkpt>
      <trkpt lat="46.31705" lon="-0.61637">
        <ele>6</ele>
        <time>2021-03-31T09:08:08Z</time>
      </trkpt>
      <trkpt lat="46.31702" lon="-0.6163">
        <ele>6</ele>
        <time>2021-03-31T09:08:09Z</time>
      </trkpt>
      <trkpt lat="46.31698" lon="-0.61623">
        <ele>6</ele>
        <time>2021-03-31T09:08:10Z</time>
      </trkpt>
      <trkpt lat="46.31695" lon="-0.61617">
        <ele>6</ele>
        <time>2021-03-31T09:08:11Z</time>
      </trkpt>
      <trkpt lat="46.31692" lon="-0.61611">
        <ele>5.8</ele>
        <time>2021-03-31T09:08:12Z</time>
      </trkpt>
      <trkpt lat="46.31689" lon="-0.61605">
        <ele>5.8</ele>
        <time>2021-03-31T09:08:13Z</time>
      </trkpt>
      <trkpt lat="46.31685" lon="-0.61598">
        <ele>5.6</ele>
        <time>2021-03-31T09:08:14Z</time>
      </trkpt>
      <trkpt lat="46.31682" lon="-0.61591">
        <ele>5.2</ele>
        <time>2021-03-31T09:08:15Z</time>
      </trkpt>
      <trkpt lat="46.31677" lon="-0.61584">
        <ele>5</ele>
        <time>2021-03-31T09:08:16Z</time>
      </trkpt>
      <trkpt lat="46.31673" lon="-0.61576">
        <ele>4.8</ele>
        <time>2021-03-31T09:08:17Z</time>
      </trkpt>
      <trkpt lat="46.31669" lon="-0.61568">
        <ele>4.6</ele>
        <time>2021-03-31T09:08:18Z</time>
      </trkpt>
      <trkpt lat="46.3166" lon="-0.61551">
        <ele>4.4</ele>
        <time>2021-03-31T09:08:20Z</time>
      </trkpt>
      <trkpt lat="46.3164" lon="-0.61513">
        <ele>3.6</ele>
        <time>2021-03-31T09:08:24Z</time>
      </trkpt>
      <trkpt lat="46.31631" lon="-0.61495">
        <ele>3.4</ele>
        <time>2021-03-31T09:08:26Z</time>
      </trkpt>
      <trkpt lat="46.31625" lon="-0.61486">
        <ele>3.2</ele>
        <time>2021-03-31T09:08:27Z</time>
      </trkpt>
      <trkpt lat="46.31621" lon="-0.61476">
        <ele>3.2</ele>
        <time>2021-03-31T09:08:28Z</time>
      </trkpt>
      <trkpt lat="46.31611" lon="-0.61456">
        <ele>2.8</ele>
        <time>2021-03-31T09:08:30Z</time>
      </trkpt>
      <trkpt lat="46.31576" lon="-0.61384">
        <ele>2.6</ele>
        <time>2021-03-31T09:08:37Z</time>
      </trkpt>
      <trkpt lat="46.31571" lon="-0.61374">
        <ele>2.6</ele>
        <time>2021-03-31T09:08:38Z</time>
      </trkpt>
      <trkpt lat="46.31544" lon="-0.61323">
        <ele>2.6</ele>
        <time>2021-03-31T09:08:43Z</time>
      </trkpt>
      <trkpt lat="46.31534" lon="-0.61302">
        <ele>2.4</ele>
        <time>2021-03-31T09:08:45Z</time>
      </trkpt>
      <trkpt lat="46.31528" lon="-0.61292">
        <ele>2.4</ele>
        <time>2021-03-31T09:08:46Z</time>
      </trkpt>
      <trkpt lat="46.31491" lon="-0.61222">
        <ele>2.2</ele>
        <time>2021-03-31T09:08:53Z</time>
      </trkpt>
      <trkpt lat="46.3146" lon="-0.61161">
        <ele>2.2</ele>
        <time>2021-03-31T09:08:59Z</time>
      </trkpt>
      <trkpt lat="46.31453" lon="-0.61138">
        <ele>2.2</ele>
        <time>2021-03-31T09:09:01Z</time>
      </trkpt>
      <trkpt lat="46.31449" lon="-0.61113">
        <ele>2.4</ele>
        <time>2021-03-31T09:09:03Z</time>
      </trkpt>
      <trkpt lat="46.31449" lon="-0.61088">
        <ele>2.4</ele>
        <time>2021-03-31T09:09:05Z</time>
      </trkpt>
      <trkpt lat="46.31456" lon="-0.60999">
        <ele>2.4</ele>
        <time>2021-03-31T09:09:12Z</time>
      </trkpt>
      <trkpt lat="46.31457" lon="-0.60987">
        <ele>2.4</ele>
        <time>2021-03-31T09:09:13Z</time>
      </trkpt>
      <trkpt lat="46.31458" lon="-0.60975">
        <ele>2.4</ele>
        <time>2021-03-31T09:09:14Z</time>
      </trkpt>
      <trkpt lat="46.31459" lon="-0.60952">
        <ele>2.6</ele>
        <time>2021-03-31T09:09:16Z</time>
      </trkpt>
      <trkpt lat="46.31459" lon="-0.60941">
        <ele>2.6</ele>
        <time>2021-03-31T09:09:17Z</time>
      </trkpt>
      <trkpt lat="46.31459" lon="-0.6093">
        <ele>2.6</ele>
        <time>2021-03-31T09:09:18Z</time>
      </trkpt>
      <trkpt lat="46.3146" lon="-0.60921">
        <ele>2.6</ele>
        <time>2021-03-31T09:09:19Z</time>
      </trkpt>
      <trkpt lat="46.3146" lon="-0.60913">
        <ele>2.6</ele>
        <time>2021-03-31T09:09:20Z</time>
      </trkpt>
      <trkpt lat="46.31459" lon="-0.60905">
        <ele>2.8</ele>
        <time>2021-03-31T09:09:21Z</time>
      </trkpt>
      <trkpt lat="46.31457" lon="-0.60898">
        <ele>2.8</ele>
        <time>2021-03-31T09:09:22Z</time>
      </trkpt>
      <trkpt lat="46.31455" lon="-0.60893">
        <ele>3</ele>
        <time>2021-03-31T09:09:23Z</time>
      </trkpt>
      <trkpt lat="46.31451" lon="-0.60891">
        <ele>3</ele>
        <time>2021-03-31T09:09:24Z</time>
      </trkpt>
      <trkpt lat="46.31447" lon="-0.60892">
        <ele>3.2</ele>
        <time>2021-03-31T09:09:25Z</time>
      </trkpt>
      <trkpt lat="46.31443" lon="-0.60897">
        <ele>3.2</ele>
        <time>2021-03-31T09:09:26Z</time>
      </trkpt>
      <trkpt lat="46.31438" lon="-0.60902">
        <ele>3.4</ele>
        <time>2021-03-31T09:09:27Z</time>
      </trkpt>
      <trkpt lat="46.31427" lon="-0.60915">
        <ele>4.2</ele>
        <time>2021-03-31T09:09:29Z</time>
      </trkpt>
      <trkpt lat="46.3142" lon="-0.60922">
        <ele>4.4</ele>
        <time>2021-03-31T09:09:30Z</time>
      </trkpt>
      <trkpt lat="46.31413" lon="-0.60931">
        <ele>4.4</ele>
        <time>2021-03-31T09:09:31Z</time>
      </trkpt>
      <trkpt lat="46.31406" lon="-0.60938">
        <ele>4.6</ele>
        <time>2021-03-31T09:09:32Z</time>
      </trkpt>
      <trkpt lat="46.31385" lon="-0.6096">
        <ele>4.6</ele>
        <time>2021-03-31T09:09:35Z</time>
      </trkpt>
      <trkpt lat="46.31378" lon="-0.60967">
        <ele>4.6</ele>
        <time>2021-03-31T09:09:36Z</time>
      </trkpt>
      <trkpt lat="46.31341" lon="-0.61005">
        <ele>4.2</ele>
        <time>2021-03-31T09:09:41Z</time>
      </trkpt>
      <trkpt lat="46.31319" lon="-0.61029">
        <ele>3.6</ele>
        <time>2021-03-31T09:09:44Z</time>
      </trkpt>
      <trkpt lat="46.31313" lon="-0.61039">
        <ele>3.4</ele>
        <time>2021-03-31T09:09:45Z</time>
      </trkpt>
      <trkpt lat="46.31308" lon="-0.61049">
        <ele>3.2</ele>
        <time>2021-03-31T09:09:46Z</time>
      </trkpt>
      <trkpt lat="46.31303" lon="-0.6106">
        <ele>3</ele>
        <time>2021-03-31T09:09:47Z</time>
      </trkpt>
      <trkpt lat="46.31295" lon="-0.61083">
        <ele>2.8</ele>
        <time>2021-03-31T09:09:49Z</time>
      </trkpt>
      <trkpt lat="46.31293" lon="-0.61096">
        <ele>2.6</ele>
        <time>2021-03-31T09:09:50Z</time>
      </trkpt>
      <trkpt lat="46.31292" lon="-0.61109">
        <ele>2.6</ele>
        <time>2021-03-31T09:09:51Z</time>
      </trkpt>
      <trkpt lat="46.31292" lon="-0.61147">
        <ele>2.6</ele>
        <time>2021-03-31T09:09:54Z</time>
      </trkpt>
      <trkpt lat="46.31293" lon="-0.6116">
        <ele>2.6</ele>
        <time>2021-03-31T09:09:55Z</time>
      </trkpt>
      <trkpt lat="46.31302" lon="-0.61197">
        <ele>2.6</ele>
        <time>2021-03-31T09:09:58Z</time>
      </trkpt>
      <trkpt lat="46.31323" lon="-0.6127">
        <ele>3</ele>
        <time>2021-03-31T09:10:04Z</time>
      </trkpt>
      <trkpt lat="46.31328" lon="-0.61321">
        <ele>3.2</ele>
        <time>2021-03-31T09:10:08Z</time>
      </trkpt>
      <trkpt lat="46.31328" lon="-0.61333">
        <ele>3.2</ele>
        <time>2021-03-31T09:10:09Z</time>
      </trkpt>
      <trkpt lat="46.31323" lon="-0.61372">
        <ele>3.2</ele>
        <time>2021-03-31T09:10:12Z</time>
      </trkpt>
      <trkpt lat="46.31317" lon="-0.61396">
        <ele>3.4</ele>
        <time>2021-03-31T09:10:14Z</time>
      </trkpt>
      <trkpt lat="46.31309" lon="-0.61419">
        <ele>3.4</ele>
        <time>2021-03-31T09:10:16Z</time>
      </trkpt>
      <trkpt lat="46.31274" lon="-0.61494">
        <ele>3.4</ele>
        <time>2021-03-31T09:10:23Z</time>
      </trkpt>
      <trkpt lat="46.31269" lon="-0.61504">
        <ele>3.4</ele>
        <time>2021-03-31T09:10:24Z</time>
      </trkpt>
      <trkpt lat="46.31255" lon="-0.61532">
        <ele>3.4</ele>
        <time>2021-03-31T09:10:27Z</time>
      </trkpt>
      <trkpt lat="46.31251" lon="-0.6154">
        <ele>3.4</ele>
        <time>2021-03-31T09:10:28Z</time>
      </trkpt>
      <trkpt lat="46.31247" lon="-0.61547">
        <ele>3.4</ele>
        <time>2021-03-31T09:10:29Z</time>
      </trkpt>
      <trkpt lat="46.31243" lon="-0.61554">
        <ele>3.4</ele>
        <time>2021-03-31T09:10:30Z</time>
      </trkpt>
      <trkpt lat="46.3124" lon="-0.61561">
        <ele>3.4</ele>
        <time>2021-03-31T09:10:31Z</time>
      </trkpt>
      <trkpt lat="46.31236" lon="-0.61568">
        <ele>3.6</ele>
        <time>2021-03-31T09:10:32Z</time>
      </trkpt>
      <trkpt lat="46.31233" lon="-0.61574">
        <ele>3.8</ele>
        <time>2021-03-31T09:10:33Z</time>
      </trkpt>
      <trkpt lat="46.31229" lon="-0.61581">
        <ele>3.8</ele>
        <time>2021-03-31T09:10:34Z</time>
      </trkpt>
      <trkpt lat="46.31225" lon="-0.61588">
        <ele>3.8</ele>
        <time>2021-03-31T09:10:35Z</time>
      </trkpt>
      <trkpt lat="46.31211" lon="-0.616">
        <ele>4.6</ele>
        <time>2021-03-31T09:10:37Z</time>
      </trkpt>
      <trkpt lat="46.31204" lon="-0.61605">
        <ele>4.6</ele>
        <time>2021-03-31T09:10:38Z</time>
      </trkpt>
      <trkpt lat="46.31185" lon="-0.61622">
        <ele>4.8</ele>
        <time>2021-03-31T09:10:41Z</time>
      </trkpt>
      <trkpt lat="46.31179" lon="-0.61627">
        <ele>4.8</ele>
        <time>2021-03-31T09:10:42Z</time>
      </trkpt>
      <trkpt lat="46.31172" lon="-0.61632">
        <ele>4.8</ele>
        <time>2021-03-31T09:10:43Z</time>
      </trkpt>
      <trkpt lat="46.31166" lon="-0.61637">
        <ele>4.8</ele>
        <time>2021-03-31T09:10:44Z</time>
      </trkpt>
      <trkpt lat="46.31161" lon="-0.61643">
        <ele>4.8</ele>
        <time>2021-03-31T09:10:45Z</time>
      </trkpt>
      <trkpt lat="46.31156" lon="-0.61647">
        <ele>4.8</ele>
        <time>2021-03-31T09:10:46Z</time>
      </trkpt>
      <trkpt lat="46.31151" lon="-0.61649">
        <ele>4.8</ele>
        <time>2021-03-31T09:10:47Z</time>
      </trkpt>
      <trkpt lat="46.31147" lon="-0.6165">
        <ele>4.8</ele>
        <time>2021-03-31T09:10:48Z</time>
      </trkpt>
      <trkpt lat="46.31143" lon="-0.61649">
        <ele>4.8</ele>
        <time>2021-03-31T09:10:49Z</time>
      </trkpt>
      <trkpt lat="46.3114" lon="-0.61645">
        <ele>4.8</ele>
        <time>2021-03-31T09:10:50Z</time>
      </trkpt>
      <trkpt lat="46.31137" lon="-0.61639">
        <ele>4.8</ele>
        <time>2021-03-31T09:10:51Z</time>
      </trkpt>
      <trkpt lat="46.31134" lon="-0.61633">
        <ele>4.6</ele>
        <time>2021-03-31T09:10:52Z</time>
      </trkpt>
      <trkpt lat="46.31126" lon="-0.61619">
        <ele>4.4</ele>
        <time>2021-03-31T09:10:54Z</time>
      </trkpt>
      <trkpt lat="46.31119" lon="-0.61604">
        <ele>4.2</ele>
        <time>2021-03-31T09:10:56Z</time>
      </trkpt>
      <trkpt lat="46.31112" lon="-0.61592">
        <ele>4.4</ele>
        <time>2021-03-31T09:10:58Z</time>
      </trkpt>
      <trkpt lat="46.31108" lon="-0.61589">
        <ele>4.6</ele>
        <time>2021-03-31T09:10:59Z</time>
      </trkpt>
      <trkpt lat="46.31104" lon="-0.61588">
        <ele>4.6</ele>
        <time>2021-03-31T09:11:00Z</time>
      </trkpt>
      <trkpt lat="46.311" lon="-0.61589">
        <ele>4.8</ele>
        <time>2021-03-31T09:11:01Z</time>
      </trkpt>
      <trkpt lat="46.31095" lon="-0.61591">
        <ele>5</ele>
        <time>2021-03-31T09:11:02Z</time>
      </trkpt>
      <trkpt lat="46.31091" lon="-0.61594">
        <ele>5</ele>
        <time>2021-03-31T09:11:03Z</time>
      </trkpt>
      <trkpt lat="46.31087" lon="-0.616">
        <ele>5.2</ele>
        <time>2021-03-31T09:11:04Z</time>
      </trkpt>
      <trkpt lat="46.31085" lon="-0.61606">
        <ele>5.2</ele>
        <time>2021-03-31T09:11:05Z</time>
      </trkpt>
      <trkpt lat="46.31082" lon="-0.61613">
        <ele>5</ele>
        <time>2021-03-31T09:11:06Z</time>
      </trkpt>
      <trkpt lat="46.31079" lon="-0.6162">
        <ele>5</ele>
        <time>2021-03-31T09:11:07Z</time>
      </trkpt>
      <trkpt lat="46.31076" lon="-0.61627">
        <ele>4.8</ele>
        <time>2021-03-31T09:11:08Z</time>
      </trkpt>
      <trkpt lat="46.31068" lon="-0.61651">
        <ele>4.8</ele>
        <time>2021-03-31T09:11:11Z</time>
      </trkpt>
      <trkpt lat="46.31052" lon="-0.61694">
        <ele>4.8</ele>
        <time>2021-03-31T09:11:16Z</time>
      </trkpt>
      <trkpt lat="46.31048" lon="-0.617">
        <ele>4.8</ele>
        <time>2021-03-31T09:11:17Z</time>
      </trkpt>
      <trkpt lat="46.31044" lon="-0.61705">
        <ele>4.8</ele>
        <time>2021-03-31T09:11:18Z</time>
      </trkpt>
      <trkpt lat="46.3104" lon="-0.61709">
        <ele>4.8</ele>
        <time>2021-03-31T09:11:19Z</time>
      </trkpt>
      <trkpt lat="46.31036" lon="-0.61714">
        <ele>4.8</ele>
        <time>2021-03-31T09:11:20Z</time>
      </trkpt>
      <trkpt lat="46.31031" lon="-0.6173">
        <ele>4.6</ele>
        <time>2021-03-31T09:11:22Z</time>
      </trkpt>
      <trkpt lat="46.3103" lon="-0.6174">
        <ele>4.6</ele>
        <time>2021-03-31T09:11:23Z</time>
      </trkpt>
      <trkpt lat="46.31028" lon="-0.6175">
        <ele>4.6</ele>
        <time>2021-03-31T09:11:24Z</time>
      </trkpt>
      <trkpt lat="46.31026" lon="-0.61761">
        <ele>4.6</ele>
        <time>2021-03-31T09:11:25Z</time>
      </trkpt>
      <trkpt lat="46.31024" lon="-0.61772">
        <ele>4.4</ele>
        <time>2021-03-31T09:11:26Z</time>
      </trkpt>
      <trkpt lat="46.31021" lon="-0.61783">
        <ele>4.2</ele>
        <time>2021-03-31T09:11:27Z</time>
      </trkpt>
      <trkpt lat="46.31013" lon="-0.61816">
        <ele>4</ele>
        <time>2021-03-31T09:11:30Z</time>
      </trkpt>
      <trkpt lat="46.31003" lon="-0.61869">
        <ele>3.8</ele>
        <time>2021-03-31T09:11:35Z</time>
      </trkpt>
      <trkpt lat="46.31001" lon="-0.6189">
        <ele>3.8</ele>
        <time>2021-03-31T09:11:37Z</time>
      </trkpt>
      <trkpt lat="46.31" lon="-0.619">
        <ele>3.8</ele>
        <time>2021-03-31T09:11:38Z</time>
      </trkpt>
      <trkpt lat="46.30998" lon="-0.61911">
        <ele>3.6</ele>
        <time>2021-03-31T09:11:39Z</time>
      </trkpt>
      <trkpt lat="46.30997" lon="-0.61922">
        <ele>3.6</ele>
        <time>2021-03-31T09:11:40Z</time>
      </trkpt>
      <trkpt lat="46.30996" lon="-0.61933">
        <ele>3.6</ele>
        <time>2021-03-31T09:11:41Z</time>
      </trkpt>
      <trkpt lat="46.30995" lon="-0.61944">
        <ele>3.6</ele>
        <time>2021-03-31T09:11:42Z</time>
      </trkpt>
      <trkpt lat="46.30994" lon="-0.61954">
        <ele>3.6</ele>
        <time>2021-03-31T09:11:43Z</time>
      </trkpt>
      <trkpt lat="46.30993" lon="-0.61964">
        <ele>3.6</ele>
        <time>2021-03-31T09:11:44Z</time>
      </trkpt>
      <trkpt lat="46.30989" lon="-0.61995">
        <ele>3.8</ele>
        <time>2021-03-31T09:11:47Z</time>
      </trkpt>
      <trkpt lat="46.30987" lon="-0.62005">
        <ele>3.8</ele>
        <time>2021-03-31T09:11:48Z</time>
      </trkpt>
      <trkpt lat="46.30986" lon="-0.62016">
        <ele>3.8</ele>
        <time>2021-03-31T09:11:49Z</time>
      </trkpt>
      <trkpt lat="46.30982" lon="-0.62046">
        <ele>4</ele>
        <time>2021-03-31T09:11:52Z</time>
      </trkpt>
      <trkpt lat="46.30981" lon="-0.62056">
        <ele>4</ele>
        <time>2021-03-31T09:11:53Z</time>
      </trkpt>
      <trkpt lat="46.30978" lon="-0.62074">
        <ele>4.2</ele>
        <time>2021-03-31T09:11:55Z</time>
      </trkpt>
      <trkpt lat="46.30976" lon="-0.62081">
        <ele>4.2</ele>
        <time>2021-03-31T09:11:56Z</time>
      </trkpt>
      <trkpt lat="46.30974" lon="-0.62088">
        <ele>4.2</ele>
        <time>2021-03-31T09:11:57Z</time>
      </trkpt>
      <trkpt lat="46.30971" lon="-0.62093">
        <ele>4.4</ele>
        <time>2021-03-31T09:11:58Z</time>
      </trkpt>
      <trkpt lat="46.30969" lon="-0.62097">
        <ele>4.4</ele>
        <time>2021-03-31T09:11:59Z</time>
      </trkpt>
      <trkpt lat="46.30967" lon="-0.621">
        <ele>4.4</ele>
        <time>2021-03-31T09:12:00Z</time>
      </trkpt>
      <trkpt lat="46.30966" lon="-0.62102">
        <ele>4.6</ele>
        <time>2021-03-31T09:12:01Z</time>
      </trkpt>
      <trkpt lat="46.30965" lon="-0.62104">
        <ele>4.6</ele>
        <time>2021-03-31T09:12:02Z</time>
      </trkpt>
      <trkpt lat="46.30963" lon="-0.62105">
        <ele>4.8</ele>
        <time>2021-03-31T09:12:03Z</time>
      </trkpt>
      <trkpt lat="46.30961" lon="-0.62106">
        <ele>4.8</ele>
        <time>2021-03-31T09:12:04Z</time>
      </trkpt>
      <trkpt lat="46.30959" lon="-0.62105">
        <ele>4.8</ele>
        <time>2021-03-31T09:12:05Z</time>
      </trkpt>
      <trkpt lat="46.30956" lon="-0.62103">
        <ele>4.8</ele>
        <time>2021-03-31T09:12:06Z</time>
      </trkpt>
      <trkpt lat="46.30955" lon="-0.62102">
        <ele>4.8</ele>
        <time>2021-03-31T09:12:07Z</time>
      </trkpt>
      <trkpt lat="46.30955" lon="-0.62101">
        <ele>4.8</ele>
        <time>2021-03-31T09:12:09Z</time>
      </trkpt>
      <trkpt lat="46.3095" lon="-0.62092">
        <ele>5</ele>
        <time>2021-03-31T09:12:41Z</time>
      </trkpt>
      <trkpt lat="46.30947" lon="-0.62087">
        <ele>4.8</ele>
        <time>2021-03-31T09:12:42Z</time>
      </trkpt>
      <trkpt lat="46.30943" lon="-0.6208">
        <ele>4.8</ele>
        <time>2021-03-31T09:12:43Z</time>
      </trkpt>
      <trkpt lat="46.30939" lon="-0.62073">
        <ele>4.8</ele>
        <time>2021-03-31T09:12:44Z</time>
      </trkpt>
      <trkpt lat="46.30935" lon="-0.62066">
        <ele>4.8</ele>
        <time>2021-03-31T09:12:45Z</time>
      </trkpt>
      <trkpt lat="46.3093" lon="-0.62059">
        <ele>4.8</ele>
        <time>2021-03-31T09:12:46Z</time>
      </trkpt>
      <trkpt lat="46.3092" lon="-0.62048">
        <ele>4.8</ele>
        <time>2021-03-31T09:12:48Z</time>
      </trkpt>
      <trkpt lat="46.30913" lon="-0.62046">
        <ele>4.6</ele>
        <time>2021-03-31T09:12:49Z</time>
      </trkpt>
      <trkpt lat="46.30905" lon="-0.62047">
        <ele>4.6</ele>
        <time>2021-03-31T09:12:50Z</time>
      </trkpt>
      <trkpt lat="46.30898" lon="-0.6205">
        <ele>4.2</ele>
        <time>2021-03-31T09:12:51Z</time>
      </trkpt>
      <trkpt lat="46.30891" lon="-0.62052">
        <ele>4.2</ele>
        <time>2021-03-31T09:12:52Z</time>
      </trkpt>
      <trkpt lat="46.30883" lon="-0.62055">
        <ele>4.2</ele>
        <time>2021-03-31T09:12:53Z</time>
      </trkpt>
      <trkpt lat="46.30875" lon="-0.62057">
        <ele>3.8</ele>
        <time>2021-03-31T09:12:54Z</time>
      </trkpt>
      <trkpt lat="46.30867" lon="-0.6206">
        <ele>3.4</ele>
        <time>2021-03-31T09:12:55Z</time>
      </trkpt>
      <trkpt lat="46.30843" lon="-0.62068">
        <ele>2.6</ele>
        <time>2021-03-31T09:12:58Z</time>
      </trkpt>
      <trkpt lat="46.30834" lon="-0.62071">
        <ele>2.6</ele>
        <time>2021-03-31T09:12:59Z</time>
      </trkpt>
      <trkpt lat="46.30818" lon="-0.62077">
        <ele>2.2</ele>
        <time>2021-03-31T09:13:01Z</time>
      </trkpt>
      <trkpt lat="46.30793" lon="-0.62085">
        <ele>2</ele>
        <time>2021-03-31T09:13:04Z</time>
      </trkpt>
      <trkpt lat="46.30738" lon="-0.62111">
        <ele>1.8</ele>
        <time>2021-03-31T09:13:11Z</time>
      </trkpt>
      <trkpt lat="46.30707" lon="-0.62125">
        <ele>1.8</ele>
        <time>2021-03-31T09:13:15Z</time>
      </trkpt>
      <trkpt lat="46.307" lon="-0.62128">
        <ele>1.8</ele>
        <time>2021-03-31T09:13:16Z</time>
      </trkpt>
      <trkpt lat="46.30693" lon="-0.62131">
        <ele>1.8</ele>
        <time>2021-03-31T09:13:17Z</time>
      </trkpt>
      <trkpt lat="46.30687" lon="-0.62134">
        <ele>1.8</ele>
        <time>2021-03-31T09:13:18Z</time>
      </trkpt>
      <trkpt lat="46.30681" lon="-0.62137">
        <ele>1.8</ele>
        <time>2021-03-31T09:13:19Z</time>
      </trkpt>
      <trkpt lat="46.30675" lon="-0.62139">
        <ele>1.8</ele>
        <time>2021-03-31T09:13:20Z</time>
      </trkpt>
      <trkpt lat="46.30669" lon="-0.62139">
        <ele>1.8</ele>
        <time>2021-03-31T09:13:21Z</time>
      </trkpt>
      <trkpt lat="46.30664" lon="-0.62136">
        <ele>1.8</ele>
        <time>2021-03-31T09:13:22Z</time>
      </trkpt>
      <trkpt lat="46.3066" lon="-0.62132">
        <ele>1.8</ele>
        <time>2021-03-31T09:13:23Z</time>
      </trkpt>
      <trkpt lat="46.30658" lon="-0.62126">
        <ele>1.8</ele>
        <time>2021-03-31T09:13:24Z</time>
      </trkpt>
      <trkpt lat="46.30657" lon="-0.62118">
        <ele>1.8</ele>
        <time>2021-03-31T09:13:25Z</time>
      </trkpt>
      <trkpt lat="46.30655" lon="-0.62109">
        <ele>1.8</ele>
        <time>2021-03-31T09:13:26Z</time>
      </trkpt>
      <trkpt lat="46.30653" lon="-0.621">
        <ele>1.8</ele>
        <time>2021-03-31T09:13:27Z</time>
      </trkpt>
      <trkpt lat="46.30652" lon="-0.62089">
        <ele>1.8</ele>
        <time>2021-03-31T09:13:28Z</time>
      </trkpt>
      <trkpt lat="46.30647" lon="-0.62056">
        <ele>1.6</ele>
        <time>2021-03-31T09:13:31Z</time>
      </trkpt>
      <trkpt lat="46.30637" lon="-0.61998">
        <ele>1.4</ele>
        <time>2021-03-31T09:13:36Z</time>
      </trkpt>
      <trkpt lat="46.30635" lon="-0.61987">
        <ele>1.2</ele>
        <time>2021-03-31T09:13:37Z</time>
      </trkpt>
      <trkpt lat="46.30634" lon="-0.61976">
        <ele>1.2</ele>
        <time>2021-03-31T09:13:38Z</time>
      </trkpt>
      <trkpt lat="46.30627" lon="-0.6194">
        <ele>1.2</ele>
        <time>2021-03-31T09:13:41Z</time>
      </trkpt>
      <trkpt lat="46.30616" lon="-0.61881">
        <ele>1</ele>
        <time>2021-03-31T09:13:46Z</time>
      </trkpt>
      <trkpt lat="46.30598" lon="-0.61816">
        <ele>0.80000000000001</ele>
        <time>2021-03-31T09:13:52Z</time>
      </trkpt>
      <trkpt lat="46.30595" lon="-0.61805">
        <ele>0.80000000000001</ele>
        <time>2021-03-31T09:13:53Z</time>
      </trkpt>
      <trkpt lat="46.30593" lon="-0.61795">
        <ele>0.80000000000001</ele>
        <time>2021-03-31T09:13:54Z</time>
      </trkpt>
      <trkpt lat="46.3059" lon="-0.61784">
        <ele>0.80000000000001</ele>
        <time>2021-03-31T09:13:55Z</time>
      </trkpt>
      <trkpt lat="46.30587" lon="-0.61774">
        <ele>0.80000000000001</ele>
        <time>2021-03-31T09:13:56Z</time>
      </trkpt>
      <trkpt lat="46.30584" lon="-0.61765">
        <ele>1</ele>
        <time>2021-03-31T09:13:57Z</time>
      </trkpt>
      <trkpt lat="46.30582" lon="-0.61755">
        <ele>0.80000000000001</ele>
        <time>2021-03-31T09:13:58Z</time>
      </trkpt>
      <trkpt lat="46.30579" lon="-0.61745">
        <ele>0.80000000000001</ele>
        <time>2021-03-31T09:13:59Z</time>
      </trkpt>
      <trkpt lat="46.30576" lon="-0.61736">
        <ele>0.80000000000001</ele>
        <time>2021-03-31T09:14:00Z</time>
      </trkpt>
      <trkpt lat="46.30574" lon="-0.61727">
        <ele>0.80000000000001</ele>
        <time>2021-03-31T09:14:01Z</time>
      </trkpt>
      <trkpt lat="46.30572" lon="-0.61719">
        <ele>0.80000000000001</ele>
        <time>2021-03-31T09:14:02Z</time>
      </trkpt>
      <trkpt lat="46.30569" lon="-0.61711">
        <ele>1</ele>
        <time>2021-03-31T09:14:03Z</time>
      </trkpt>
      <trkpt lat="46.30565" lon="-0.61705">
        <ele>1</ele>
        <time>2021-03-31T09:14:04Z</time>
      </trkpt>
      <trkpt lat="46.30559" lon="-0.61701">
        <ele>1</ele>
        <time>2021-03-31T09:14:05Z</time>
      </trkpt>
      <trkpt lat="46.30553" lon="-0.617">
        <ele>1</ele>
        <time>2021-03-31T09:14:06Z</time>
      </trkpt>
      <trkpt lat="46.30546" lon="-0.61702">
        <ele>1.2</ele>
        <time>2021-03-31T09:14:07Z</time>
      </trkpt>
      <trkpt lat="46.30532" lon="-0.6171">
        <ele>1.2</ele>
        <time>2021-03-31T09:14:09Z</time>
      </trkpt>
      <trkpt lat="46.30524" lon="-0.61714">
        <ele>1.2</ele>
        <time>2021-03-31T09:14:10Z</time>
      </trkpt>
      <trkpt lat="46.30517" lon="-0.61718">
        <ele>1.2</ele>
        <time>2021-03-31T09:14:11Z</time>
      </trkpt>
      <trkpt lat="46.30486" lon="-0.61735">
        <ele>1.2</ele>
        <time>2021-03-31T09:14:15Z</time>
      </trkpt>
      <trkpt lat="46.30478" lon="-0.61739">
        <ele>1.2</ele>
        <time>2021-03-31T09:14:16Z</time>
      </trkpt>
      <trkpt lat="46.30434" lon="-0.61762">
        <ele>1.4</ele>
        <time>2021-03-31T09:14:22Z</time>
      </trkpt>
      <trkpt lat="46.30427" lon="-0.61765">
        <ele>1.4</ele>
        <time>2021-03-31T09:14:23Z</time>
      </trkpt>
      <trkpt lat="46.3042" lon="-0.61766">
        <ele>1.4</ele>
        <time>2021-03-31T09:14:24Z</time>
      </trkpt>
      <trkpt lat="46.30384" lon="-0.61775">
        <ele>1.2</ele>
        <time>2021-03-31T09:14:29Z</time>
      </trkpt>
      <trkpt lat="46.30336" lon="-0.61785">
        <ele>0.80000000000001</ele>
        <time>2021-03-31T09:14:35Z</time>
      </trkpt>
      <trkpt lat="46.30278" lon="-0.61794">
        <ele>0.60000000000002</ele>
        <time>2021-03-31T09:14:42Z</time>
      </trkpt>
      <trkpt lat="46.30263" lon="-0.61797">
        <ele>0.39999999999998</ele>
        <time>2021-03-31T09:14:44Z</time>
      </trkpt>
      <trkpt lat="46.30239" lon="-0.618">
        <ele>0.60000000000002</ele>
        <time>2021-03-31T09:14:47Z</time>
      </trkpt>
      <trkpt lat="46.30232" lon="-0.61802">
        <ele>0.60000000000002</ele>
        <time>2021-03-31T09:14:48Z</time>
      </trkpt>
      <trkpt lat="46.30226" lon="-0.61803">
        <ele>0.60000000000002</ele>
        <time>2021-03-31T09:14:49Z</time>
      </trkpt>
      <trkpt lat="46.30219" lon="-0.61804">
        <ele>0.60000000000002</ele>
        <time>2021-03-31T09:14:50Z</time>
      </trkpt>
      <trkpt lat="46.30213" lon="-0.61805">
        <ele>0.60000000000002</ele>
        <time>2021-03-31T09:14:51Z</time>
      </trkpt>
      <trkpt lat="46.30207" lon="-0.61808">
        <ele>0.60000000000002</ele>
        <time>2021-03-31T09:14:52Z</time>
      </trkpt>
      <trkpt lat="46.30203" lon="-0.61812">
        <ele>0.80000000000001</ele>
        <time>2021-03-31T09:14:53Z</time>
      </trkpt>
      <trkpt lat="46.30199" lon="-0.61818">
        <ele>1</ele>
        <time>2021-03-31T09:14:54Z</time>
      </trkpt>
      <trkpt lat="46.30197" lon="-0.61824">
        <ele>1.2</ele>
        <time>2021-03-31T09:14:55Z</time>
      </trkpt>
      <trkpt lat="46.30195" lon="-0.61832">
        <ele>1.4</ele>
        <time>2021-03-31T09:14:56Z</time>
      </trkpt>
      <trkpt lat="46.30195" lon="-0.61841">
        <ele>1.6</ele>
        <time>2021-03-31T09:14:57Z</time>
      </trkpt>
      <trkpt lat="46.30196" lon="-0.61849">
        <ele>1.8</ele>
        <time>2021-03-31T09:14:58Z</time>
      </trkpt>
      <trkpt lat="46.30197" lon="-0.61857">
        <ele>2.2</ele>
        <time>2021-03-31T09:14:59Z</time>
      </trkpt>
      <trkpt lat="46.30197" lon="-0.61863">
        <ele>2.4</ele>
        <time>2021-03-31T09:15:00Z</time>
      </trkpt>
      <trkpt lat="46.30198" lon="-0.61869">
        <ele>2.6</ele>
        <time>2021-03-31T09:15:01Z</time>
      </trkpt>
      <trkpt lat="46.30199" lon="-0.61873">
        <ele>3</ele>
        <time>2021-03-31T09:15:02Z</time>
      </trkpt>
      <trkpt lat="46.30197" lon="-0.61876">
        <ele>3.2</ele>
        <time>2021-03-31T09:15:03Z</time>
      </trkpt>
      <trkpt lat="46.30195" lon="-0.61876">
        <ele>3.4</ele>
        <time>2021-03-31T09:15:04Z</time>
      </trkpt>
      <trkpt lat="46.30194" lon="-0.61876">
        <ele>3.4</ele>
        <time>2021-03-31T09:15:05Z</time>
      </trkpt>
      <trkpt lat="46.30191" lon="-0.61876">
        <ele>3.6</ele>
        <time>2021-03-31T09:15:06Z</time>
      </trkpt>
      <trkpt lat="46.30189" lon="-0.61876">
        <ele>3.6</ele>
        <time>2021-03-31T09:15:07Z</time>
      </trkpt>
      <trkpt lat="46.30186" lon="-0.61876">
        <ele>3.6</ele>
        <time>2021-03-31T09:15:08Z</time>
      </trkpt>
      <trkpt lat="46.30184" lon="-0.61875">
        <ele>3.6</ele>
        <time>2021-03-31T09:15:09Z</time>
      </trkpt>
      <trkpt lat="46.30181" lon="-0.61875">
        <ele>3.8</ele>
        <time>2021-03-31T09:15:10Z</time>
      </trkpt>
      <trkpt lat="46.30177" lon="-0.61874">
        <ele>4</ele>
        <time>2021-03-31T09:15:11Z</time>
      </trkpt>
      <trkpt lat="46.30174" lon="-0.61871">
        <ele>4</ele>
        <time>2021-03-31T09:15:12Z</time>
      </trkpt>
      <trkpt lat="46.30172" lon="-0.61868">
        <ele>4</ele>
        <time>2021-03-31T09:15:13Z</time>
      </trkpt>
      <trkpt lat="46.30172" lon="-0.61863">
        <ele>4</ele>
        <time>2021-03-31T09:15:14Z</time>
      </trkpt>
      <trkpt lat="46.30173" lon="-0.61859">
        <ele>4</ele>
        <time>2021-03-31T09:15:15Z</time>
      </trkpt>
      <trkpt lat="46.30173" lon="-0.61855">
        <ele>4</ele>
        <time>2021-03-31T09:15:16Z</time>
      </trkpt>
      <trkpt lat="46.30173" lon="-0.61851">
        <ele>4</ele>
        <time>2021-03-31T09:15:17Z</time>
      </trkpt>
      <trkpt lat="46.30174" lon="-0.61848">
        <ele>4</ele>
        <time>2021-03-31T09:15:18Z</time>
      </trkpt>
      <trkpt lat="46.30174" lon="-0.61847">
        <ele>4</ele>
        <time>2021-03-31T09:15:19Z</time>
      </trkpt>
      <trkpt lat="46.30174" lon="-0.61847">
        <ele>3.8</ele>
        <time>2021-03-31T09:15:20Z</time>
      </trkpt>
      <trkpt lat="46.30174" lon="-0.61847">
        <ele>3.8</ele>
        <time>2021-03-31T09:15:21Z</time>
      </trkpt>
      <trkpt lat="46.30173" lon="-0.61841">
        <ele>3.6</ele>
        <time>2021-03-31T09:15:56Z</time>
      </trkpt>
      <trkpt lat="46.30173" lon="-0.61834">
        <ele>3.6</ele>
        <time>2021-03-31T09:15:57Z</time>
      </trkpt>
      <trkpt lat="46.30172" lon="-0.61826">
        <ele>3.6</ele>
        <time>2021-03-31T09:15:58Z</time>
      </trkpt>
      <trkpt lat="46.30166" lon="-0.61802">
        <ele>3.6</ele>
        <time>2021-03-31T09:16:01Z</time>
      </trkpt>
      <trkpt lat="46.30153" lon="-0.61771">
        <ele>3.6</ele>
        <time>2021-03-31T09:16:05Z</time>
      </trkpt>
      <trkpt lat="46.30143" lon="-0.61758">
        <ele>3</ele>
        <time>2021-03-31T09:16:07Z</time>
      </trkpt>
      <trkpt lat="46.30125" lon="-0.61739">
        <ele>2</ele>
        <time>2021-03-31T09:16:10Z</time>
      </trkpt>
      <trkpt lat="46.301" lon="-0.61713">
        <ele>1.6</ele>
        <time>2021-03-31T09:16:14Z</time>
      </trkpt>
      <trkpt lat="46.30094" lon="-0.61706">
        <ele>1.6</ele>
        <time>2021-03-31T09:16:15Z</time>
      </trkpt>
      <trkpt lat="46.30064" lon="-0.61672">
        <ele>1</ele>
        <time>2021-03-31T09:16:20Z</time>
      </trkpt>
      <trkpt lat="46.30046" lon="-0.61652">
        <ele>0.60000000000002</ele>
        <time>2021-03-31T09:16:23Z</time>
      </trkpt>
      <trkpt lat="46.30023" lon="-0.61626">
        <ele>0.39999999999998</ele>
        <time>2021-03-31T09:16:27Z</time>
      </trkpt>
      <trkpt lat="46.30017" lon="-0.61619">
        <ele>0.39999999999998</ele>
        <time>2021-03-31T09:16:28Z</time>
      </trkpt>
      <trkpt lat="46.30005" lon="-0.61606">
        <ele>0.19999999999999</ele>
        <time>2021-03-31T09:16:30Z</time>
      </trkpt>
      <trkpt lat="46.29958" lon="-0.61555">
        <ele>0.39999999999998</ele>
        <time>2021-03-31T09:16:38Z</time>
      </trkpt>
      <trkpt lat="46.29953" lon="-0.6155">
        <ele>0.39999999999998</ele>
        <time>2021-03-31T09:16:39Z</time>
      </trkpt>
      <trkpt lat="46.29948" lon="-0.61545">
        <ele>0.60000000000002</ele>
        <time>2021-03-31T09:16:40Z</time>
      </trkpt>
      <trkpt lat="46.29943" lon="-0.61539">
        <ele>0.60000000000002</ele>
        <time>2021-03-31T09:16:41Z</time>
      </trkpt>
      <trkpt lat="46.29939" lon="-0.61534">
        <ele>0.60000000000002</ele>
        <time>2021-03-31T09:16:42Z</time>
      </trkpt>
      <trkpt lat="46.29935" lon="-0.6153">
        <ele>0.60000000000002</ele>
        <time>2021-03-31T09:16:43Z</time>
      </trkpt>
      <trkpt lat="46.29933" lon="-0.61527">
        <ele>0.60000000000002</ele>
        <time>2021-03-31T09:16:44Z</time>
      </trkpt>
      <trkpt lat="46.29931" lon="-0.61525">
        <ele>0.60000000000002</ele>
        <time>2021-03-31T09:16:45Z</time>
      </trkpt>
      <trkpt lat="46.29931" lon="-0.61523">
        <ele>0.80000000000001</ele>
        <time>2021-03-31T09:16:46Z</time>
      </trkpt>
      <trkpt lat="46.2993" lon="-0.61523">
        <ele>0.80000000000001</ele>
        <time>2021-03-31T09:16:47Z</time>
      </trkpt>
      <trkpt lat="46.2993" lon="-0.61523">
        <ele>0.80000000000001</ele>
        <time>2021-03-31T09:16:48Z</time>
      </trkpt>
      <trkpt lat="46.29923" lon="-0.61515">
        <ele>2.8</ele>
        <time>2021-03-31T09:16:56Z</time>
      </trkpt>
      <trkpt lat="46.2992" lon="-0.61513">
        <ele>2.8</ele>
        <time>2021-03-31T09:16:57Z</time>
      </trkpt>
      <trkpt lat="46.29917" lon="-0.61509">
        <ele>2.8</ele>
        <time>2021-03-31T09:16:58Z</time>
      </trkpt>
      <trkpt lat="46.29903" lon="-0.61495">
        <ele>2.8</ele>
        <time>2021-03-31T09:17:01Z</time>
      </trkpt>
      <trkpt lat="46.29884" lon="-0.61477">
        <ele>2.6</ele>
        <time>2021-03-31T09:17:05Z</time>
      </trkpt>
      <trkpt lat="46.29879" lon="-0.61472">
        <ele>2.4</ele>
        <time>2021-03-31T09:17:06Z</time>
      </trkpt>
      <trkpt lat="46.29859" lon="-0.61452">
        <ele>1.6</ele>
        <time>2021-03-31T09:17:10Z</time>
      </trkpt>
      <trkpt lat="46.29832" lon="-0.61428">
        <ele>1.6</ele>
        <time>2021-03-31T09:17:15Z</time>
      </trkpt>
      <trkpt lat="46.29827" lon="-0.61424">
        <ele>1.6</ele>
        <time>2021-03-31T09:17:16Z</time>
      </trkpt>
      <trkpt lat="46.29814" lon="-0.61422">
        <ele>1.6</ele>
        <time>2021-03-31T09:17:18Z</time>
      </trkpt>
      <trkpt lat="46.29808" lon="-0.61425">
        <ele>1.6</ele>
        <time>2021-03-31T09:17:19Z</time>
      </trkpt>
      <trkpt lat="46.29801" lon="-0.61427">
        <ele>1.8</ele>
        <time>2021-03-31T09:17:20Z</time>
      </trkpt>
      <trkpt lat="46.29794" lon="-0.6143">
        <ele>1.8</ele>
        <time>2021-03-31T09:17:21Z</time>
      </trkpt>
      <trkpt lat="46.29787" lon="-0.61433">
        <ele>1.8</ele>
        <time>2021-03-31T09:17:22Z</time>
      </trkpt>
      <trkpt lat="46.29772" lon="-0.61439">
        <ele>1.8</ele>
        <time>2021-03-31T09:17:24Z</time>
      </trkpt>
      <trkpt lat="46.29745" lon="-0.61447">
        <ele>1.8</ele>
        <time>2021-03-31T09:17:28Z</time>
      </trkpt>
      <trkpt lat="46.29739" lon="-0.61449">
        <ele>1.8</ele>
        <time>2021-03-31T09:17:29Z</time>
      </trkpt>
      <trkpt lat="46.29734" lon="-0.61451">
        <ele>1.8</ele>
        <time>2021-03-31T09:17:30Z</time>
      </trkpt>
      <trkpt lat="46.29728" lon="-0.61453">
        <ele>1.8</ele>
        <time>2021-03-31T09:17:31Z</time>
      </trkpt>
      <trkpt lat="46.29723" lon="-0.61454">
        <ele>2</ele>
        <time>2021-03-31T09:17:32Z</time>
      </trkpt>
      <trkpt lat="46.29719" lon="-0.61454">
        <ele>2</ele>
        <time>2021-03-31T09:17:33Z</time>
      </trkpt>
      <trkpt lat="46.29716" lon="-0.61451">
        <ele>2</ele>
        <time>2021-03-31T09:17:34Z</time>
      </trkpt>
      <trkpt lat="46.29715" lon="-0.61448">
        <ele>2</ele>
        <time>2021-03-31T09:17:35Z</time>
      </trkpt>
      <trkpt lat="46.29713" lon="-0.61442">
        <ele>2</ele>
        <time>2021-03-31T09:17:36Z</time>
      </trkpt>
      <trkpt lat="46.29711" lon="-0.61436">
        <ele>2</ele>
        <time>2021-03-31T09:17:37Z</time>
      </trkpt>
      <trkpt lat="46.29709" lon="-0.61428">
        <ele>2</ele>
        <time>2021-03-31T09:17:38Z</time>
      </trkpt>
      <trkpt lat="46.29696" lon="-0.61386">
        <ele>1.8</ele>
        <time>2021-03-31T09:17:43Z</time>
      </trkpt>
      <trkpt lat="46.29694" lon="-0.61379">
        <ele>2</ele>
        <time>2021-03-31T09:17:44Z</time>
      </trkpt>
      <trkpt lat="46.29691" lon="-0.61371">
        <ele>2</ele>
        <time>2021-03-31T09:17:45Z</time>
      </trkpt>
      <trkpt lat="46.29689" lon="-0.61364">
        <ele>2.2</ele>
        <time>2021-03-31T09:17:46Z</time>
      </trkpt>
      <trkpt lat="46.29686" lon="-0.61358">
        <ele>2.2</ele>
        <time>2021-03-31T09:17:47Z</time>
      </trkpt>
      <trkpt lat="46.29684" lon="-0.61351">
        <ele>2.2</ele>
        <time>2021-03-31T09:17:48Z</time>
      </trkpt>
      <trkpt lat="46.29683" lon="-0.61344">
        <ele>2.2</ele>
        <time>2021-03-31T09:17:49Z</time>
      </trkpt>
      <trkpt lat="46.29683" lon="-0.61338">
        <ele>2.4</ele>
        <time>2021-03-31T09:17:50Z</time>
      </trkpt>
      <trkpt lat="46.29684" lon="-0.61333">
        <ele>2.4</ele>
        <time>2021-03-31T09:17:51Z</time>
      </trkpt>
      <trkpt lat="46.29684" lon="-0.61327">
        <ele>2.4</ele>
        <time>2021-03-31T09:17:52Z</time>
      </trkpt>
      <trkpt lat="46.29685" lon="-0.61319">
        <ele>2.4</ele>
        <time>2021-03-31T09:17:53Z</time>
      </trkpt>
      <trkpt lat="46.29686" lon="-0.61311">
        <ele>2.4</ele>
        <time>2021-03-31T09:17:54Z</time>
      </trkpt>
      <trkpt lat="46.29687" lon="-0.61295">
        <ele>2.6</ele>
        <time>2021-03-31T09:17:56Z</time>
      </trkpt>
      <trkpt lat="46.29689" lon="-0.61268">
        <ele>2.8</ele>
        <time>2021-03-31T09:17:59Z</time>
      </trkpt>
      <trkpt lat="46.29692" lon="-0.61242">
        <ele>2.8</ele>
        <time>2021-03-31T09:18:02Z</time>
      </trkpt>
      <trkpt lat="46.29693" lon="-0.61234">
        <ele>2.8</ele>
        <time>2021-03-31T09:18:03Z</time>
      </trkpt>
      <trkpt lat="46.29697" lon="-0.61203">
        <ele>2.6</ele>
        <time>2021-03-31T09:18:06Z</time>
      </trkpt>
      <trkpt lat="46.29706" lon="-0.61133">
        <ele>1.8</ele>
        <time>2021-03-31T09:18:13Z</time>
      </trkpt>
      <trkpt lat="46.29707" lon="-0.61127">
        <ele>1.8</ele>
        <time>2021-03-31T09:18:14Z</time>
      </trkpt>
      <trkpt lat="46.29708" lon="-0.61121">
        <ele>1.8</ele>
        <time>2021-03-31T09:18:15Z</time>
      </trkpt>
      <trkpt lat="46.29708" lon="-0.61117">
        <ele>1.8</ele>
        <time>2021-03-31T09:18:16Z</time>
      </trkpt>
      <trkpt lat="46.29709" lon="-0.61114">
        <ele>1.8</ele>
        <time>2021-03-31T09:18:17Z</time>
      </trkpt>
      <trkpt lat="46.29709" lon="-0.61112">
        <ele>1.8</ele>
        <time>2021-03-31T09:18:18Z</time>
      </trkpt>
      <trkpt lat="46.2971" lon="-0.61109">
        <ele>1.8</ele>
        <time>2021-03-31T09:18:19Z</time>
      </trkpt>
      <trkpt lat="46.29711" lon="-0.61105">
        <ele>1.8</ele>
        <time>2021-03-31T09:18:20Z</time>
      </trkpt>
      <trkpt lat="46.29712" lon="-0.61098">
        <ele>2</ele>
        <time>2021-03-31T09:18:21Z</time>
      </trkpt>
      <trkpt lat="46.29715" lon="-0.61062">
        <ele>2.6</ele>
        <time>2021-03-31T09:18:25Z</time>
      </trkpt>
      <trkpt lat="46.29721" lon="-0.60983">
        <ele>2.6</ele>
        <time>2021-03-31T09:18:32Z</time>
      </trkpt>
      <trkpt lat="46.29723" lon="-0.6096">
        <ele>2.2</ele>
        <time>2021-03-31T09:18:34Z</time>
      </trkpt>
      <trkpt lat="46.29727" lon="-0.60926">
        <ele>1.6</ele>
        <time>2021-03-31T09:18:37Z</time>
      </trkpt>
      <trkpt lat="46.2973" lon="-0.60892">
        <ele>1.4</ele>
        <time>2021-03-31T09:18:40Z</time>
      </trkpt>
      <trkpt lat="46.29733" lon="-0.6087">
        <ele>1.4</ele>
        <time>2021-03-31T09:18:42Z</time>
      </trkpt>
      <trkpt lat="46.29736" lon="-0.6086">
        <ele>1.2</ele>
        <time>2021-03-31T09:18:43Z</time>
      </trkpt>
      <trkpt lat="46.2974" lon="-0.60851">
        <ele>1.2</ele>
        <time>2021-03-31T09:18:44Z</time>
      </trkpt>
      <trkpt lat="46.29752" lon="-0.60838">
        <ele>1</ele>
        <time>2021-03-31T09:18:46Z</time>
      </trkpt>
      <trkpt lat="46.29759" lon="-0.60834">
        <ele>1</ele>
        <time>2021-03-31T09:18:47Z</time>
      </trkpt>
      <trkpt lat="46.29767" lon="-0.60831">
        <ele>1</ele>
        <time>2021-03-31T09:18:48Z</time>
      </trkpt>
      <trkpt lat="46.29776" lon="-0.60829">
        <ele>1</ele>
        <time>2021-03-31T09:18:49Z</time>
      </trkpt>
      <trkpt lat="46.29784" lon="-0.60826">
        <ele>1.2</ele>
        <time>2021-03-31T09:18:50Z</time>
      </trkpt>
      <trkpt lat="46.29801" lon="-0.6082">
        <ele>1.2</ele>
        <time>2021-03-31T09:18:52Z</time>
      </trkpt>
      <trkpt lat="46.29818" lon="-0.60815">
        <ele>1.4</ele>
        <time>2021-03-31T09:18:54Z</time>
      </trkpt>
      <trkpt lat="46.29853" lon="-0.60804">
        <ele>1.4</ele>
        <time>2021-03-31T09:18:58Z</time>
      </trkpt>
      <trkpt lat="46.29912" lon="-0.60786">
        <ele>1.8</ele>
        <time>2021-03-31T09:19:05Z</time>
      </trkpt>
      <trkpt lat="46.2992" lon="-0.60783">
        <ele>1.8</ele>
        <time>2021-03-31T09:19:06Z</time>
      </trkpt>
      <trkpt lat="46.29981" lon="-0.60763">
        <ele>2</ele>
        <time>2021-03-31T09:19:13Z</time>
      </trkpt>
      <trkpt lat="46.29989" lon="-0.6076">
        <ele>2</ele>
        <time>2021-03-31T09:19:14Z</time>
      </trkpt>
      <trkpt lat="46.30047" lon="-0.6074">
        <ele>2.2</ele>
        <time>2021-03-31T09:19:21Z</time>
      </trkpt>
      <trkpt lat="46.30056" lon="-0.60737">
        <ele>2.2</ele>
        <time>2021-03-31T09:19:22Z</time>
      </trkpt>
      <trkpt lat="46.30064" lon="-0.60734">
        <ele>2.2</ele>
        <time>2021-03-31T09:19:23Z</time>
      </trkpt>
      <trkpt lat="46.30123" lon="-0.60713">
        <ele>2</ele>
        <time>2021-03-31T09:19:30Z</time>
      </trkpt>
      <trkpt lat="46.30157" lon="-0.60701">
        <ele>2</ele>
        <time>2021-03-31T09:19:34Z</time>
      </trkpt>
      <trkpt lat="46.30181" lon="-0.60692">
        <ele>2.2</ele>
        <time>2021-03-31T09:19:37Z</time>
      </trkpt>
      <trkpt lat="46.30203" lon="-0.60683">
        <ele>2.2</ele>
        <time>2021-03-31T09:19:40Z</time>
      </trkpt>
      <trkpt lat="46.3021" lon="-0.6068">
        <ele>2.4</ele>
        <time>2021-03-31T09:19:41Z</time>
      </trkpt>
      <trkpt lat="46.30217" lon="-0.60678">
        <ele>2.4</ele>
        <time>2021-03-31T09:19:42Z</time>
      </trkpt>
      <trkpt lat="46.30225" lon="-0.60675">
        <ele>2.6</ele>
        <time>2021-03-31T09:19:43Z</time>
      </trkpt>
      <trkpt lat="46.30253" lon="-0.60666">
        <ele>3</ele>
        <time>2021-03-31T09:19:47Z</time>
      </trkpt>
      <trkpt lat="46.30259" lon="-0.60664">
        <ele>3.2</ele>
        <time>2021-03-31T09:19:48Z</time>
      </trkpt>
      <trkpt lat="46.30264" lon="-0.60661">
        <ele>3.2</ele>
        <time>2021-03-31T09:19:49Z</time>
      </trkpt>
      <trkpt lat="46.30268" lon="-0.60656">
        <ele>3.4</ele>
        <time>2021-03-31T09:19:50Z</time>
      </trkpt>
      <trkpt lat="46.30271" lon="-0.6065">
        <ele>3.4</ele>
        <time>2021-03-31T09:19:51Z</time>
      </trkpt>
      <trkpt lat="46.30272" lon="-0.60642">
        <ele>3.4</ele>
        <time>2021-03-31T09:19:52Z</time>
      </trkpt>
      <trkpt lat="46.30273" lon="-0.60633">
        <ele>3.4</ele>
        <time>2021-03-31T09:19:53Z</time>
      </trkpt>
      <trkpt lat="46.30275" lon="-0.60612">
        <ele>3.4</ele>
        <time>2021-03-31T09:19:55Z</time>
      </trkpt>
      <trkpt lat="46.30277" lon="-0.60601">
        <ele>3.4</ele>
        <time>2021-03-31T09:19:56Z</time>
      </trkpt>
      <trkpt lat="46.30284" lon="-0.60542">
        <ele>3.2</ele>
        <time>2021-03-31T09:20:01Z</time>
      </trkpt>
      <trkpt lat="46.30287" lon="-0.60518">
        <ele>2.6</ele>
        <time>2021-03-31T09:20:03Z</time>
      </trkpt>
      <trkpt lat="46.30289" lon="-0.60506">
        <ele>2.4</ele>
        <time>2021-03-31T09:20:04Z</time>
      </trkpt>
      <trkpt lat="46.30293" lon="-0.6047">
        <ele>2</ele>
        <time>2021-03-31T09:20:07Z</time>
      </trkpt>
      <trkpt lat="46.30304" lon="-0.60386">
        <ele>1.8</ele>
        <time>2021-03-31T09:20:14Z</time>
      </trkpt>
      <trkpt lat="46.30309" lon="-0.60351">
        <ele>1.8</ele>
        <time>2021-03-31T09:20:17Z</time>
      </trkpt>
      <trkpt lat="46.3031" lon="-0.60339">
        <ele>1.8</ele>
        <time>2021-03-31T09:20:18Z</time>
      </trkpt>
      <trkpt lat="46.30312" lon="-0.60327">
        <ele>1.8</ele>
        <time>2021-03-31T09:20:19Z</time>
      </trkpt>
      <trkpt lat="46.30314" lon="-0.60316">
        <ele>1.8</ele>
        <time>2021-03-31T09:20:20Z</time>
      </trkpt>
      <trkpt lat="46.30323" lon="-0.60244">
        <ele>1.8</ele>
        <time>2021-03-31T09:20:26Z</time>
      </trkpt>
      <trkpt lat="46.3033" lon="-0.60213">
        <ele>2</ele>
        <time>2021-03-31T09:20:29Z</time>
      </trkpt>
      <trkpt lat="46.30333" lon="-0.60205">
        <ele>2</ele>
        <time>2021-03-31T09:20:30Z</time>
      </trkpt>
      <trkpt lat="46.30335" lon="-0.60196">
        <ele>2</ele>
        <time>2021-03-31T09:20:31Z</time>
      </trkpt>
      <trkpt lat="46.30338" lon="-0.60188">
        <ele>2.2</ele>
        <time>2021-03-31T09:20:32Z</time>
      </trkpt>
      <trkpt lat="46.3034" lon="-0.60181">
        <ele>2.2</ele>
        <time>2021-03-31T09:20:33Z</time>
      </trkpt>
      <trkpt lat="46.30343" lon="-0.60173">
        <ele>2.2</ele>
        <time>2021-03-31T09:20:34Z</time>
      </trkpt>
      <trkpt lat="46.30345" lon="-0.60166">
        <ele>2.4</ele>
        <time>2021-03-31T09:20:35Z</time>
      </trkpt>
      <trkpt lat="46.30345" lon="-0.60159">
        <ele>2.4</ele>
        <time>2021-03-31T09:20:36Z</time>
      </trkpt>
      <trkpt lat="46.30343" lon="-0.60153">
        <ele>2.6</ele>
        <time>2021-03-31T09:20:37Z</time>
      </trkpt>
      <trkpt lat="46.30338" lon="-0.60148">
        <ele>2.8</ele>
        <time>2021-03-31T09:20:38Z</time>
      </trkpt>
      <trkpt lat="46.30331" lon="-0.60144">
        <ele>2.8</ele>
        <time>2021-03-31T09:20:39Z</time>
      </trkpt>
      <trkpt lat="46.30317" lon="-0.60136">
        <ele>3</ele>
        <time>2021-03-31T09:20:41Z</time>
      </trkpt>
      <trkpt lat="46.30309" lon="-0.60132">
        <ele>3</ele>
        <time>2021-03-31T09:20:42Z</time>
      </trkpt>
      <trkpt lat="46.30301" lon="-0.60127">
        <ele>3</ele>
        <time>2021-03-31T09:20:43Z</time>
      </trkpt>
      <trkpt lat="46.30272" lon="-0.60108">
        <ele>3.2</ele>
        <time>2021-03-31T09:20:47Z</time>
      </trkpt>
      <trkpt lat="46.30264" lon="-0.60104">
        <ele>3.2</ele>
        <time>2021-03-31T09:20:48Z</time>
      </trkpt>
      <trkpt lat="46.3023" lon="-0.60086">
        <ele>3</ele>
        <time>2021-03-31T09:20:52Z</time>
      </trkpt>
      <trkpt lat="46.30222" lon="-0.60081">
        <ele>3</ele>
        <time>2021-03-31T09:20:53Z</time>
      </trkpt>
      <trkpt lat="46.30183" lon="-0.6006">
        <ele>2.6</ele>
        <time>2021-03-31T09:20:58Z</time>
      </trkpt>
      <trkpt lat="46.30176" lon="-0.60056">
        <ele>2.6</ele>
        <time>2021-03-31T09:20:59Z</time>
      </trkpt>
      <trkpt lat="46.30169" lon="-0.60052">
        <ele>2.6</ele>
        <time>2021-03-31T09:21:00Z</time>
      </trkpt>
      <trkpt lat="46.30162" lon="-0.60047">
        <ele>2.6</ele>
        <time>2021-03-31T09:21:01Z</time>
      </trkpt>
      <trkpt lat="46.3014" lon="-0.60036">
        <ele>2.6</ele>
        <time>2021-03-31T09:21:04Z</time>
      </trkpt>
      <trkpt lat="46.30111" lon="-0.60021">
        <ele>2.6</ele>
        <time>2021-03-31T09:21:08Z</time>
      </trkpt>
      <trkpt lat="46.30105" lon="-0.60017">
        <ele>2.6</ele>
        <time>2021-03-31T09:21:09Z</time>
      </trkpt>
      <trkpt lat="46.30094" lon="-0.60004">
        <ele>2.6</ele>
        <time>2021-03-31T09:21:11Z</time>
      </trkpt>
      <trkpt lat="46.30091" lon="-0.59988">
        <ele>2.6</ele>
        <time>2021-03-31T09:21:13Z</time>
      </trkpt>
      <trkpt lat="46.30092" lon="-0.59981">
        <ele>2.6</ele>
        <time>2021-03-31T09:21:14Z</time>
      </trkpt>
      <trkpt lat="46.30092" lon="-0.59973">
        <ele>2.8</ele>
        <time>2021-03-31T09:21:15Z</time>
      </trkpt>
      <trkpt lat="46.30093" lon="-0.59967">
        <ele>2.8</ele>
        <time>2021-03-31T09:21:16Z</time>
      </trkpt>
      <trkpt lat="46.30093" lon="-0.5996">
        <ele>3</ele>
        <time>2021-03-31T09:21:17Z</time>
      </trkpt>
      <trkpt lat="46.30094" lon="-0.59953">
        <ele>3</ele>
        <time>2021-03-31T09:21:18Z</time>
      </trkpt>
      <trkpt lat="46.30094" lon="-0.59947">
        <ele>3</ele>
        <time>2021-03-31T09:21:19Z</time>
      </trkpt>
      <trkpt lat="46.30095" lon="-0.5994">
        <ele>3</ele>
        <time>2021-03-31T09:21:20Z</time>
      </trkpt>
      <trkpt lat="46.30095" lon="-0.59934">
        <ele>3.2</ele>
        <time>2021-03-31T09:21:21Z</time>
      </trkpt>
      <trkpt lat="46.30096" lon="-0.59922">
        <ele>3.6</ele>
        <time>2021-03-31T09:21:23Z</time>
      </trkpt>
      <trkpt lat="46.30096" lon="-0.59917">
        <ele>3.8</ele>
        <time>2021-03-31T09:21:24Z</time>
      </trkpt>
      <trkpt lat="46.30096" lon="-0.59911">
        <ele>4</ele>
        <time>2021-03-31T09:21:25Z</time>
      </trkpt>
      <trkpt lat="46.30096" lon="-0.59907">
        <ele>4.2</ele>
        <time>2021-03-31T09:21:26Z</time>
      </trkpt>
      <trkpt lat="46.30096" lon="-0.59902">
        <ele>4.2</ele>
        <time>2021-03-31T09:21:27Z</time>
      </trkpt>
      <trkpt lat="46.30096" lon="-0.59897">
        <ele>4.2</ele>
        <time>2021-03-31T09:21:28Z</time>
      </trkpt>
      <trkpt lat="46.301" lon="-0.5988">
        <ele>4.4</ele>
        <time>2021-03-31T09:21:31Z</time>
      </trkpt>
      <trkpt lat="46.30103" lon="-0.59875">
        <ele>4.4</ele>
        <time>2021-03-31T09:21:32Z</time>
      </trkpt>
      <trkpt lat="46.30108" lon="-0.59872">
        <ele>4.4</ele>
        <time>2021-03-31T09:21:33Z</time>
      </trkpt>
      <trkpt lat="46.30113" lon="-0.59867">
        <ele>4.4</ele>
        <time>2021-03-31T09:21:34Z</time>
      </trkpt>
      <trkpt lat="46.30119" lon="-0.59864">
        <ele>4.4</ele>
        <time>2021-03-31T09:21:35Z</time>
      </trkpt>
      <trkpt lat="46.30126" lon="-0.59861">
        <ele>4.4</ele>
        <time>2021-03-31T09:21:36Z</time>
      </trkpt>
      <trkpt lat="46.30132" lon="-0.59858">
        <ele>4.4</ele>
        <time>2021-03-31T09:21:37Z</time>
      </trkpt>
      <trkpt lat="46.30145" lon="-0.59852">
        <ele>4.4</ele>
        <time>2021-03-31T09:21:39Z</time>
      </trkpt>
      <trkpt lat="46.30158" lon="-0.59842">
        <ele>4.4</ele>
        <time>2021-03-31T09:21:41Z</time>
      </trkpt>
      <trkpt lat="46.3017" lon="-0.59826">
        <ele>4.4</ele>
        <time>2021-03-31T09:21:43Z</time>
      </trkpt>
      <trkpt lat="46.30174" lon="-0.59816">
        <ele>4.4</ele>
        <time>2021-03-31T09:21:44Z</time>
      </trkpt>
      <trkpt lat="46.30179" lon="-0.59808">
        <ele>4.2</ele>
        <time>2021-03-31T09:21:45Z</time>
      </trkpt>
      <trkpt lat="46.30183" lon="-0.59799">
        <ele>4.2</ele>
        <time>2021-03-31T09:21:46Z</time>
      </trkpt>
      <trkpt lat="46.30188" lon="-0.5979">
        <ele>4</ele>
        <time>2021-03-31T09:21:47Z</time>
      </trkpt>
      <trkpt lat="46.30193" lon="-0.59781">
        <ele>4</ele>
        <time>2021-03-31T09:21:48Z</time>
      </trkpt>
      <trkpt lat="46.30202" lon="-0.59761">
        <ele>3.6</ele>
        <time>2021-03-31T09:21:50Z</time>
      </trkpt>
      <trkpt lat="46.30211" lon="-0.59734">
        <ele>3.2</ele>
        <time>2021-03-31T09:21:53Z</time>
      </trkpt>
      <trkpt lat="46.30215" lon="-0.5973">
        <ele>3.2</ele>
        <time>2021-03-31T09:21:54Z</time>
      </trkpt>
      <trkpt lat="46.30221" lon="-0.59728">
        <ele>3.2</ele>
        <time>2021-03-31T09:21:55Z</time>
      </trkpt>
      <trkpt lat="46.30227" lon="-0.59727">
        <ele>3.2</ele>
        <time>2021-03-31T09:21:56Z</time>
      </trkpt>
      <trkpt lat="46.30234" lon="-0.59727">
        <ele>3.2</ele>
        <time>2021-03-31T09:21:57Z</time>
      </trkpt>
      <trkpt lat="46.30249" lon="-0.59726">
        <ele>3.2</ele>
        <time>2021-03-31T09:21:59Z</time>
      </trkpt>
      <trkpt lat="46.30269" lon="-0.59727">
        <ele>3.4</ele>
        <time>2021-03-31T09:22:02Z</time>
      </trkpt>
      <trkpt lat="46.30274" lon="-0.59727">
        <ele>3.4</ele>
        <time>2021-03-31T09:22:03Z</time>
      </trkpt>
      <trkpt lat="46.30279" lon="-0.59725">
        <ele>3.4</ele>
        <time>2021-03-31T09:22:04Z</time>
      </trkpt>
      <trkpt lat="46.30283" lon="-0.59722">
        <ele>3.6</ele>
        <time>2021-03-31T09:22:05Z</time>
      </trkpt>
      <trkpt lat="46.30287" lon="-0.59715">
        <ele>3.6</ele>
        <time>2021-03-31T09:22:06Z</time>
      </trkpt>
      <trkpt lat="46.30291" lon="-0.59706">
        <ele>3.6</ele>
        <time>2021-03-31T09:22:07Z</time>
      </trkpt>
      <trkpt lat="46.30299" lon="-0.59688">
        <ele>3.6</ele>
        <time>2021-03-31T09:22:09Z</time>
      </trkpt>
      <trkpt lat="46.30303" lon="-0.59679">
        <ele>3.6</ele>
        <time>2021-03-31T09:22:10Z</time>
      </trkpt>
      <trkpt lat="46.30311" lon="-0.59662">
        <ele>3.6</ele>
        <time>2021-03-31T09:22:12Z</time>
      </trkpt>
      <trkpt lat="46.30314" lon="-0.59654">
        <ele>3.6</ele>
        <time>2021-03-31T09:22:13Z</time>
      </trkpt>
      <trkpt lat="46.30318" lon="-0.59646">
        <ele>3.6</ele>
        <time>2021-03-31T09:22:14Z</time>
      </trkpt>
      <trkpt lat="46.30321" lon="-0.59639">
        <ele>3.6</ele>
        <time>2021-03-31T09:22:15Z</time>
      </trkpt>
      <trkpt lat="46.30324" lon="-0.59632">
        <ele>3.6</ele>
        <time>2021-03-31T09:22:16Z</time>
      </trkpt>
      <trkpt lat="46.30328" lon="-0.59625">
        <ele>3.6</ele>
        <time>2021-03-31T09:22:17Z</time>
      </trkpt>
      <trkpt lat="46.30331" lon="-0.59619">
        <ele>3.6</ele>
        <time>2021-03-31T09:22:18Z</time>
      </trkpt>
      <trkpt lat="46.30334" lon="-0.59613">
        <ele>3.8</ele>
        <time>2021-03-31T09:22:19Z</time>
      </trkpt>
      <trkpt lat="46.30336" lon="-0.59607">
        <ele>3.8</ele>
        <time>2021-03-31T09:22:20Z</time>
      </trkpt>
      <trkpt lat="46.30339" lon="-0.59601">
        <ele>3.8</ele>
        <time>2021-03-31T09:22:21Z</time>
      </trkpt>
      <trkpt lat="46.30342" lon="-0.59593">
        <ele>3.6</ele>
        <time>2021-03-31T09:22:22Z</time>
      </trkpt>
      <trkpt lat="46.30345" lon="-0.59586">
        <ele>3.6</ele>
        <time>2021-03-31T09:22:23Z</time>
      </trkpt>
      <trkpt lat="46.30366" lon="-0.5954">
        <ele>3.6</ele>
        <time>2021-03-31T09:22:29Z</time>
      </trkpt>
      <trkpt lat="46.3037" lon="-0.59532">
        <ele>3.6</ele>
        <time>2021-03-31T09:22:30Z</time>
      </trkpt>
      <trkpt lat="46.30397" lon="-0.5948">
        <ele>3.6</ele>
        <time>2021-03-31T09:22:37Z</time>
      </trkpt>
      <trkpt lat="46.30413" lon="-0.59457">
        <ele>3.6</ele>
        <time>2021-03-31T09:22:41Z</time>
      </trkpt>
      <trkpt lat="46.30416" lon="-0.59452">
        <ele>3.6</ele>
        <time>2021-03-31T09:22:42Z</time>
      </trkpt>
      <trkpt lat="46.30418" lon="-0.59445">
        <ele>3.6</ele>
        <time>2021-03-31T09:22:43Z</time>
      </trkpt>
      <trkpt lat="46.30418" lon="-0.59438">
        <ele>3.6</ele>
        <time>2021-03-31T09:22:44Z</time>
      </trkpt>
      <trkpt lat="46.30417" lon="-0.59431">
        <ele>3.8</ele>
        <time>2021-03-31T09:22:45Z</time>
      </trkpt>
      <trkpt lat="46.30416" lon="-0.59424">
        <ele>4</ele>
        <time>2021-03-31T09:22:46Z</time>
      </trkpt>
      <trkpt lat="46.30412" lon="-0.5941">
        <ele>4.6</ele>
        <time>2021-03-31T09:22:48Z</time>
      </trkpt>
      <trkpt lat="46.3041" lon="-0.59403">
        <ele>4.8</ele>
        <time>2021-03-31T09:22:49Z</time>
      </trkpt>
      <trkpt lat="46.30407" lon="-0.59396">
        <ele>5</ele>
        <time>2021-03-31T09:22:50Z</time>
      </trkpt>
      <trkpt lat="46.30393" lon="-0.59371">
        <ele>5.6</ele>
        <time>2021-03-31T09:22:54Z</time>
      </trkpt>
      <trkpt lat="46.3039" lon="-0.59365">
        <ele>5.8</ele>
        <time>2021-03-31T09:22:55Z</time>
      </trkpt>
      <trkpt lat="46.30387" lon="-0.5936">
        <ele>6</ele>
        <time>2021-03-31T09:22:56Z</time>
      </trkpt>
      <trkpt lat="46.30384" lon="-0.59353">
        <ele>6.4</ele>
        <time>2021-03-31T09:22:57Z</time>
      </trkpt>
      <trkpt lat="46.30381" lon="-0.59347">
        <ele>6.6</ele>
        <time>2021-03-31T09:22:58Z</time>
      </trkpt>
      <trkpt lat="46.30377" lon="-0.5934">
        <ele>6.8</ele>
        <time>2021-03-31T09:22:59Z</time>
      </trkpt>
      <trkpt lat="46.30373" lon="-0.59333">
        <ele>7</ele>
        <time>2021-03-31T09:23:00Z</time>
      </trkpt>
      <trkpt lat="46.30369" lon="-0.59327">
        <ele>7.2</ele>
        <time>2021-03-31T09:23:01Z</time>
      </trkpt>
      <trkpt lat="46.30364" lon="-0.59321">
        <ele>7.4</ele>
        <time>2021-03-31T09:23:02Z</time>
      </trkpt>
      <trkpt lat="46.3036" lon="-0.59316">
        <ele>8.2</ele>
        <time>2021-03-31T09:23:03Z</time>
      </trkpt>
      <trkpt lat="46.30355" lon="-0.59311">
        <ele>8.8</ele>
        <time>2021-03-31T09:23:04Z</time>
      </trkpt>
      <trkpt lat="46.30351" lon="-0.59308">
        <ele>9.2</ele>
        <time>2021-03-31T09:23:05Z</time>
      </trkpt>
      <trkpt lat="46.30347" lon="-0.59304">
        <ele>9.6</ele>
        <time>2021-03-31T09:23:06Z</time>
      </trkpt>
      <trkpt lat="46.30342" lon="-0.593">
        <ele>9.6</ele>
        <time>2021-03-31T09:23:07Z</time>
      </trkpt>
      <trkpt lat="46.30337" lon="-0.59296">
        <ele>10</ele>
        <time>2021-03-31T09:23:08Z</time>
      </trkpt>
      <trkpt lat="46.30332" lon="-0.59292">
        <ele>10.2</ele>
        <time>2021-03-31T09:23:09Z</time>
      </trkpt>
      <trkpt lat="46.30326" lon="-0.59288">
        <ele>10.4</ele>
        <time>2021-03-31T09:23:10Z</time>
      </trkpt>
      <trkpt lat="46.30322" lon="-0.59286">
        <ele>10.6</ele>
        <time>2021-03-31T09:23:11Z</time>
      </trkpt>
      <trkpt lat="46.30319" lon="-0.59286">
        <ele>10.6</ele>
        <time>2021-03-31T09:23:12Z</time>
      </trkpt>
      <trkpt lat="46.30317" lon="-0.59285">
        <ele>10.8</ele>
        <time>2021-03-31T09:23:13Z</time>
      </trkpt>
      <trkpt lat="46.30316" lon="-0.59285">
        <ele>11.2</ele>
        <time>2021-03-31T09:23:14Z</time>
      </trkpt>
      <trkpt lat="46.30313" lon="-0.59284">
        <ele>11.4</ele>
        <time>2021-03-31T09:23:15Z</time>
      </trkpt>
      <trkpt lat="46.30309" lon="-0.59281">
        <ele>11.4</ele>
        <time>2021-03-31T09:23:16Z</time>
      </trkpt>
      <trkpt lat="46.30305" lon="-0.59276">
        <ele>11.6</ele>
        <time>2021-03-31T09:23:17Z</time>
      </trkpt>
      <trkpt lat="46.30299" lon="-0.59271">
        <ele>11.8</ele>
        <time>2021-03-31T09:23:18Z</time>
      </trkpt>
      <trkpt lat="46.30294" lon="-0.59266">
        <ele>11.8</ele>
        <time>2021-03-31T09:23:19Z</time>
      </trkpt>
      <trkpt lat="46.30288" lon="-0.5926">
        <ele>11.8</ele>
        <time>2021-03-31T09:23:20Z</time>
      </trkpt>
      <trkpt lat="46.30282" lon="-0.59254">
        <ele>11.8</ele>
        <time>2021-03-31T09:23:21Z</time>
      </trkpt>
      <trkpt lat="46.30275" lon="-0.59248">
        <ele>11.8</ele>
        <time>2021-03-31T09:23:22Z</time>
      </trkpt>
      <trkpt lat="46.30269" lon="-0.59241">
        <ele>11.8</ele>
        <time>2021-03-31T09:23:23Z</time>
      </trkpt>
      <trkpt lat="46.30263" lon="-0.59235">
        <ele>11.8</ele>
        <time>2021-03-31T09:23:24Z</time>
      </trkpt>
      <trkpt lat="46.30256" lon="-0.59229">
        <ele>11.6</ele>
        <time>2021-03-31T09:23:25Z</time>
      </trkpt>
      <trkpt lat="46.3025" lon="-0.59222">
        <ele>11.6</ele>
        <time>2021-03-31T09:23:26Z</time>
      </trkpt>
      <trkpt lat="46.30243" lon="-0.59215">
        <ele>11.6</ele>
        <time>2021-03-31T09:23:27Z</time>
      </trkpt>
      <trkpt lat="46.30236" lon="-0.59209">
        <ele>11.4</ele>
        <time>2021-03-31T09:23:28Z</time>
      </trkpt>
      <trkpt lat="46.3023" lon="-0.59202">
        <ele>11.4</ele>
        <time>2021-03-31T09:23:29Z</time>
      </trkpt>
      <trkpt lat="46.30223" lon="-0.59196">
        <ele>11.2</ele>
        <time>2021-03-31T09:23:30Z</time>
      </trkpt>
      <trkpt lat="46.30216" lon="-0.59189">
        <ele>11.2</ele>
        <time>2021-03-31T09:23:31Z</time>
      </trkpt>
      <trkpt lat="46.3021" lon="-0.59182">
        <ele>11.2</ele>
        <time>2021-03-31T09:23:32Z</time>
      </trkpt>
      <trkpt lat="46.30203" lon="-0.59176">
        <ele>11.2</ele>
        <time>2021-03-31T09:23:33Z</time>
      </trkpt>
      <trkpt lat="46.30198" lon="-0.5917">
        <ele>11.2</ele>
        <time>2021-03-31T09:23:34Z</time>
      </trkpt>
      <trkpt lat="46.30193" lon="-0.59165">
        <ele>11.2</ele>
        <time>2021-03-31T09:23:35Z</time>
      </trkpt>
      <trkpt lat="46.30187" lon="-0.5916">
        <ele>11.2</ele>
        <time>2021-03-31T09:23:36Z</time>
      </trkpt>
      <trkpt lat="46.30182" lon="-0.59155">
        <ele>11.2</ele>
        <time>2021-03-31T09:23:37Z</time>
      </trkpt>
      <trkpt lat="46.30177" lon="-0.5915">
        <ele>11.2</ele>
        <time>2021-03-31T09:23:38Z</time>
      </trkpt>
      <trkpt lat="46.30171" lon="-0.59145">
        <ele>11.2</ele>
        <time>2021-03-31T09:23:39Z</time>
      </trkpt>
      <trkpt lat="46.30161" lon="-0.59134">
        <ele>11.2</ele>
        <time>2021-03-31T09:23:41Z</time>
      </trkpt>
      <trkpt lat="46.30156" lon="-0.59129">
        <ele>11.2</ele>
        <time>2021-03-31T09:23:42Z</time>
      </trkpt>
      <trkpt lat="46.30151" lon="-0.59124">
        <ele>11.8</ele>
        <time>2021-03-31T09:23:43Z</time>
      </trkpt>
      <trkpt lat="46.30146" lon="-0.59119">
        <ele>12.2</ele>
        <time>2021-03-31T09:23:44Z</time>
      </trkpt>
      <trkpt lat="46.30141" lon="-0.59114">
        <ele>12.8</ele>
        <time>2021-03-31T09:23:45Z</time>
      </trkpt>
      <trkpt lat="46.30136" lon="-0.59109">
        <ele>13.2</ele>
        <time>2021-03-31T09:23:46Z</time>
      </trkpt>
      <trkpt lat="46.30131" lon="-0.59104">
        <ele>13.6</ele>
        <time>2021-03-31T09:23:47Z</time>
      </trkpt>
      <trkpt lat="46.30126" lon="-0.59099">
        <ele>14</ele>
        <time>2021-03-31T09:23:48Z</time>
      </trkpt>
      <trkpt lat="46.30117" lon="-0.5909">
        <ele>14.6</ele>
        <time>2021-03-31T09:23:50Z</time>
      </trkpt>
      <trkpt lat="46.30113" lon="-0.59085">
        <ele>15</ele>
        <time>2021-03-31T09:23:51Z</time>
      </trkpt>
      <trkpt lat="46.30109" lon="-0.59081">
        <ele>15.4</ele>
        <time>2021-03-31T09:23:52Z</time>
      </trkpt>
      <trkpt lat="46.30105" lon="-0.59078">
        <ele>15.8</ele>
        <time>2021-03-31T09:23:53Z</time>
      </trkpt>
      <trkpt lat="46.30101" lon="-0.59074">
        <ele>16.4</ele>
        <time>2021-03-31T09:23:54Z</time>
      </trkpt>
      <trkpt lat="46.30097" lon="-0.5907">
        <ele>16.8</ele>
        <time>2021-03-31T09:23:55Z</time>
      </trkpt>
      <trkpt lat="46.30093" lon="-0.59066">
        <ele>17</ele>
        <time>2021-03-31T09:23:56Z</time>
      </trkpt>
      <trkpt lat="46.30089" lon="-0.59061">
        <ele>17.6</ele>
        <time>2021-03-31T09:23:57Z</time>
      </trkpt>
      <trkpt lat="46.30085" lon="-0.59057">
        <ele>18.2</ele>
        <time>2021-03-31T09:23:58Z</time>
      </trkpt>
      <trkpt lat="46.30081" lon="-0.59051">
        <ele>19</ele>
        <time>2021-03-31T09:23:59Z</time>
      </trkpt>
      <trkpt lat="46.30078" lon="-0.59044">
        <ele>19.4</ele>
        <time>2021-03-31T09:24:00Z</time>
      </trkpt>
      <trkpt lat="46.30076" lon="-0.59037">
        <ele>19.8</ele>
        <time>2021-03-31T09:24:01Z</time>
      </trkpt>
      <trkpt lat="46.30072" lon="-0.59029">
        <ele>19.8</ele>
        <time>2021-03-31T09:24:02Z</time>
      </trkpt>
      <trkpt lat="46.30068" lon="-0.59021">
        <ele>20</ele>
        <time>2021-03-31T09:24:03Z</time>
      </trkpt>
      <trkpt lat="46.30064" lon="-0.59012">
        <ele>20</ele>
        <time>2021-03-31T09:24:04Z</time>
      </trkpt>
      <trkpt lat="46.3006" lon="-0.59003">
        <ele>20</ele>
        <time>2021-03-31T09:24:05Z</time>
      </trkpt>
      <trkpt lat="46.30057" lon="-0.58994">
        <ele>20</ele>
        <time>2021-03-31T09:24:06Z</time>
      </trkpt>
      <trkpt lat="46.30054" lon="-0.58984">
        <ele>20</ele>
        <time>2021-03-31T09:24:07Z</time>
      </trkpt>
      <trkpt lat="46.30052" lon="-0.58974">
        <ele>20</ele>
        <time>2021-03-31T09:24:08Z</time>
      </trkpt>
      <trkpt lat="46.30051" lon="-0.58963">
        <ele>20</ele>
        <time>2021-03-31T09:24:09Z</time>
      </trkpt>
      <trkpt lat="46.3005" lon="-0.58952">
        <ele>20</ele>
        <time>2021-03-31T09:24:10Z</time>
      </trkpt>
      <trkpt lat="46.30049" lon="-0.58941">
        <ele>20</ele>
        <time>2021-03-31T09:24:11Z</time>
      </trkpt>
      <trkpt lat="46.30049" lon="-0.58929">
        <ele>20</ele>
        <time>2021-03-31T09:24:12Z</time>
      </trkpt>
      <trkpt lat="46.3005" lon="-0.58918">
        <ele>20</ele>
        <time>2021-03-31T09:24:13Z</time>
      </trkpt>
      <trkpt lat="46.30051" lon="-0.58907">
        <ele>20</ele>
        <time>2021-03-31T09:24:14Z</time>
      </trkpt>
      <trkpt lat="46.30053" lon="-0.58896">
        <ele>20</ele>
        <time>2021-03-31T09:24:15Z</time>
      </trkpt>
      <trkpt lat="46.30054" lon="-0.58886">
        <ele>20</ele>
        <time>2021-03-31T09:24:16Z</time>
      </trkpt>
      <trkpt lat="46.30056" lon="-0.58877">
        <ele>19.8</ele>
        <time>2021-03-31T09:24:17Z</time>
      </trkpt>
      <trkpt lat="46.30057" lon="-0.58867">
        <ele>19.8</ele>
        <time>2021-03-31T09:24:18Z</time>
      </trkpt>
      <trkpt lat="46.30059" lon="-0.58858">
        <ele>19.8</ele>
        <time>2021-03-31T09:24:19Z</time>
      </trkpt>
      <trkpt lat="46.30061" lon="-0.5885">
        <ele>19.8</ele>
        <time>2021-03-31T09:24:20Z</time>
      </trkpt>
      <trkpt lat="46.30064" lon="-0.58843">
        <ele>19.8</ele>
        <time>2021-03-31T09:24:21Z</time>
      </trkpt>
      <trkpt lat="46.30068" lon="-0.58836">
        <ele>19.8</ele>
        <time>2021-03-31T09:24:22Z</time>
      </trkpt>
      <trkpt lat="46.30072" lon="-0.5883">
        <ele>19.8</ele>
        <time>2021-03-31T09:24:23Z</time>
      </trkpt>
      <trkpt lat="46.30075" lon="-0.58824">
        <ele>19.6</ele>
        <time>2021-03-31T09:24:24Z</time>
      </trkpt>
      <trkpt lat="46.30079" lon="-0.58819">
        <ele>19.8</ele>
        <time>2021-03-31T09:24:25Z</time>
      </trkpt>
      <trkpt lat="46.30083" lon="-0.58814">
        <ele>19.8</ele>
        <time>2021-03-31T09:24:26Z</time>
      </trkpt>
      <trkpt lat="46.30088" lon="-0.58811">
        <ele>19.8</ele>
        <time>2021-03-31T09:24:27Z</time>
      </trkpt>
      <trkpt lat="46.30105" lon="-0.58802">
        <ele>19.6</ele>
        <time>2021-03-31T09:24:30Z</time>
      </trkpt>
      <trkpt lat="46.30155" lon="-0.58788">
        <ele>19.4</ele>
        <time>2021-03-31T09:24:38Z</time>
      </trkpt>
      <trkpt lat="46.30161" lon="-0.58786">
        <ele>19</ele>
        <time>2021-03-31T09:24:39Z</time>
      </trkpt>
      <trkpt lat="46.30167" lon="-0.58783">
        <ele>18.8</ele>
        <time>2021-03-31T09:24:40Z</time>
      </trkpt>
      <trkpt lat="46.30174" lon="-0.58779">
        <ele>17.8</ele>
        <time>2021-03-31T09:24:41Z</time>
      </trkpt>
      <trkpt lat="46.30181" lon="-0.58777">
        <ele>17.2</ele>
        <time>2021-03-31T09:24:42Z</time>
      </trkpt>
      <trkpt lat="46.30197" lon="-0.58773">
        <ele>16.2</ele>
        <time>2021-03-31T09:24:44Z</time>
      </trkpt>
      <trkpt lat="46.30223" lon="-0.58768">
        <ele>14.8</ele>
        <time>2021-03-31T09:24:47Z</time>
      </trkpt>
      <trkpt lat="46.3024" lon="-0.58762">
        <ele>14.4</ele>
        <time>2021-03-31T09:24:49Z</time>
      </trkpt>
      <trkpt lat="46.30248" lon="-0.58758">
        <ele>14.4</ele>
        <time>2021-03-31T09:24:50Z</time>
      </trkpt>
      <trkpt lat="46.30256" lon="-0.58753">
        <ele>13.6</ele>
        <time>2021-03-31T09:24:51Z</time>
      </trkpt>
      <trkpt lat="46.30264" lon="-0.58748">
        <ele>13</ele>
        <time>2021-03-31T09:24:52Z</time>
      </trkpt>
      <trkpt lat="46.30272" lon="-0.58743">
        <ele>12</ele>
        <time>2021-03-31T09:24:53Z</time>
      </trkpt>
      <trkpt lat="46.30304" lon="-0.58724">
        <ele>10.8</ele>
        <time>2021-03-31T09:24:57Z</time>
      </trkpt>
      <trkpt lat="46.30336" lon="-0.58704">
        <ele>10.2</ele>
        <time>2021-03-31T09:25:01Z</time>
      </trkpt>
      <trkpt lat="46.30361" lon="-0.5869">
        <ele>9.8</ele>
        <time>2021-03-31T09:25:04Z</time>
      </trkpt>
      <trkpt lat="46.30369" lon="-0.58686">
        <ele>9.8</ele>
        <time>2021-03-31T09:25:05Z</time>
      </trkpt>
      <trkpt lat="46.30387" lon="-0.58683">
        <ele>9.6</ele>
        <time>2021-03-31T09:25:07Z</time>
      </trkpt>
      <trkpt lat="46.30442" lon="-0.58677">
        <ele>9.4</ele>
        <time>2021-03-31T09:25:13Z</time>
      </trkpt>
      <trkpt lat="46.30451" lon="-0.58677">
        <ele>9.4</ele>
        <time>2021-03-31T09:25:14Z</time>
      </trkpt>
      <trkpt lat="46.30488" lon="-0.58674">
        <ele>9</ele>
        <time>2021-03-31T09:25:18Z</time>
      </trkpt>
      <trkpt lat="46.30497" lon="-0.58673">
        <ele>8.8</ele>
        <time>2021-03-31T09:25:19Z</time>
      </trkpt>
      <trkpt lat="46.30504" lon="-0.58672">
        <ele>8.8</ele>
        <time>2021-03-31T09:25:20Z</time>
      </trkpt>
      <trkpt lat="46.30511" lon="-0.5867">
        <ele>8.6</ele>
        <time>2021-03-31T09:25:21Z</time>
      </trkpt>
      <trkpt lat="46.30515" lon="-0.58669">
        <ele>8.6</ele>
        <time>2021-03-31T09:25:22Z</time>
      </trkpt>
      <trkpt lat="46.30518" lon="-0.58668">
        <ele>8.4</ele>
        <time>2021-03-31T09:25:23Z</time>
      </trkpt>
      <trkpt lat="46.3052" lon="-0.58667">
        <ele>8.4</ele>
        <time>2021-03-31T09:25:24Z</time>
      </trkpt>
      <trkpt lat="46.30522" lon="-0.58666">
        <ele>8.4</ele>
        <time>2021-03-31T09:25:25Z</time>
      </trkpt>
      <trkpt lat="46.30524" lon="-0.58664">
        <ele>8.4</ele>
        <time>2021-03-31T09:25:26Z</time>
      </trkpt>
      <trkpt lat="46.30525" lon="-0.58663">
        <ele>8.4</ele>
        <time>2021-03-31T09:25:27Z</time>
      </trkpt>
      <trkpt lat="46.30527" lon="-0.58662">
        <ele>8.4</ele>
        <time>2021-03-31T09:25:28Z</time>
      </trkpt>
      <trkpt lat="46.30528" lon="-0.58663">
        <ele>8.4</ele>
        <time>2021-03-31T09:25:29Z</time>
      </trkpt>
      <trkpt lat="46.30529" lon="-0.58662">
        <ele>8.4</ele>
        <time>2021-03-31T09:25:30Z</time>
      </trkpt>
      <trkpt lat="46.30529" lon="-0.58661">
        <ele>8.6</ele>
        <time>2021-03-31T09:25:31Z</time>
      </trkpt>
      <trkpt lat="46.30532" lon="-0.58658">
        <ele>8.6</ele>
        <time>2021-03-31T09:25:32Z</time>
      </trkpt>
      <trkpt lat="46.30535" lon="-0.58655">
        <ele>8.6</ele>
        <time>2021-03-31T09:25:33Z</time>
      </trkpt>
      <trkpt lat="46.30539" lon="-0.58651">
        <ele>8.6</ele>
        <time>2021-03-31T09:25:34Z</time>
      </trkpt>
      <trkpt lat="46.30555" lon="-0.58638">
        <ele>8.8</ele>
        <time>2021-03-31T09:25:37Z</time>
      </trkpt>
      <trkpt lat="46.30594" lon="-0.58606">
        <ele>9.2</ele>
        <time>2021-03-31T09:25:43Z</time>
      </trkpt>
      <trkpt lat="46.30623" lon="-0.58581">
        <ele>7.8</ele>
        <time>2021-03-31T09:25:47Z</time>
      </trkpt>
      <trkpt lat="46.30635" lon="-0.58569">
        <ele>7.4</ele>
        <time>2021-03-31T09:25:49Z</time>
      </trkpt>
      <trkpt lat="46.3064" lon="-0.58564">
        <ele>7.2</ele>
        <time>2021-03-31T09:25:50Z</time>
      </trkpt>
      <trkpt lat="46.30644" lon="-0.58561">
        <ele>7</ele>
        <time>2021-03-31T09:25:51Z</time>
      </trkpt>
      <trkpt lat="46.30649" lon="-0.58559">
        <ele>6.4</ele>
        <time>2021-03-31T09:25:52Z</time>
      </trkpt>
      <trkpt lat="46.30654" lon="-0.58555">
        <ele>6</ele>
        <time>2021-03-31T09:25:53Z</time>
      </trkpt>
      <trkpt lat="46.30658" lon="-0.5855">
        <ele>5.8</ele>
        <time>2021-03-31T09:25:54Z</time>
      </trkpt>
      <trkpt lat="46.30663" lon="-0.58547">
        <ele>5.6</ele>
        <time>2021-03-31T09:25:55Z</time>
      </trkpt>
      <trkpt lat="46.30667" lon="-0.58545">
        <ele>5.4</ele>
        <time>2021-03-31T09:25:56Z</time>
      </trkpt>
      <trkpt lat="46.30671" lon="-0.58541">
        <ele>5.2</ele>
        <time>2021-03-31T09:25:57Z</time>
      </trkpt>
      <trkpt lat="46.30694" lon="-0.58512">
        <ele>4.8</ele>
        <time>2021-03-31T09:26:03Z</time>
      </trkpt>
      <trkpt lat="46.30697" lon="-0.58505">
        <ele>4.8</ele>
        <time>2021-03-31T09:26:04Z</time>
      </trkpt>
      <trkpt lat="46.307" lon="-0.58499">
        <ele>4.8</ele>
        <time>2021-03-31T09:26:05Z</time>
      </trkpt>
      <trkpt lat="46.30708" lon="-0.58475">
        <ele>4.8</ele>
        <time>2021-03-31T09:26:08Z</time>
      </trkpt>
      <trkpt lat="46.30724" lon="-0.5845">
        <ele>4.6</ele>
        <time>2021-03-31T09:26:12Z</time>
      </trkpt>
      <trkpt lat="46.30729" lon="-0.58444">
        <ele>4.6</ele>
        <time>2021-03-31T09:26:13Z</time>
      </trkpt>
      <trkpt lat="46.30733" lon="-0.58438">
        <ele>4.6</ele>
        <time>2021-03-31T09:26:14Z</time>
      </trkpt>
      <trkpt lat="46.30738" lon="-0.58423">
        <ele>4.6</ele>
        <time>2021-03-31T09:26:16Z</time>
      </trkpt>
      <trkpt lat="46.3074" lon="-0.58415">
        <ele>4.6</ele>
        <time>2021-03-31T09:26:17Z</time>
      </trkpt>
      <trkpt lat="46.30743" lon="-0.58408">
        <ele>4.4</ele>
        <time>2021-03-31T09:26:18Z</time>
      </trkpt>
      <trkpt lat="46.30751" lon="-0.58396">
        <ele>4.4</ele>
        <time>2021-03-31T09:26:20Z</time>
      </trkpt>
      <trkpt lat="46.30756" lon="-0.5839">
        <ele>4.4</ele>
        <time>2021-03-31T09:26:21Z</time>
      </trkpt>
      <trkpt lat="46.30761" lon="-0.58384">
        <ele>4.4</ele>
        <time>2021-03-31T09:26:22Z</time>
      </trkpt>
      <trkpt lat="46.30773" lon="-0.58372">
        <ele>4.2</ele>
        <time>2021-03-31T09:26:24Z</time>
      </trkpt>
      <trkpt lat="46.30784" lon="-0.58358">
        <ele>4.2</ele>
        <time>2021-03-31T09:26:26Z</time>
      </trkpt>
      <trkpt lat="46.308" lon="-0.58337">
        <ele>4</ele>
        <time>2021-03-31T09:26:29Z</time>
      </trkpt>
      <trkpt lat="46.30806" lon="-0.58331">
        <ele>3.8</ele>
        <time>2021-03-31T09:26:30Z</time>
      </trkpt>
      <trkpt lat="46.3081" lon="-0.58325">
        <ele>3.8</ele>
        <time>2021-03-31T09:26:31Z</time>
      </trkpt>
      <trkpt lat="46.30814" lon="-0.58318">
        <ele>3.8</ele>
        <time>2021-03-31T09:26:32Z</time>
      </trkpt>
      <trkpt lat="46.30818" lon="-0.5831">
        <ele>3.8</ele>
        <time>2021-03-31T09:26:33Z</time>
      </trkpt>
      <trkpt lat="46.30821" lon="-0.58303">
        <ele>3.8</ele>
        <time>2021-03-31T09:26:34Z</time>
      </trkpt>
      <trkpt lat="46.30823" lon="-0.58297">
        <ele>3.6</ele>
        <time>2021-03-31T09:26:35Z</time>
      </trkpt>
      <trkpt lat="46.30826" lon="-0.58291">
        <ele>3.6</ele>
        <time>2021-03-31T09:26:36Z</time>
      </trkpt>
      <trkpt lat="46.30829" lon="-0.58284">
        <ele>3.6</ele>
        <time>2021-03-31T09:26:37Z</time>
      </trkpt>
      <trkpt lat="46.30833" lon="-0.58276">
        <ele>3.6</ele>
        <time>2021-03-31T09:26:38Z</time>
      </trkpt>
      <trkpt lat="46.30838" lon="-0.58259">
        <ele>3.6</ele>
        <time>2021-03-31T09:26:40Z</time>
      </trkpt>
      <trkpt lat="46.30839" lon="-0.58233">
        <ele>4</ele>
        <time>2021-03-31T09:26:43Z</time>
      </trkpt>
      <trkpt lat="46.30841" lon="-0.58226">
        <ele>4</ele>
        <time>2021-03-31T09:26:44Z</time>
      </trkpt>
      <trkpt lat="46.30844" lon="-0.58218">
        <ele>4.4</ele>
        <time>2021-03-31T09:26:45Z</time>
      </trkpt>
      <trkpt lat="46.30848" lon="-0.58212">
        <ele>4.4</ele>
        <time>2021-03-31T09:26:46Z</time>
      </trkpt>
      <trkpt lat="46.30853" lon="-0.58206">
        <ele>4.6</ele>
        <time>2021-03-31T09:26:47Z</time>
      </trkpt>
      <trkpt lat="46.30858" lon="-0.58199">
        <ele>4.4</ele>
        <time>2021-03-31T09:26:48Z</time>
      </trkpt>
      <trkpt lat="46.30862" lon="-0.5819">
        <ele>4.2</ele>
        <time>2021-03-31T09:26:49Z</time>
      </trkpt>
      <trkpt lat="46.30872" lon="-0.5816">
        <ele>4</ele>
        <time>2021-03-31T09:26:52Z</time>
      </trkpt>
      <trkpt lat="46.30874" lon="-0.58149">
        <ele>4</ele>
        <time>2021-03-31T09:26:53Z</time>
      </trkpt>
      <trkpt lat="46.30877" lon="-0.58139">
        <ele>3.8</ele>
        <time>2021-03-31T09:26:54Z</time>
      </trkpt>
      <trkpt lat="46.3088" lon="-0.5813">
        <ele>3.8</ele>
        <time>2021-03-31T09:26:55Z</time>
      </trkpt>
      <trkpt lat="46.30885" lon="-0.58123">
        <ele>3.8</ele>
        <time>2021-03-31T09:26:56Z</time>
      </trkpt>
      <trkpt lat="46.30891" lon="-0.58117">
        <ele>3.6</ele>
        <time>2021-03-31T09:26:57Z</time>
      </trkpt>
      <trkpt lat="46.30897" lon="-0.58114">
        <ele>3.6</ele>
        <time>2021-03-31T09:26:58Z</time>
      </trkpt>
      <trkpt lat="46.30903" lon="-0.58111">
        <ele>3.8</ele>
        <time>2021-03-31T09:26:59Z</time>
      </trkpt>
      <trkpt lat="46.30908" lon="-0.58108">
        <ele>3.8</ele>
        <time>2021-03-31T09:27:00Z</time>
      </trkpt>
      <trkpt lat="46.30914" lon="-0.58106">
        <ele>3.8</ele>
        <time>2021-03-31T09:27:01Z</time>
      </trkpt>
      <trkpt lat="46.30918" lon="-0.58102">
        <ele>3.8</ele>
        <time>2021-03-31T09:27:02Z</time>
      </trkpt>
      <trkpt lat="46.30922" lon="-0.58095">
        <ele>3.8</ele>
        <time>2021-03-31T09:27:03Z</time>
      </trkpt>
      <trkpt lat="46.30924" lon="-0.58088">
        <ele>3.8</ele>
        <time>2021-03-31T09:27:04Z</time>
      </trkpt>
      <trkpt lat="46.30925" lon="-0.5808">
        <ele>3.8</ele>
        <time>2021-03-31T09:27:05Z</time>
      </trkpt>
      <trkpt lat="46.30925" lon="-0.58071">
        <ele>3.8</ele>
        <time>2021-03-31T09:27:06Z</time>
      </trkpt>
      <trkpt lat="46.30926" lon="-0.58061">
        <ele>3.8</ele>
        <time>2021-03-31T09:27:07Z</time>
      </trkpt>
      <trkpt lat="46.30926" lon="-0.58052">
        <ele>3.8</ele>
        <time>2021-03-31T09:27:08Z</time>
      </trkpt>
      <trkpt lat="46.30928" lon="-0.58044">
        <ele>3.8</ele>
        <time>2021-03-31T09:27:09Z</time>
      </trkpt>
      <trkpt lat="46.30931" lon="-0.58036">
        <ele>4</ele>
        <time>2021-03-31T09:27:10Z</time>
      </trkpt>
      <trkpt lat="46.30934" lon="-0.58029">
        <ele>4.2</ele>
        <time>2021-03-31T09:27:11Z</time>
      </trkpt>
      <trkpt lat="46.30942" lon="-0.58017">
        <ele>4.2</ele>
        <time>2021-03-31T09:27:13Z</time>
      </trkpt>
      <trkpt lat="46.30947" lon="-0.5801">
        <ele>4.4</ele>
        <time>2021-03-31T09:27:14Z</time>
      </trkpt>
      <trkpt lat="46.30955" lon="-0.57993">
        <ele>4.4</ele>
        <time>2021-03-31T09:27:16Z</time>
      </trkpt>
      <trkpt lat="46.30963" lon="-0.57978">
        <ele>4.4</ele>
        <time>2021-03-31T09:27:18Z</time>
      </trkpt>
      <trkpt lat="46.30967" lon="-0.57971">
        <ele>4.4</ele>
        <time>2021-03-31T09:27:19Z</time>
      </trkpt>
      <trkpt lat="46.30971" lon="-0.57963">
        <ele>4.4</ele>
        <time>2021-03-31T09:27:20Z</time>
      </trkpt>
      <trkpt lat="46.30978" lon="-0.57947">
        <ele>4</ele>
        <time>2021-03-31T09:27:22Z</time>
      </trkpt>
      <trkpt lat="46.30985" lon="-0.57931">
        <ele>3.8</ele>
        <time>2021-03-31T09:27:24Z</time>
      </trkpt>
      <trkpt lat="46.30989" lon="-0.57926">
        <ele>3.8</ele>
        <time>2021-03-31T09:27:25Z</time>
      </trkpt>
      <trkpt lat="46.30995" lon="-0.57921">
        <ele>3.8</ele>
        <time>2021-03-31T09:27:26Z</time>
      </trkpt>
      <trkpt lat="46.31004" lon="-0.57907">
        <ele>3.8</ele>
        <time>2021-03-31T09:27:28Z</time>
      </trkpt>
      <trkpt lat="46.31006" lon="-0.57899">
        <ele>3.8</ele>
        <time>2021-03-31T09:27:29Z</time>
      </trkpt>
      <trkpt lat="46.31006" lon="-0.5789">
        <ele>3.8</ele>
        <time>2021-03-31T09:27:30Z</time>
      </trkpt>
      <trkpt lat="46.31006" lon="-0.57872">
        <ele>3.8</ele>
        <time>2021-03-31T09:27:32Z</time>
      </trkpt>
      <trkpt lat="46.31008" lon="-0.57863">
        <ele>3.8</ele>
        <time>2021-03-31T09:27:33Z</time>
      </trkpt>
      <trkpt lat="46.31012" lon="-0.57844">
        <ele>3.8</ele>
        <time>2021-03-31T09:27:35Z</time>
      </trkpt>
      <trkpt lat="46.31023" lon="-0.57822">
        <ele>3.8</ele>
        <time>2021-03-31T09:27:38Z</time>
      </trkpt>
      <trkpt lat="46.31046" lon="-0.57777">
        <ele>4.4</ele>
        <time>2021-03-31T09:27:44Z</time>
      </trkpt>
      <trkpt lat="46.31051" lon="-0.5777">
        <ele>4.4</ele>
        <time>2021-03-31T09:27:45Z</time>
      </trkpt>
      <trkpt lat="46.31057" lon="-0.57764">
        <ele>4.6</ele>
        <time>2021-03-31T09:27:46Z</time>
      </trkpt>
      <trkpt lat="46.31082" lon="-0.57741">
        <ele>4.8</ele>
        <time>2021-03-31T09:27:50Z</time>
      </trkpt>
      <trkpt lat="46.31118" lon="-0.5772">
        <ele>5.2</ele>
        <time>2021-03-31T09:27:55Z</time>
      </trkpt>
      <trkpt lat="46.31125" lon="-0.57717">
        <ele>5.2</ele>
        <time>2021-03-31T09:27:56Z</time>
      </trkpt>
      <trkpt lat="46.31132" lon="-0.57715">
        <ele>5.2</ele>
        <time>2021-03-31T09:27:57Z</time>
      </trkpt>
      <trkpt lat="46.31146" lon="-0.57712">
        <ele>5.4</ele>
        <time>2021-03-31T09:27:59Z</time>
      </trkpt>
      <trkpt lat="46.31162" lon="-0.57709">
        <ele>5.4</ele>
        <time>2021-03-31T09:28:01Z</time>
      </trkpt>
      <trkpt lat="46.31204" lon="-0.57707">
        <ele>5.4</ele>
        <time>2021-03-31T09:28:06Z</time>
      </trkpt>
      <trkpt lat="46.31212" lon="-0.57707">
        <ele>5.4</ele>
        <time>2021-03-31T09:28:07Z</time>
      </trkpt>
      <trkpt lat="46.31272" lon="-0.57702">
        <ele>5.4</ele>
        <time>2021-03-31T09:28:14Z</time>
      </trkpt>
      <trkpt lat="46.31281" lon="-0.57702">
        <ele>5.2</ele>
        <time>2021-03-31T09:28:15Z</time>
      </trkpt>
      <trkpt lat="46.31312" lon="-0.57699">
        <ele>5</ele>
        <time>2021-03-31T09:28:19Z</time>
      </trkpt>
      <trkpt lat="46.31319" lon="-0.577">
        <ele>5</ele>
        <time>2021-03-31T09:28:20Z</time>
      </trkpt>
      <trkpt lat="46.31326" lon="-0.57703">
        <ele>5</ele>
        <time>2021-03-31T09:28:21Z</time>
      </trkpt>
      <trkpt lat="46.31332" lon="-0.57705">
        <ele>5</ele>
        <time>2021-03-31T09:28:22Z</time>
      </trkpt>
      <trkpt lat="46.31338" lon="-0.57706">
        <ele>5</ele>
        <time>2021-03-31T09:28:23Z</time>
      </trkpt>
      <trkpt lat="46.31344" lon="-0.57708">
        <ele>5</ele>
        <time>2021-03-31T09:28:24Z</time>
      </trkpt>
      <trkpt lat="46.3135" lon="-0.5771">
        <ele>5.2</ele>
        <time>2021-03-31T09:28:25Z</time>
      </trkpt>
      <trkpt lat="46.31355" lon="-0.57711">
        <ele>5.2</ele>
        <time>2021-03-31T09:28:26Z</time>
      </trkpt>
      <trkpt lat="46.31361" lon="-0.5771">
        <ele>5.2</ele>
        <time>2021-03-31T09:28:27Z</time>
      </trkpt>
      <trkpt lat="46.31366" lon="-0.57708">
        <ele>5.2</ele>
        <time>2021-03-31T09:28:28Z</time>
      </trkpt>
      <trkpt lat="46.31372" lon="-0.57707">
        <ele>5.2</ele>
        <time>2021-03-31T09:28:29Z</time>
      </trkpt>
      <trkpt lat="46.31409" lon="-0.57696">
        <ele>5.6</ele>
        <time>2021-03-31T09:28:35Z</time>
      </trkpt>
      <trkpt lat="46.31414" lon="-0.57694">
        <ele>5.6</ele>
        <time>2021-03-31T09:28:36Z</time>
      </trkpt>
      <trkpt lat="46.31418" lon="-0.57693">
        <ele>5.8</ele>
        <time>2021-03-31T09:28:37Z</time>
      </trkpt>
      <trkpt lat="46.31421" lon="-0.57692">
        <ele>5.8</ele>
        <time>2021-03-31T09:28:38Z</time>
      </trkpt>
      <trkpt lat="46.31424" lon="-0.57692">
        <ele>6</ele>
        <time>2021-03-31T09:28:39Z</time>
      </trkpt>
      <trkpt lat="46.31426" lon="-0.57692">
        <ele>6.2</ele>
        <time>2021-03-31T09:28:40Z</time>
      </trkpt>
      <trkpt lat="46.31428" lon="-0.57692">
        <ele>6.4</ele>
        <time>2021-03-31T09:28:41Z</time>
      </trkpt>
      <trkpt lat="46.31431" lon="-0.57691">
        <ele>6.6</ele>
        <time>2021-03-31T09:28:42Z</time>
      </trkpt>
      <trkpt lat="46.31434" lon="-0.57689">
        <ele>6.8</ele>
        <time>2021-03-31T09:28:43Z</time>
      </trkpt>
      <trkpt lat="46.31438" lon="-0.57689">
        <ele>7</ele>
        <time>2021-03-31T09:28:44Z</time>
      </trkpt>
      <trkpt lat="46.31462" lon="-0.57688">
        <ele>7.4</ele>
        <time>2021-03-31T09:28:48Z</time>
      </trkpt>
      <trkpt lat="46.31487" lon="-0.57687">
        <ele>7.4</ele>
        <time>2021-03-31T09:28:52Z</time>
      </trkpt>
      <trkpt lat="46.31492" lon="-0.57687">
        <ele>7.4</ele>
        <time>2021-03-31T09:28:53Z</time>
      </trkpt>
      <trkpt lat="46.31498" lon="-0.57686">
        <ele>7</ele>
        <time>2021-03-31T09:28:54Z</time>
      </trkpt>
      <trkpt lat="46.31519" lon="-0.57684">
        <ele>6.4</ele>
        <time>2021-03-31T09:28:58Z</time>
      </trkpt>
      <trkpt lat="46.31525" lon="-0.57684">
        <ele>6.4</ele>
        <time>2021-03-31T09:28:59Z</time>
      </trkpt>
      <trkpt lat="46.31532" lon="-0.57684">
        <ele>6.2</ele>
        <time>2021-03-31T09:29:00Z</time>
      </trkpt>
      <trkpt lat="46.3154" lon="-0.57684">
        <ele>6.2</ele>
        <time>2021-03-31T09:29:01Z</time>
      </trkpt>
      <trkpt lat="46.3158" lon="-0.57682">
        <ele>5.8</ele>
        <time>2021-03-31T09:29:06Z</time>
      </trkpt>
      <trkpt lat="46.31596" lon="-0.5768">
        <ele>5.4</ele>
        <time>2021-03-31T09:29:08Z</time>
      </trkpt>
      <trkpt lat="46.31605" lon="-0.57679">
        <ele>5</ele>
        <time>2021-03-31T09:29:09Z</time>
      </trkpt>
      <trkpt lat="46.31621" lon="-0.57678">
        <ele>4.2</ele>
        <time>2021-03-31T09:29:11Z</time>
      </trkpt>
      <trkpt lat="46.31646" lon="-0.57674">
        <ele>4</ele>
        <time>2021-03-31T09:29:14Z</time>
      </trkpt>
      <trkpt lat="46.31688" lon="-0.57678">
        <ele>3.8</ele>
        <time>2021-03-31T09:29:19Z</time>
      </trkpt>
      <trkpt lat="46.31736" lon="-0.57691">
        <ele>4</ele>
        <time>2021-03-31T09:29:25Z</time>
      </trkpt>
      <trkpt lat="46.31743" lon="-0.57693">
        <ele>4.2</ele>
        <time>2021-03-31T09:29:26Z</time>
      </trkpt>
      <trkpt lat="46.3175" lon="-0.57695">
        <ele>4.4</ele>
        <time>2021-03-31T09:29:27Z</time>
      </trkpt>
      <trkpt lat="46.31756" lon="-0.57697">
        <ele>4.6</ele>
        <time>2021-03-31T09:29:28Z</time>
      </trkpt>
      <trkpt lat="46.31762" lon="-0.57698">
        <ele>4.8</ele>
        <time>2021-03-31T09:29:29Z</time>
      </trkpt>
      <trkpt lat="46.31767" lon="-0.57698">
        <ele>4.8</ele>
        <time>2021-03-31T09:29:30Z</time>
      </trkpt>
      <trkpt lat="46.31772" lon="-0.57698">
        <ele>5</ele>
        <time>2021-03-31T09:29:31Z</time>
      </trkpt>
      <trkpt lat="46.31777" lon="-0.57699">
        <ele>5</ele>
        <time>2021-03-31T09:29:32Z</time>
      </trkpt>
      <trkpt lat="46.31783" lon="-0.57701">
        <ele>5</ele>
        <time>2021-03-31T09:29:33Z</time>
      </trkpt>
      <trkpt lat="46.31788" lon="-0.57704">
        <ele>5.4</ele>
        <time>2021-03-31T09:29:34Z</time>
      </trkpt>
      <trkpt lat="46.31802" lon="-0.57712">
        <ele>5.8</ele>
        <time>2021-03-31T09:29:37Z</time>
      </trkpt>
      <trkpt lat="46.31813" lon="-0.57718">
        <ele>6.4</ele>
        <time>2021-03-31T09:29:39Z</time>
      </trkpt>
      <trkpt lat="46.31827" lon="-0.57727">
        <ele>6.6</ele>
        <time>2021-03-31T09:29:41Z</time>
      </trkpt>
      <trkpt lat="46.31846" lon="-0.57741">
        <ele>6.8</ele>
        <time>2021-03-31T09:29:44Z</time>
      </trkpt>
      <trkpt lat="46.31852" lon="-0.57743">
        <ele>6.8</ele>
        <time>2021-03-31T09:29:45Z</time>
      </trkpt>
      <trkpt lat="46.31858" lon="-0.57743">
        <ele>6.8</ele>
        <time>2021-03-31T09:29:46Z</time>
      </trkpt>
      <trkpt lat="46.31862" lon="-0.5774">
        <ele>6.8</ele>
        <time>2021-03-31T09:29:47Z</time>
      </trkpt>
      <trkpt lat="46.31865" lon="-0.57736">
        <ele>6.8</ele>
        <time>2021-03-31T09:29:48Z</time>
      </trkpt>
      <trkpt lat="46.31867" lon="-0.5773">
        <ele>6.8</ele>
        <time>2021-03-31T09:29:49Z</time>
      </trkpt>
      <trkpt lat="46.31868" lon="-0.57725">
        <ele>6.8</ele>
        <time>2021-03-31T09:29:50Z</time>
      </trkpt>
      <trkpt lat="46.31867" lon="-0.57719">
        <ele>6.8</ele>
        <time>2021-03-31T09:29:51Z</time>
      </trkpt>
      <trkpt lat="46.31865" lon="-0.57712">
        <ele>6.8</ele>
        <time>2021-03-31T09:29:52Z</time>
      </trkpt>
      <trkpt lat="46.31865" lon="-0.57703">
        <ele>6.8</ele>
        <time>2021-03-31T09:29:53Z</time>
      </trkpt>
      <trkpt lat="46.31865" lon="-0.57694">
        <ele>6.8</ele>
        <time>2021-03-31T09:29:54Z</time>
      </trkpt>
      <trkpt lat="46.31868" lon="-0.57685">
        <ele>6.8</ele>
        <time>2021-03-31T09:29:55Z</time>
      </trkpt>
      <trkpt lat="46.31872" lon="-0.57677">
        <ele>6.6</ele>
        <time>2021-03-31T09:29:56Z</time>
      </trkpt>
      <trkpt lat="46.31878" lon="-0.57673">
        <ele>6.4</ele>
        <time>2021-03-31T09:29:57Z</time>
      </trkpt>
      <trkpt lat="46.31892" lon="-0.57673">
        <ele>6.2</ele>
        <time>2021-03-31T09:29:59Z</time>
      </trkpt>
      <trkpt lat="46.31898" lon="-0.57676">
        <ele>6.2</ele>
        <time>2021-03-31T09:30:00Z</time>
      </trkpt>
      <trkpt lat="46.31904" lon="-0.57679">
        <ele>6.2</ele>
        <time>2021-03-31T09:30:01Z</time>
      </trkpt>
      <trkpt lat="46.3191" lon="-0.57679">
        <ele>6.2</ele>
        <time>2021-03-31T09:30:02Z</time>
      </trkpt>
      <trkpt lat="46.31916" lon="-0.57677">
        <ele>6.2</ele>
        <time>2021-03-31T09:30:03Z</time>
      </trkpt>
      <trkpt lat="46.31921" lon="-0.57672">
        <ele>6.2</ele>
        <time>2021-03-31T09:30:04Z</time>
      </trkpt>
      <trkpt lat="46.31924" lon="-0.57667">
        <ele>6.2</ele>
        <time>2021-03-31T09:30:05Z</time>
      </trkpt>
      <trkpt lat="46.31927" lon="-0.57661">
        <ele>6.2</ele>
        <time>2021-03-31T09:30:06Z</time>
      </trkpt>
      <trkpt lat="46.3193" lon="-0.57656">
        <ele>6.2</ele>
        <time>2021-03-31T09:30:07Z</time>
      </trkpt>
      <trkpt lat="46.31932" lon="-0.57651">
        <ele>6.2</ele>
        <time>2021-03-31T09:30:08Z</time>
      </trkpt>
      <trkpt lat="46.31935" lon="-0.57645">
        <ele>6.2</ele>
        <time>2021-03-31T09:30:09Z</time>
      </trkpt>
      <trkpt lat="46.31937" lon="-0.5764">
        <ele>6.2</ele>
        <time>2021-03-31T09:30:10Z</time>
      </trkpt>
      <trkpt lat="46.3194" lon="-0.57634">
        <ele>6.2</ele>
        <time>2021-03-31T09:30:11Z</time>
      </trkpt>
      <trkpt lat="46.31951" lon="-0.57615">
        <ele>6.2</ele>
        <time>2021-03-31T09:30:14Z</time>
      </trkpt>
      <trkpt lat="46.31958" lon="-0.57601">
        <ele>6.2</ele>
        <time>2021-03-31T09:30:16Z</time>
      </trkpt>
      <trkpt lat="46.31969" lon="-0.57581">
        <ele>6</ele>
        <time>2021-03-31T09:30:19Z</time>
      </trkpt>
      <trkpt lat="46.31972" lon="-0.57574">
        <ele>6</ele>
        <time>2021-03-31T09:30:20Z</time>
      </trkpt>
      <trkpt lat="46.31975" lon="-0.57568">
        <ele>6</ele>
        <time>2021-03-31T09:30:21Z</time>
      </trkpt>
      <trkpt lat="46.31979" lon="-0.57562">
        <ele>6</ele>
        <time>2021-03-31T09:30:22Z</time>
      </trkpt>
      <trkpt lat="46.31983" lon="-0.57556">
        <ele>6</ele>
        <time>2021-03-31T09:30:23Z</time>
      </trkpt>
      <trkpt lat="46.31987" lon="-0.5755">
        <ele>6</ele>
        <time>2021-03-31T09:30:24Z</time>
      </trkpt>
      <trkpt lat="46.31995" lon="-0.57537">
        <ele>6</ele>
        <time>2021-03-31T09:30:26Z</time>
      </trkpt>
      <trkpt lat="46.32003" lon="-0.57524">
        <ele>5.8</ele>
        <time>2021-03-31T09:30:28Z</time>
      </trkpt>
      <trkpt lat="46.32007" lon="-0.57517">
        <ele>5.8</ele>
        <time>2021-03-31T09:30:29Z</time>
      </trkpt>
      <trkpt lat="46.32009" lon="-0.57509">
        <ele>5.8</ele>
        <time>2021-03-31T09:30:30Z</time>
      </trkpt>
      <trkpt lat="46.3201" lon="-0.575">
        <ele>5.8</ele>
        <time>2021-03-31T09:30:31Z</time>
      </trkpt>
      <trkpt lat="46.32011" lon="-0.5749">
        <ele>5.8</ele>
        <time>2021-03-31T09:30:32Z</time>
      </trkpt>
      <trkpt lat="46.32012" lon="-0.57481">
        <ele>5.6</ele>
        <time>2021-03-31T09:30:33Z</time>
      </trkpt>
      <trkpt lat="46.32013" lon="-0.57471">
        <ele>5.6</ele>
        <time>2021-03-31T09:30:34Z</time>
      </trkpt>
      <trkpt lat="46.3202" lon="-0.57423">
        <ele>5.6</ele>
        <time>2021-03-31T09:30:39Z</time>
      </trkpt>
      <trkpt lat="46.32027" lon="-0.57376">
        <ele>5.6</ele>
        <time>2021-03-31T09:30:44Z</time>
      </trkpt>
      <trkpt lat="46.32028" lon="-0.57366">
        <ele>5.6</ele>
        <time>2021-03-31T09:30:45Z</time>
      </trkpt>
      <trkpt lat="46.3203" lon="-0.57357">
        <ele>5.8</ele>
        <time>2021-03-31T09:30:46Z</time>
      </trkpt>
      <trkpt lat="46.32044" lon="-0.57274">
        <ele>5.8</ele>
        <time>2021-03-31T09:30:54Z</time>
      </trkpt>
      <trkpt lat="46.32046" lon="-0.57263">
        <ele>5.8</ele>
        <time>2021-03-31T09:30:55Z</time>
      </trkpt>
      <trkpt lat="46.32058" lon="-0.57186">
        <ele>5.8</ele>
        <time>2021-03-31T09:31:02Z</time>
      </trkpt>
      <trkpt lat="46.3206" lon="-0.57175">
        <ele>5.8</ele>
        <time>2021-03-31T09:31:03Z</time>
      </trkpt>
      <trkpt lat="46.32074" lon="-0.57089">
        <ele>5.8</ele>
        <time>2021-03-31T09:31:11Z</time>
      </trkpt>
      <trkpt lat="46.32076" lon="-0.57078">
        <ele>5.8</ele>
        <time>2021-03-31T09:31:12Z</time>
      </trkpt>
      <trkpt lat="46.32078" lon="-0.57067">
        <ele>5.8</ele>
        <time>2021-03-31T09:31:13Z</time>
      </trkpt>
      <trkpt lat="46.32079" lon="-0.57057">
        <ele>5.8</ele>
        <time>2021-03-31T09:31:14Z</time>
      </trkpt>
      <trkpt lat="46.32081" lon="-0.57046">
        <ele>5.8</ele>
        <time>2021-03-31T09:31:15Z</time>
      </trkpt>
      <trkpt lat="46.32091" lon="-0.56996">
        <ele>6</ele>
        <time>2021-03-31T09:31:20Z</time>
      </trkpt>
      <trkpt lat="46.32094" lon="-0.56987">
        <ele>6</ele>
        <time>2021-03-31T09:31:21Z</time>
      </trkpt>
      <trkpt lat="46.32096" lon="-0.56979">
        <ele>6</ele>
        <time>2021-03-31T09:31:22Z</time>
      </trkpt>
      <trkpt lat="46.32099" lon="-0.56972">
        <ele>6</ele>
        <time>2021-03-31T09:31:23Z</time>
      </trkpt>
      <trkpt lat="46.32102" lon="-0.56965">
        <ele>6</ele>
        <time>2021-03-31T09:31:24Z</time>
      </trkpt>
      <trkpt lat="46.32105" lon="-0.56958">
        <ele>6</ele>
        <time>2021-03-31T09:31:25Z</time>
      </trkpt>
      <trkpt lat="46.32108" lon="-0.56953">
        <ele>6</ele>
        <time>2021-03-31T09:31:26Z</time>
      </trkpt>
      <trkpt lat="46.32111" lon="-0.56948">
        <ele>6</ele>
        <time>2021-03-31T09:31:27Z</time>
      </trkpt>
      <trkpt lat="46.32114" lon="-0.56945">
        <ele>6</ele>
        <time>2021-03-31T09:31:28Z</time>
      </trkpt>
      <trkpt lat="46.32116" lon="-0.56942">
        <ele>6.2</ele>
        <time>2021-03-31T09:31:29Z</time>
      </trkpt>
      <trkpt lat="46.32117" lon="-0.56942">
        <ele>6.4</ele>
        <time>2021-03-31T09:31:30Z</time>
      </trkpt>
      <trkpt lat="46.32117" lon="-0.56942">
        <ele>6.4</ele>
        <time>2021-03-31T09:31:31Z</time>
      </trkpt>
      <trkpt lat="46.32119" lon="-0.56939">
        <ele>8.4</ele>
        <time>2021-03-31T09:33:28Z</time>
      </trkpt>
      <trkpt lat="46.32121" lon="-0.56936">
        <ele>8.4</ele>
        <time>2021-03-31T09:33:29Z</time>
      </trkpt>
      <trkpt lat="46.32124" lon="-0.56931">
        <ele>8.4</ele>
        <time>2021-03-31T09:33:30Z</time>
      </trkpt>
      <trkpt lat="46.32126" lon="-0.56924">
        <ele>8.4</ele>
        <time>2021-03-31T09:33:31Z</time>
      </trkpt>
      <trkpt lat="46.32129" lon="-0.56917">
        <ele>8.4</ele>
        <time>2021-03-31T09:33:32Z</time>
      </trkpt>
      <trkpt lat="46.32139" lon="-0.56893">
        <ele>8.4</ele>
        <time>2021-03-31T09:33:35Z</time>
      </trkpt>
      <trkpt lat="46.32153" lon="-0.56858">
        <ele>7.4</ele>
        <time>2021-03-31T09:33:39Z</time>
      </trkpt>
      <trkpt lat="46.3216" lon="-0.5684">
        <ele>6.4</ele>
        <time>2021-03-31T09:33:41Z</time>
      </trkpt>
      <trkpt lat="46.32163" lon="-0.5683">
        <ele>6</ele>
        <time>2021-03-31T09:33:42Z</time>
      </trkpt>
      <trkpt lat="46.32176" lon="-0.56796">
        <ele>5.4</ele>
        <time>2021-03-31T09:33:46Z</time>
      </trkpt>
      <trkpt lat="46.32179" lon="-0.56788">
        <ele>5.4</ele>
        <time>2021-03-31T09:33:47Z</time>
      </trkpt>
      <trkpt lat="46.32182" lon="-0.5678">
        <ele>5.4</ele>
        <time>2021-03-31T09:33:48Z</time>
      </trkpt>
      <trkpt lat="46.32185" lon="-0.56771">
        <ele>5.4</ele>
        <time>2021-03-31T09:33:49Z</time>
      </trkpt>
      <trkpt lat="46.32192" lon="-0.56743">
        <ele>5.4</ele>
        <time>2021-03-31T09:33:52Z</time>
      </trkpt>
      <trkpt lat="46.32195" lon="-0.56725">
        <ele>5.4</ele>
        <time>2021-03-31T09:33:54Z</time>
      </trkpt>
      <trkpt lat="46.32197" lon="-0.56717">
        <ele>5.6</ele>
        <time>2021-03-31T09:33:55Z</time>
      </trkpt>
      <trkpt lat="46.32198" lon="-0.56709">
        <ele>5.8</ele>
        <time>2021-03-31T09:33:56Z</time>
      </trkpt>
      <trkpt lat="46.32199" lon="-0.56702">
        <ele>6</ele>
        <time>2021-03-31T09:33:57Z</time>
      </trkpt>
      <trkpt lat="46.32199" lon="-0.56695">
        <ele>6.2</ele>
        <time>2021-03-31T09:33:58Z</time>
      </trkpt>
      <trkpt lat="46.32198" lon="-0.56689">
        <ele>6.4</ele>
        <time>2021-03-31T09:33:59Z</time>
      </trkpt>
      <trkpt lat="46.32195" lon="-0.56683">
        <ele>6.4</ele>
        <time>2021-03-31T09:34:00Z</time>
      </trkpt>
      <trkpt lat="46.32191" lon="-0.56677">
        <ele>6.4</ele>
        <time>2021-03-31T09:34:01Z</time>
      </trkpt>
      <trkpt lat="46.32186" lon="-0.56671">
        <ele>6.6</ele>
        <time>2021-03-31T09:34:02Z</time>
      </trkpt>
      <trkpt lat="46.32182" lon="-0.56665">
        <ele>6.6</ele>
        <time>2021-03-31T09:34:03Z</time>
      </trkpt>
      <trkpt lat="46.32177" lon="-0.56659">
        <ele>6.6</ele>
        <time>2021-03-31T09:34:04Z</time>
      </trkpt>
      <trkpt lat="46.32158" lon="-0.56632">
        <ele>6.8</ele>
        <time>2021-03-31T09:34:08Z</time>
      </trkpt>
      <trkpt lat="46.32153" lon="-0.56625">
        <ele>6.8</ele>
        <time>2021-03-31T09:34:09Z</time>
      </trkpt>
      <trkpt lat="46.32131" lon="-0.56591">
        <ele>7</ele>
        <time>2021-03-31T09:34:14Z</time>
      </trkpt>
      <trkpt lat="46.3212" lon="-0.56571">
        <ele>7</ele>
        <time>2021-03-31T09:34:17Z</time>
      </trkpt>
      <trkpt lat="46.32116" lon="-0.56565">
        <ele>7</ele>
        <time>2021-03-31T09:34:18Z</time>
      </trkpt>
      <trkpt lat="46.32112" lon="-0.56558">
        <ele>7</ele>
        <time>2021-03-31T09:34:19Z</time>
      </trkpt>
      <trkpt lat="46.32108" lon="-0.5655">
        <ele>7</ele>
        <time>2021-03-31T09:34:20Z</time>
      </trkpt>
      <trkpt lat="46.32104" lon="-0.56543">
        <ele>7</ele>
        <time>2021-03-31T09:34:21Z</time>
      </trkpt>
      <trkpt lat="46.32099" lon="-0.56534">
        <ele>7</ele>
        <time>2021-03-31T09:34:22Z</time>
      </trkpt>
      <trkpt lat="46.32068" lon="-0.56471">
        <ele>7.2</ele>
        <time>2021-03-31T09:34:29Z</time>
      </trkpt>
      <trkpt lat="46.32039" lon="-0.564">
        <ele>7.4</ele>
        <time>2021-03-31T09:34:36Z</time>
      </trkpt>
      <trkpt lat="46.32029" lon="-0.56383">
        <ele>7.4</ele>
        <time>2021-03-31T09:34:38Z</time>
      </trkpt>
      <trkpt lat="46.32008" lon="-0.56349">
        <ele>7.4</ele>
        <time>2021-03-31T09:34:42Z</time>
      </trkpt>
      <trkpt lat="46.32004" lon="-0.5634">
        <ele>7.6</ele>
        <time>2021-03-31T09:34:43Z</time>
      </trkpt>
      <trkpt lat="46.32" lon="-0.5633">
        <ele>7.6</ele>
        <time>2021-03-31T09:34:44Z</time>
      </trkpt>
      <trkpt lat="46.31996" lon="-0.56321">
        <ele>7.6</ele>
        <time>2021-03-31T09:34:45Z</time>
      </trkpt>
      <trkpt lat="46.3199" lon="-0.56302">
        <ele>8</ele>
        <time>2021-03-31T09:34:47Z</time>
      </trkpt>
      <trkpt lat="46.31987" lon="-0.56291">
        <ele>8.2</ele>
        <time>2021-03-31T09:34:48Z</time>
      </trkpt>
      <trkpt lat="46.3198" lon="-0.56271">
        <ele>8.4</ele>
        <time>2021-03-31T09:34:50Z</time>
      </trkpt>
      <trkpt lat="46.31958" lon="-0.56198">
        <ele>9</ele>
        <time>2021-03-31T09:34:57Z</time>
      </trkpt>
      <trkpt lat="46.31946" lon="-0.56147">
        <ele>9.6</ele>
        <time>2021-03-31T09:35:02Z</time>
      </trkpt>
      <trkpt lat="46.31944" lon="-0.56136">
        <ele>9.6</ele>
        <time>2021-03-31T09:35:03Z</time>
      </trkpt>
      <trkpt lat="46.31944" lon="-0.56124">
        <ele>9.8</ele>
        <time>2021-03-31T09:35:04Z</time>
      </trkpt>
      <trkpt lat="46.31947" lon="-0.56077">
        <ele>9.8</ele>
        <time>2021-03-31T09:35:08Z</time>
      </trkpt>
      <trkpt lat="46.31947" lon="-0.56065">
        <ele>10</ele>
        <time>2021-03-31T09:35:09Z</time>
      </trkpt>
      <trkpt lat="46.3194" lon="-0.55982">
        <ele>10</ele>
        <time>2021-03-31T09:35:16Z</time>
      </trkpt>
      <trkpt lat="46.31933" lon="-0.55935">
        <ele>10.6</ele>
        <time>2021-03-31T09:35:20Z</time>
      </trkpt>
      <trkpt lat="46.31932" lon="-0.55926">
        <ele>10.6</ele>
        <time>2021-03-31T09:35:21Z</time>
      </trkpt>
      <trkpt lat="46.3193" lon="-0.55917">
        <ele>10.8</ele>
        <time>2021-03-31T09:35:22Z</time>
      </trkpt>
      <trkpt lat="46.31929" lon="-0.55909">
        <ele>10.8</ele>
        <time>2021-03-31T09:35:23Z</time>
      </trkpt>
      <trkpt lat="46.31928" lon="-0.55902">
        <ele>10.8</ele>
        <time>2021-03-31T09:35:24Z</time>
      </trkpt>
      <trkpt lat="46.31927" lon="-0.55897">
        <ele>11</ele>
        <time>2021-03-31T09:35:25Z</time>
      </trkpt>
      <trkpt lat="46.31927" lon="-0.55892">
        <ele>11</ele>
        <time>2021-03-31T09:35:26Z</time>
      </trkpt>
      <trkpt lat="46.31927" lon="-0.55888">
        <ele>11.2</ele>
        <time>2021-03-31T09:35:27Z</time>
      </trkpt>
      <trkpt lat="46.31929" lon="-0.55885">
        <ele>11.2</ele>
        <time>2021-03-31T09:35:28Z</time>
      </trkpt>
      <trkpt lat="46.31932" lon="-0.55882">
        <ele>11.4</ele>
        <time>2021-03-31T09:35:29Z</time>
      </trkpt>
      <trkpt lat="46.31937" lon="-0.5588">
        <ele>11.4</ele>
        <time>2021-03-31T09:35:30Z</time>
      </trkpt>
      <trkpt lat="46.31956" lon="-0.55873">
        <ele>11.8</ele>
        <time>2021-03-31T09:35:33Z</time>
      </trkpt>
      <trkpt lat="46.31963" lon="-0.5587">
        <ele>11.8</ele>
        <time>2021-03-31T09:35:34Z</time>
      </trkpt>
      <trkpt lat="46.3201" lon="-0.55854">
        <ele>11.8</ele>
        <time>2021-03-31T09:35:40Z</time>
      </trkpt>
      <trkpt lat="46.32018" lon="-0.55851">
        <ele>11.8</ele>
        <time>2021-03-31T09:35:41Z</time>
      </trkpt>
      <trkpt lat="46.32043" lon="-0.55839">
        <ele>11.2</ele>
        <time>2021-03-31T09:35:44Z</time>
      </trkpt>
      <trkpt lat="46.32051" lon="-0.55833">
        <ele>11.2</ele>
        <time>2021-03-31T09:35:45Z</time>
      </trkpt>
      <trkpt lat="46.32066" lon="-0.55821">
        <ele>11.2</ele>
        <time>2021-03-31T09:35:47Z</time>
      </trkpt>
      <trkpt lat="46.32074" lon="-0.55816">
        <ele>11</ele>
        <time>2021-03-31T09:35:48Z</time>
      </trkpt>
      <trkpt lat="46.32082" lon="-0.55812">
        <ele>10.8</ele>
        <time>2021-03-31T09:35:49Z</time>
      </trkpt>
      <trkpt lat="46.32106" lon="-0.55802">
        <ele>10.8</ele>
        <time>2021-03-31T09:35:52Z</time>
      </trkpt>
      <trkpt lat="46.32149" lon="-0.5579">
        <ele>10.4</ele>
        <time>2021-03-31T09:35:57Z</time>
      </trkpt>
      <trkpt lat="46.32211" lon="-0.55778">
        <ele>10</ele>
        <time>2021-03-31T09:36:04Z</time>
      </trkpt>
      <trkpt lat="46.3222" lon="-0.55776">
        <ele>9.8</ele>
        <time>2021-03-31T09:36:05Z</time>
      </trkpt>
      <trkpt lat="46.32229" lon="-0.55774">
        <ele>9.6</ele>
        <time>2021-03-31T09:36:06Z</time>
      </trkpt>
      <trkpt lat="46.32281" lon="-0.55763">
        <ele>8.4</ele>
        <time>2021-03-31T09:36:12Z</time>
      </trkpt>
      <trkpt lat="46.32288" lon="-0.55761">
        <ele>8</ele>
        <time>2021-03-31T09:36:13Z</time>
      </trkpt>
      <trkpt lat="46.32296" lon="-0.5576">
        <ele>7.6</ele>
        <time>2021-03-31T09:36:14Z</time>
      </trkpt>
      <trkpt lat="46.32303" lon="-0.55759">
        <ele>7.2</ele>
        <time>2021-03-31T09:36:15Z</time>
      </trkpt>
      <trkpt lat="46.32309" lon="-0.55758">
        <ele>7</ele>
        <time>2021-03-31T09:36:16Z</time>
      </trkpt>
      <trkpt lat="46.32315" lon="-0.55757">
        <ele>7</ele>
        <time>2021-03-31T09:36:17Z</time>
      </trkpt>
      <trkpt lat="46.3232" lon="-0.55759">
        <ele>6.8</ele>
        <time>2021-03-31T09:36:18Z</time>
      </trkpt>
      <trkpt lat="46.32326" lon="-0.55762">
        <ele>6.8</ele>
        <time>2021-03-31T09:36:19Z</time>
      </trkpt>
      <trkpt lat="46.3233" lon="-0.55768">
        <ele>6.8</ele>
        <time>2021-03-31T09:36:20Z</time>
      </trkpt>
      <trkpt lat="46.32335" lon="-0.55774">
        <ele>6.8</ele>
        <time>2021-03-31T09:36:21Z</time>
      </trkpt>
      <trkpt lat="46.3234" lon="-0.55779">
        <ele>6.8</ele>
        <time>2021-03-31T09:36:22Z</time>
      </trkpt>
      <trkpt lat="46.32346" lon="-0.55783">
        <ele>6.8</ele>
        <time>2021-03-31T09:36:23Z</time>
      </trkpt>
      <trkpt lat="46.32351" lon="-0.55786">
        <ele>6.6</ele>
        <time>2021-03-31T09:36:24Z</time>
      </trkpt>
      <trkpt lat="46.32357" lon="-0.55788">
        <ele>6.6</ele>
        <time>2021-03-31T09:36:25Z</time>
      </trkpt>
      <trkpt lat="46.32362" lon="-0.55788">
        <ele>6.6</ele>
        <time>2021-03-31T09:36:26Z</time>
      </trkpt>
      <trkpt lat="46.32367" lon="-0.55788">
        <ele>6.6</ele>
        <time>2021-03-31T09:36:27Z</time>
      </trkpt>
      <trkpt lat="46.32371" lon="-0.55787">
        <ele>6.6</ele>
        <time>2021-03-31T09:36:28Z</time>
      </trkpt>
      <trkpt lat="46.32374" lon="-0.55785">
        <ele>6.6</ele>
        <time>2021-03-31T09:36:29Z</time>
      </trkpt>
      <trkpt lat="46.32377" lon="-0.55784">
        <ele>6.8</ele>
        <time>2021-03-31T09:36:30Z</time>
      </trkpt>
      <trkpt lat="46.32378" lon="-0.55783">
        <ele>6.8</ele>
        <time>2021-03-31T09:36:31Z</time>
      </trkpt>
      <trkpt lat="46.32379" lon="-0.55782">
        <ele>6.8</ele>
        <time>2021-03-31T09:36:32Z</time>
      </trkpt>
      <trkpt lat="46.3238" lon="-0.5578">
        <ele>7</ele>
        <time>2021-03-31T09:36:33Z</time>
      </trkpt>
      <trkpt lat="46.32379" lon="-0.55779">
        <ele>7</ele>
        <time>2021-03-31T09:36:34Z</time>
      </trkpt>
      <trkpt lat="46.32379" lon="-0.55776">
        <ele>7</ele>
        <time>2021-03-31T09:36:35Z</time>
      </trkpt>
      <trkpt lat="46.32378" lon="-0.55774">
        <ele>7.2</ele>
        <time>2021-03-31T09:36:36Z</time>
      </trkpt>
      <trkpt lat="46.32376" lon="-0.55766">
        <ele>7</ele>
        <time>2021-03-31T09:36:38Z</time>
      </trkpt>
      <trkpt lat="46.3237" lon="-0.55739">
        <ele>7.2</ele>
        <time>2021-03-31T09:36:44Z</time>
      </trkpt>
      <trkpt lat="46.32369" lon="-0.55736">
        <ele>7.2</ele>
        <time>2021-03-31T09:36:45Z</time>
      </trkpt>
      <trkpt lat="46.32369" lon="-0.55735">
        <ele>7.2</ele>
        <time>2021-03-31T09:36:46Z</time>
      </trkpt>
      <trkpt lat="46.32369" lon="-0.55734">
        <ele>7.2</ele>
        <time>2021-03-31T09:36:47Z</time>
      </trkpt>
      <trkpt lat="46.32369" lon="-0.55734">
        <ele>7.4</ele>
        <time>2021-03-31T09:36:48Z</time>
      </trkpt>
      <trkpt lat="46.32373" lon="-0.55731">
        <ele>7.4</ele>
        <time>2021-03-31T09:36:52Z</time>
      </trkpt>
      <trkpt lat="46.32377" lon="-0.55732">
        <ele>7.2</ele>
        <time>2021-03-31T09:36:53Z</time>
      </trkpt>
      <trkpt lat="46.32381" lon="-0.55733">
        <ele>7.2</ele>
        <time>2021-03-31T09:36:54Z</time>
      </trkpt>
      <trkpt lat="46.32386" lon="-0.55732">
        <ele>7.2</ele>
        <time>2021-03-31T09:36:55Z</time>
      </trkpt>
      <trkpt lat="46.32389" lon="-0.5573">
        <ele>7.2</ele>
        <time>2021-03-31T09:36:56Z</time>
      </trkpt>
      <trkpt lat="46.32391" lon="-0.55728">
        <ele>7.2</ele>
        <time>2021-03-31T09:36:57Z</time>
      </trkpt>
      <trkpt lat="46.32393" lon="-0.55726">
        <ele>7.2</ele>
        <time>2021-03-31T09:36:58Z</time>
      </trkpt>
      <trkpt lat="46.32393" lon="-0.55724">
        <ele>7.2</ele>
        <time>2021-03-31T09:36:59Z</time>
      </trkpt>
      <trkpt lat="46.32393" lon="-0.55724">
        <ele>7.4</ele>
        <time>2021-03-31T09:37:00Z</time>
      </trkpt>
      <trkpt lat="46.32393" lon="-0.55724">
        <ele>7.4</ele>
        <time>2021-03-31T09:37:01Z</time>
      </trkpt>
      <trkpt lat="46.32393" lon="-0.55724">
        <ele>7.4</ele>
        <time>2021-03-31T09:37:02Z</time>
      </trkpt>
      <trkpt lat="46.32408" lon="-0.55708">
        <ele>7.6</ele>
        <time>2021-03-31T09:37:40Z</time>
      </trkpt>
      <trkpt lat="46.32411" lon="-0.55709">
        <ele>7.6</ele>
        <time>2021-03-31T09:37:41Z</time>
      </trkpt>
      <trkpt lat="46.3243" lon="-0.55714">
        <ele>7.6</ele>
        <time>2021-03-31T09:37:45Z</time>
      </trkpt>
      <trkpt lat="46.32458" lon="-0.55725">
        <ele>7.4</ele>
        <time>2021-03-31T09:37:50Z</time>
      </trkpt>
      <trkpt lat="46.3247" lon="-0.55728">
        <ele>7.2</ele>
        <time>2021-03-31T09:37:52Z</time>
      </trkpt>
      <trkpt lat="46.32476" lon="-0.55728">
        <ele>7</ele>
        <time>2021-03-31T09:37:53Z</time>
      </trkpt>
      <trkpt lat="46.32481" lon="-0.55728">
        <ele>6.6</ele>
        <time>2021-03-31T09:37:54Z</time>
      </trkpt>
      <trkpt lat="46.32491" lon="-0.55733">
        <ele>6.4</ele>
        <time>2021-03-31T09:37:56Z</time>
      </trkpt>
      <trkpt lat="46.32495" lon="-0.55738">
        <ele>6.4</ele>
        <time>2021-03-31T09:37:57Z</time>
      </trkpt>
      <trkpt lat="46.325" lon="-0.55744">
        <ele>6.4</ele>
        <time>2021-03-31T09:37:58Z</time>
      </trkpt>
      <trkpt lat="46.32505" lon="-0.55748">
        <ele>6.2</ele>
        <time>2021-03-31T09:37:59Z</time>
      </trkpt>
      <trkpt lat="46.32511" lon="-0.55752">
        <ele>6.2</ele>
        <time>2021-03-31T09:38:00Z</time>
      </trkpt>
      <trkpt lat="46.32518" lon="-0.55756">
        <ele>6.2</ele>
        <time>2021-03-31T09:38:01Z</time>
      </trkpt>
      <trkpt lat="46.32553" lon="-0.55769">
        <ele>6</ele>
        <time>2021-03-31T09:38:06Z</time>
      </trkpt>
      <trkpt lat="46.32601" lon="-0.55777">
        <ele>6</ele>
        <time>2021-03-31T09:38:13Z</time>
      </trkpt>
      <trkpt lat="46.32607" lon="-0.55777">
        <ele>6</ele>
        <time>2021-03-31T09:38:14Z</time>
      </trkpt>
      <trkpt lat="46.32613" lon="-0.55777">
        <ele>6</ele>
        <time>2021-03-31T09:38:15Z</time>
      </trkpt>
      <trkpt lat="46.32619" lon="-0.55778">
        <ele>6</ele>
        <time>2021-03-31T09:38:16Z</time>
      </trkpt>
      <trkpt lat="46.32626" lon="-0.55779">
        <ele>6</ele>
        <time>2021-03-31T09:38:17Z</time>
      </trkpt>
      <trkpt lat="46.32655" lon="-0.55785">
        <ele>5.8</ele>
        <time>2021-03-31T09:38:21Z</time>
      </trkpt>
      <trkpt lat="46.32684" lon="-0.55802">
        <ele>5.4</ele>
        <time>2021-03-31T09:38:25Z</time>
      </trkpt>
      <trkpt lat="46.32695" lon="-0.55816">
        <ele>5.4</ele>
        <time>2021-03-31T09:38:27Z</time>
      </trkpt>
      <trkpt lat="46.32699" lon="-0.55825">
        <ele>5.4</ele>
        <time>2021-03-31T09:38:28Z</time>
      </trkpt>
      <trkpt lat="46.32702" lon="-0.55834">
        <ele>5.4</ele>
        <time>2021-03-31T09:38:29Z</time>
      </trkpt>
      <trkpt lat="46.32705" lon="-0.55844">
        <ele>5.2</ele>
        <time>2021-03-31T09:38:30Z</time>
      </trkpt>
      <trkpt lat="46.32708" lon="-0.55855">
        <ele>5.2</ele>
        <time>2021-03-31T09:38:31Z</time>
      </trkpt>
      <trkpt lat="46.3271" lon="-0.55866">
        <ele>5.2</ele>
        <time>2021-03-31T09:38:32Z</time>
      </trkpt>
      <trkpt lat="46.32723" lon="-0.55944">
        <ele>5.2</ele>
        <time>2021-03-31T09:38:39Z</time>
      </trkpt>
      <trkpt lat="46.32725" lon="-0.55955">
        <ele>5.4</ele>
        <time>2021-03-31T09:38:40Z</time>
      </trkpt>
      <trkpt lat="46.32739" lon="-0.56009">
        <ele>5.4</ele>
        <time>2021-03-31T09:38:45Z</time>
      </trkpt>
      <trkpt lat="46.32747" lon="-0.5603">
        <ele>5.4</ele>
        <time>2021-03-31T09:38:47Z</time>
      </trkpt>
      <trkpt lat="46.32759" lon="-0.56067">
        <ele>5.4</ele>
        <time>2021-03-31T09:38:51Z</time>
      </trkpt>
      <trkpt lat="46.32763" lon="-0.56075">
        <ele>5.4</ele>
        <time>2021-03-31T09:38:52Z</time>
      </trkpt>
      <trkpt lat="46.32766" lon="-0.56083">
        <ele>5.4</ele>
        <time>2021-03-31T09:38:53Z</time>
      </trkpt>
      <trkpt lat="46.32769" lon="-0.56091">
        <ele>5.4</ele>
        <time>2021-03-31T09:38:54Z</time>
      </trkpt>
      <trkpt lat="46.3278" lon="-0.56117">
        <ele>5.6</ele>
        <time>2021-03-31T09:38:57Z</time>
      </trkpt>
      <trkpt lat="46.32794" lon="-0.56153">
        <ele>5.4</ele>
        <time>2021-03-31T09:39:01Z</time>
      </trkpt>
      <trkpt lat="46.32804" lon="-0.56188">
        <ele>5.6</ele>
        <time>2021-03-31T09:39:05Z</time>
      </trkpt>
      <trkpt lat="46.32807" lon="-0.56207">
        <ele>5.6</ele>
        <time>2021-03-31T09:39:07Z</time>
      </trkpt>
      <trkpt lat="46.32808" lon="-0.56217">
        <ele>5.8</ele>
        <time>2021-03-31T09:39:08Z</time>
      </trkpt>
      <trkpt lat="46.32808" lon="-0.56239">
        <ele>6</ele>
        <time>2021-03-31T09:39:10Z</time>
      </trkpt>
      <trkpt lat="46.32803" lon="-0.56284">
        <ele>6.2</ele>
        <time>2021-03-31T09:39:14Z</time>
      </trkpt>
      <trkpt lat="46.32801" lon="-0.56306">
        <ele>6.6</ele>
        <time>2021-03-31T09:39:16Z</time>
      </trkpt>
      <trkpt lat="46.32793" lon="-0.56384">
        <ele>7</ele>
        <time>2021-03-31T09:39:23Z</time>
      </trkpt>
      <trkpt lat="46.32792" lon="-0.56396">
        <ele>7</ele>
        <time>2021-03-31T09:39:24Z</time>
      </trkpt>
      <trkpt lat="46.32783" lon="-0.56471">
        <ele>6.6</ele>
        <time>2021-03-31T09:39:31Z</time>
      </trkpt>
      <trkpt lat="46.3278" lon="-0.56481">
        <ele>6.4</ele>
        <time>2021-03-31T09:39:32Z</time>
      </trkpt>
      <trkpt lat="46.32778" lon="-0.5649">
        <ele>6.4</ele>
        <time>2021-03-31T09:39:33Z</time>
      </trkpt>
      <trkpt lat="46.32776" lon="-0.56499">
        <ele>6.4</ele>
        <time>2021-03-31T09:39:34Z</time>
      </trkpt>
      <trkpt lat="46.32773" lon="-0.56508">
        <ele>6.4</ele>
        <time>2021-03-31T09:39:35Z</time>
      </trkpt>
      <trkpt lat="46.32771" lon="-0.56517">
        <ele>6.4</ele>
        <time>2021-03-31T09:39:36Z</time>
      </trkpt>
      <trkpt lat="46.32768" lon="-0.56526">
        <ele>6.4</ele>
        <time>2021-03-31T09:39:37Z</time>
      </trkpt>
      <trkpt lat="46.32763" lon="-0.56541">
        <ele>6.4</ele>
        <time>2021-03-31T09:39:39Z</time>
      </trkpt>
      <trkpt lat="46.32761" lon="-0.56547">
        <ele>6.4</ele>
        <time>2021-03-31T09:39:40Z</time>
      </trkpt>
      <trkpt lat="46.3276" lon="-0.56553">
        <ele>6.4</ele>
        <time>2021-03-31T09:39:41Z</time>
      </trkpt>
      <trkpt lat="46.32759" lon="-0.56558">
        <ele>6.4</ele>
        <time>2021-03-31T09:39:42Z</time>
      </trkpt>
      <trkpt lat="46.32758" lon="-0.56564">
        <ele>6.4</ele>
        <time>2021-03-31T09:39:43Z</time>
      </trkpt>
      <trkpt lat="46.32758" lon="-0.56568">
        <ele>6.4</ele>
        <time>2021-03-31T09:39:44Z</time>
      </trkpt>
      <trkpt lat="46.32759" lon="-0.56573">
        <ele>6.4</ele>
        <time>2021-03-31T09:39:45Z</time>
      </trkpt>
      <trkpt lat="46.32759" lon="-0.56579">
        <ele>6.4</ele>
        <time>2021-03-31T09:39:46Z</time>
      </trkpt>
      <trkpt lat="46.32759" lon="-0.56585">
        <ele>6.4</ele>
        <time>2021-03-31T09:39:47Z</time>
      </trkpt>
      <trkpt lat="46.32757" lon="-0.56603">
        <ele>7</ele>
        <time>2021-03-31T09:39:50Z</time>
      </trkpt>
      <trkpt lat="46.32757" lon="-0.5661">
        <ele>7.2</ele>
        <time>2021-03-31T09:39:52Z</time>
      </trkpt>
      <trkpt lat="46.32756" lon="-0.56611">
        <ele>7.4</ele>
        <time>2021-03-31T09:39:53Z</time>
      </trkpt>
      <trkpt lat="46.32756" lon="-0.56611">
        <ele>7.4</ele>
        <time>2021-03-31T09:39:54Z</time>
      </trkpt>
      <trkpt lat="46.32756" lon="-0.56611">
        <ele>7.6</ele>
        <time>2021-03-31T09:39:55Z</time>
      </trkpt>
      <trkpt lat="46.32757" lon="-0.5662">
        <ele>8.4</ele>
        <time>2021-03-31T09:40:04Z</time>
      </trkpt>
      <trkpt lat="46.32758" lon="-0.5663">
        <ele>8.4</ele>
        <time>2021-03-31T09:40:06Z</time>
      </trkpt>
      <trkpt lat="46.32761" lon="-0.56651">
        <ele>8.4</ele>
        <time>2021-03-31T09:40:09Z</time>
      </trkpt>
      <trkpt lat="46.32761" lon="-0.5666">
        <ele>8.4</ele>
        <time>2021-03-31T09:40:10Z</time>
      </trkpt>
      <trkpt lat="46.32762" lon="-0.56701">
        <ele>8.4</ele>
        <time>2021-03-31T09:40:14Z</time>
      </trkpt>
      <trkpt lat="46.32762" lon="-0.56783">
        <ele>8</ele>
        <time>2021-03-31T09:40:21Z</time>
      </trkpt>
      <trkpt lat="46.32762" lon="-0.56808">
        <ele>7.8</ele>
        <time>2021-03-31T09:40:23Z</time>
      </trkpt>
      <trkpt lat="46.32762" lon="-0.5689">
        <ele>7.6</ele>
        <time>2021-03-31T09:40:30Z</time>
      </trkpt>
      <trkpt lat="46.32762" lon="-0.56902">
        <ele>7.6</ele>
        <time>2021-03-31T09:40:31Z</time>
      </trkpt>
      <trkpt lat="46.32762" lon="-0.56914">
        <ele>7.4</ele>
        <time>2021-03-31T09:40:32Z</time>
      </trkpt>
      <trkpt lat="46.32762" lon="-0.56926">
        <ele>7.4</ele>
        <time>2021-03-31T09:40:33Z</time>
      </trkpt>
      <trkpt lat="46.32762" lon="-0.57014">
        <ele>7</ele>
        <time>2021-03-31T09:40:40Z</time>
      </trkpt>
      <trkpt lat="46.32762" lon="-0.57027">
        <ele>7</ele>
        <time>2021-03-31T09:40:41Z</time>
      </trkpt>
      <trkpt lat="46.32761" lon="-0.57114">
        <ele>7</ele>
        <time>2021-03-31T09:40:48Z</time>
      </trkpt>
      <trkpt lat="46.32762" lon="-0.57139">
        <ele>7</ele>
        <time>2021-03-31T09:40:50Z</time>
      </trkpt>
      <trkpt lat="46.32761" lon="-0.57212">
        <ele>7.2</ele>
        <time>2021-03-31T09:40:56Z</time>
      </trkpt>
      <trkpt lat="46.3276" lon="-0.57224">
        <ele>7.4</ele>
        <time>2021-03-31T09:40:57Z</time>
      </trkpt>
      <trkpt lat="46.3276" lon="-0.57234">
        <ele>7.4</ele>
        <time>2021-03-31T09:40:58Z</time>
      </trkpt>
      <trkpt lat="46.32759" lon="-0.57244">
        <ele>7.4</ele>
        <time>2021-03-31T09:40:59Z</time>
      </trkpt>
      <trkpt lat="46.32758" lon="-0.57254">
        <ele>7.6</ele>
        <time>2021-03-31T09:41:00Z</time>
      </trkpt>
      <trkpt lat="46.32758" lon="-0.57263">
        <ele>7.6</ele>
        <time>2021-03-31T09:41:01Z</time>
      </trkpt>
      <trkpt lat="46.32757" lon="-0.57272">
        <ele>7.8</ele>
        <time>2021-03-31T09:41:02Z</time>
      </trkpt>
      <trkpt lat="46.32757" lon="-0.5728">
        <ele>7.8</ele>
        <time>2021-03-31T09:41:03Z</time>
      </trkpt>
      <trkpt lat="46.32757" lon="-0.57289">
        <ele>8.2</ele>
        <time>2021-03-31T09:41:04Z</time>
      </trkpt>
      <trkpt lat="46.32756" lon="-0.57297">
        <ele>8.6</ele>
        <time>2021-03-31T09:41:05Z</time>
      </trkpt>
      <trkpt lat="46.32755" lon="-0.57305">
        <ele>8.8</ele>
        <time>2021-03-31T09:41:06Z</time>
      </trkpt>
      <trkpt lat="46.32754" lon="-0.57311">
        <ele>9.2</ele>
        <time>2021-03-31T09:41:07Z</time>
      </trkpt>
      <trkpt lat="46.32751" lon="-0.57317">
        <ele>9.8</ele>
        <time>2021-03-31T09:41:08Z</time>
      </trkpt>
      <trkpt lat="46.32748" lon="-0.5732">
        <ele>10.2</ele>
        <time>2021-03-31T09:41:09Z</time>
      </trkpt>
      <trkpt lat="46.32744" lon="-0.57322">
        <ele>10.8</ele>
        <time>2021-03-31T09:41:10Z</time>
      </trkpt>
      <trkpt lat="46.3274" lon="-0.57321">
        <ele>11</ele>
        <time>2021-03-31T09:41:11Z</time>
      </trkpt>
      <trkpt lat="46.32735" lon="-0.57318">
        <ele>11.2</ele>
        <time>2021-03-31T09:41:12Z</time>
      </trkpt>
      <trkpt lat="46.32731" lon="-0.57314">
        <ele>11.2</ele>
        <time>2021-03-31T09:41:13Z</time>
      </trkpt>
      <trkpt lat="46.32725" lon="-0.57309">
        <ele>11.2</ele>
        <time>2021-03-31T09:41:14Z</time>
      </trkpt>
      <trkpt lat="46.32718" lon="-0.57305">
        <ele>11.4</ele>
        <time>2021-03-31T09:41:15Z</time>
      </trkpt>
      <trkpt lat="46.32712" lon="-0.573">
        <ele>11.4</ele>
        <time>2021-03-31T09:41:16Z</time>
      </trkpt>
      <trkpt lat="46.32705" lon="-0.57295">
        <ele>11.2</ele>
        <time>2021-03-31T09:41:17Z</time>
      </trkpt>
      <trkpt lat="46.32698" lon="-0.5729">
        <ele>11.4</ele>
        <time>2021-03-31T09:41:18Z</time>
      </trkpt>
      <trkpt lat="46.32692" lon="-0.57285">
        <ele>11.4</ele>
        <time>2021-03-31T09:41:19Z</time>
      </trkpt>
      <trkpt lat="46.32687" lon="-0.57281">
        <ele>11.4</ele>
        <time>2021-03-31T09:41:20Z</time>
      </trkpt>
      <trkpt lat="46.32681" lon="-0.57278">
        <ele>11.2</ele>
        <time>2021-03-31T09:41:21Z</time>
      </trkpt>
      <trkpt lat="46.32676" lon="-0.57278">
        <ele>10.8</ele>
        <time>2021-03-31T09:41:22Z</time>
      </trkpt>
      <trkpt lat="46.32671" lon="-0.5728">
        <ele>10.2</ele>
        <time>2021-03-31T09:41:23Z</time>
      </trkpt>
      <trkpt lat="46.32667" lon="-0.57284">
        <ele>9.6</ele>
        <time>2021-03-31T09:41:24Z</time>
      </trkpt>
      <trkpt lat="46.32664" lon="-0.5729">
        <ele>8.8</ele>
        <time>2021-03-31T09:41:25Z</time>
      </trkpt>
      <trkpt lat="46.32662" lon="-0.57298">
        <ele>8.4</ele>
        <time>2021-03-31T09:41:26Z</time>
      </trkpt>
      <trkpt lat="46.32659" lon="-0.57307">
        <ele>8.2</ele>
        <time>2021-03-31T09:41:27Z</time>
      </trkpt>
      <trkpt lat="46.32656" lon="-0.57316">
        <ele>8</ele>
        <time>2021-03-31T09:41:28Z</time>
      </trkpt>
      <trkpt lat="46.32653" lon="-0.57325">
        <ele>8</ele>
        <time>2021-03-31T09:41:29Z</time>
      </trkpt>
      <trkpt lat="46.32643" lon="-0.57355">
        <ele>7.8</ele>
        <time>2021-03-31T09:41:32Z</time>
      </trkpt>
      <trkpt lat="46.32638" lon="-0.57364">
        <ele>7.8</ele>
        <time>2021-03-31T09:41:33Z</time>
      </trkpt>
      <trkpt lat="46.32633" lon="-0.57372">
        <ele>7.6</ele>
        <time>2021-03-31T09:41:34Z</time>
      </trkpt>
      <trkpt lat="46.32622" lon="-0.57389">
        <ele>7.4</ele>
        <time>2021-03-31T09:41:36Z</time>
      </trkpt>
      <trkpt lat="46.32613" lon="-0.57409">
        <ele>6.8</ele>
        <time>2021-03-31T09:41:38Z</time>
      </trkpt>
      <trkpt lat="46.3261" lon="-0.57418">
        <ele>6.6</ele>
        <time>2021-03-31T09:41:39Z</time>
      </trkpt>
      <trkpt lat="46.32601" lon="-0.57434">
        <ele>6.4</ele>
        <time>2021-03-31T09:41:41Z</time>
      </trkpt>
      <trkpt lat="46.32596" lon="-0.5744">
        <ele>6.4</ele>
        <time>2021-03-31T09:41:42Z</time>
      </trkpt>
      <trkpt lat="46.32589" lon="-0.57445">
        <ele>6.2</ele>
        <time>2021-03-31T09:41:43Z</time>
      </trkpt>
      <trkpt lat="46.32583" lon="-0.57449">
        <ele>6.2</ele>
        <time>2021-03-31T09:41:44Z</time>
      </trkpt>
      <trkpt lat="46.32577" lon="-0.57454">
        <ele>6.2</ele>
        <time>2021-03-31T09:41:45Z</time>
      </trkpt>
      <trkpt lat="46.32572" lon="-0.57459">
        <ele>6.2</ele>
        <time>2021-03-31T09:41:46Z</time>
      </trkpt>
      <trkpt lat="46.32568" lon="-0.57465">
        <ele>6.2</ele>
        <time>2021-03-31T09:41:47Z</time>
      </trkpt>
      <trkpt lat="46.32564" lon="-0.57473">
        <ele>6.2</ele>
        <time>2021-03-31T09:41:48Z</time>
      </trkpt>
      <trkpt lat="46.32561" lon="-0.57481">
        <ele>6.2</ele>
        <time>2021-03-31T09:41:49Z</time>
      </trkpt>
      <trkpt lat="46.32557" lon="-0.57489">
        <ele>6.2</ele>
        <time>2021-03-31T09:41:50Z</time>
      </trkpt>
      <trkpt lat="46.3254" lon="-0.57536">
        <ele>6</ele>
        <time>2021-03-31T09:41:55Z</time>
      </trkpt>
      <trkpt lat="46.32523" lon="-0.57589">
        <ele>6</ele>
        <time>2021-03-31T09:42:00Z</time>
      </trkpt>
      <trkpt lat="46.32509" lon="-0.57631">
        <ele>5.6</ele>
        <time>2021-03-31T09:42:04Z</time>
      </trkpt>
      <trkpt lat="46.32497" lon="-0.57662">
        <ele>5.4</ele>
        <time>2021-03-31T09:42:07Z</time>
      </trkpt>
      <trkpt lat="46.32481" lon="-0.57697">
        <ele>5.4</ele>
        <time>2021-03-31T09:42:11Z</time>
      </trkpt>
      <trkpt lat="46.32477" lon="-0.57705">
        <ele>5.4</ele>
        <time>2021-03-31T09:42:12Z</time>
      </trkpt>
      <trkpt lat="46.32473" lon="-0.57713">
        <ele>5.4</ele>
        <time>2021-03-31T09:42:13Z</time>
      </trkpt>
      <trkpt lat="46.32469" lon="-0.57721">
        <ele>5.4</ele>
        <time>2021-03-31T09:42:14Z</time>
      </trkpt>
      <trkpt lat="46.32465" lon="-0.57729">
        <ele>5.4</ele>
        <time>2021-03-31T09:42:15Z</time>
      </trkpt>
      <trkpt lat="46.32461" lon="-0.57735">
        <ele>5.8</ele>
        <time>2021-03-31T09:42:16Z</time>
      </trkpt>
      <trkpt lat="46.32456" lon="-0.5774">
        <ele>6</ele>
        <time>2021-03-31T09:42:17Z</time>
      </trkpt>
      <trkpt lat="46.32451" lon="-0.57745">
        <ele>6.4</ele>
        <time>2021-03-31T09:42:18Z</time>
      </trkpt>
      <trkpt lat="46.32448" lon="-0.57749">
        <ele>6.4</ele>
        <time>2021-03-31T09:42:19Z</time>
      </trkpt>
      <trkpt lat="46.32446" lon="-0.57751">
        <ele>6.6</ele>
        <time>2021-03-31T09:42:20Z</time>
      </trkpt>
      <trkpt lat="46.32445" lon="-0.57752">
        <ele>6.6</ele>
        <time>2021-03-31T09:42:21Z</time>
      </trkpt>
      <trkpt lat="46.32446" lon="-0.57752">
        <ele>6.8</ele>
        <time>2021-03-31T09:42:22Z</time>
      </trkpt>
      <trkpt lat="46.32446" lon="-0.57753">
        <ele>7</ele>
        <time>2021-03-31T09:42:23Z</time>
      </trkpt>
      <trkpt lat="46.32447" lon="-0.57754">
        <ele>7.2</ele>
        <time>2021-03-31T09:42:24Z</time>
      </trkpt>
      <trkpt lat="46.32448" lon="-0.57757">
        <ele>7.2</ele>
        <time>2021-03-31T09:42:25Z</time>
      </trkpt>
      <trkpt lat="46.32446" lon="-0.57763">
        <ele>7.2</ele>
        <time>2021-03-31T09:42:27Z</time>
      </trkpt>
      <trkpt lat="46.3244" lon="-0.57772">
        <ele>7.6</ele>
        <time>2021-03-31T09:42:29Z</time>
      </trkpt>
      <trkpt lat="46.32437" lon="-0.57777">
        <ele>7.8</ele>
        <time>2021-03-31T09:42:30Z</time>
      </trkpt>
      <trkpt lat="46.32433" lon="-0.57784">
        <ele>7.8</ele>
        <time>2021-03-31T09:42:31Z</time>
      </trkpt>
      <trkpt lat="46.32416" lon="-0.57816">
        <ele>7.8</ele>
        <time>2021-03-31T09:42:35Z</time>
      </trkpt>
      <trkpt lat="46.32404" lon="-0.57839">
        <ele>7.6</ele>
        <time>2021-03-31T09:42:38Z</time>
      </trkpt>
      <trkpt lat="46.32401" lon="-0.57847">
        <ele>7.4</ele>
        <time>2021-03-31T09:42:39Z</time>
      </trkpt>
      <trkpt lat="46.32397" lon="-0.57854">
        <ele>7.2</ele>
        <time>2021-03-31T09:42:40Z</time>
      </trkpt>
      <trkpt lat="46.32394" lon="-0.57861">
        <ele>7</ele>
        <time>2021-03-31T09:42:41Z</time>
      </trkpt>
      <trkpt lat="46.32391" lon="-0.57868">
        <ele>7</ele>
        <time>2021-03-31T09:42:42Z</time>
      </trkpt>
      <trkpt lat="46.32388" lon="-0.57875">
        <ele>7</ele>
        <time>2021-03-31T09:42:43Z</time>
      </trkpt>
      <trkpt lat="46.32386" lon="-0.57882">
        <ele>7</ele>
        <time>2021-03-31T09:42:44Z</time>
      </trkpt>
      <trkpt lat="46.32384" lon="-0.57888">
        <ele>7</ele>
        <time>2021-03-31T09:42:45Z</time>
      </trkpt>
      <trkpt lat="46.32381" lon="-0.57895">
        <ele>7</ele>
        <time>2021-03-31T09:42:46Z</time>
      </trkpt>
      <trkpt lat="46.32378" lon="-0.57902">
        <ele>7</ele>
        <time>2021-03-31T09:42:47Z</time>
      </trkpt>
      <trkpt lat="46.32369" lon="-0.57916">
        <ele>6.8</ele>
        <time>2021-03-31T09:42:49Z</time>
      </trkpt>
      <trkpt lat="46.32365" lon="-0.57923">
        <ele>6.8</ele>
        <time>2021-03-31T09:42:50Z</time>
      </trkpt>
      <trkpt lat="46.32361" lon="-0.57929">
        <ele>6.8</ele>
        <time>2021-03-31T09:42:51Z</time>
      </trkpt>
      <trkpt lat="46.32358" lon="-0.57937">
        <ele>6.8</ele>
        <time>2021-03-31T09:42:52Z</time>
      </trkpt>
      <trkpt lat="46.32355" lon="-0.57947">
        <ele>6.8</ele>
        <time>2021-03-31T09:42:53Z</time>
      </trkpt>
      <trkpt lat="46.32331" lon="-0.58003">
        <ele>6.6</ele>
        <time>2021-03-31T09:42:59Z</time>
      </trkpt>
      <trkpt lat="46.32327" lon="-0.58012">
        <ele>6.6</ele>
        <time>2021-03-31T09:43:00Z</time>
      </trkpt>
      <trkpt lat="46.32322" lon="-0.58022">
        <ele>6.6</ele>
        <time>2021-03-31T09:43:01Z</time>
      </trkpt>
      <trkpt lat="46.323" lon="-0.58077">
        <ele>6.4</ele>
        <time>2021-03-31T09:43:07Z</time>
      </trkpt>
      <trkpt lat="46.32297" lon="-0.58085">
        <ele>6.4</ele>
        <time>2021-03-31T09:43:08Z</time>
      </trkpt>
      <trkpt lat="46.32294" lon="-0.58093">
        <ele>6.4</ele>
        <time>2021-03-31T09:43:09Z</time>
      </trkpt>
      <trkpt lat="46.32287" lon="-0.5811">
        <ele>6.4</ele>
        <time>2021-03-31T09:43:11Z</time>
      </trkpt>
      <trkpt lat="46.32285" lon="-0.58117">
        <ele>6.4</ele>
        <time>2021-03-31T09:43:12Z</time>
      </trkpt>
      <trkpt lat="46.32282" lon="-0.58124">
        <ele>6.4</ele>
        <time>2021-03-31T09:43:13Z</time>
      </trkpt>
      <trkpt lat="46.32279" lon="-0.5813">
        <ele>6.6</ele>
        <time>2021-03-31T09:43:14Z</time>
      </trkpt>
      <trkpt lat="46.32276" lon="-0.58136">
        <ele>6.6</ele>
        <time>2021-03-31T09:43:15Z</time>
      </trkpt>
      <trkpt lat="46.32274" lon="-0.58141">
        <ele>6.6</ele>
        <time>2021-03-31T09:43:16Z</time>
      </trkpt>
      <trkpt lat="46.32272" lon="-0.58146">
        <ele>7</ele>
        <time>2021-03-31T09:43:17Z</time>
      </trkpt>
      <trkpt lat="46.3227" lon="-0.5815">
        <ele>7.4</ele>
        <time>2021-03-31T09:43:18Z</time>
      </trkpt>
      <trkpt lat="46.32268" lon="-0.58155">
        <ele>7.8</ele>
        <time>2021-03-31T09:43:19Z</time>
      </trkpt>
      <trkpt lat="46.32266" lon="-0.5816">
        <ele>7.8</ele>
        <time>2021-03-31T09:43:20Z</time>
      </trkpt>
      <trkpt lat="46.32258" lon="-0.58177">
        <ele>8</ele>
        <time>2021-03-31T09:43:23Z</time>
      </trkpt>
      <trkpt lat="46.32234" lon="-0.58221">
        <ele>8</ele>
        <time>2021-03-31T09:43:32Z</time>
      </trkpt>
      <trkpt lat="46.32232" lon="-0.58224">
        <ele>8</ele>
        <time>2021-03-31T09:43:33Z</time>
      </trkpt>
      <trkpt lat="46.32231" lon="-0.58227">
        <ele>8</ele>
        <time>2021-03-31T09:43:34Z</time>
      </trkpt>
      <trkpt lat="46.3223" lon="-0.5823">
        <ele>8.2</ele>
        <time>2021-03-31T09:43:35Z</time>
      </trkpt>
      <trkpt lat="46.32231" lon="-0.58233">
        <ele>8.2</ele>
        <time>2021-03-31T09:43:36Z</time>
      </trkpt>
      <trkpt lat="46.32233" lon="-0.58237">
        <ele>8.2</ele>
        <time>2021-03-31T09:43:37Z</time>
      </trkpt>
      <trkpt lat="46.3224" lon="-0.58244">
        <ele>8.2</ele>
        <time>2021-03-31T09:43:39Z</time>
      </trkpt>
      <trkpt lat="46.32244" lon="-0.58247">
        <ele>8</ele>
        <time>2021-03-31T09:43:40Z</time>
      </trkpt>
      <trkpt lat="46.32249" lon="-0.58251">
        <ele>8</ele>
        <time>2021-03-31T09:43:41Z</time>
      </trkpt>
      <trkpt lat="46.32254" lon="-0.58255">
        <ele>8</ele>
        <time>2021-03-31T09:43:42Z</time>
      </trkpt>
      <trkpt lat="46.32264" lon="-0.58264">
        <ele>8</ele>
        <time>2021-03-31T09:43:44Z</time>
      </trkpt>
      <trkpt lat="46.32271" lon="-0.58272">
        <ele>8</ele>
        <time>2021-03-31T09:43:46Z</time>
      </trkpt>
      <trkpt lat="46.32275" lon="-0.58278">
        <ele>8</ele>
        <time>2021-03-31T09:43:47Z</time>
      </trkpt>
      <trkpt lat="46.32277" lon="-0.58284">
        <ele>8</ele>
        <time>2021-03-31T09:43:48Z</time>
      </trkpt>
      <trkpt lat="46.32276" lon="-0.58291">
        <ele>8</ele>
        <time>2021-03-31T09:43:49Z</time>
      </trkpt>
      <trkpt lat="46.32274" lon="-0.58299">
        <ele>8</ele>
        <time>2021-03-31T09:43:50Z</time>
      </trkpt>
      <trkpt lat="46.32273" lon="-0.58306">
        <ele>8.2</ele>
        <time>2021-03-31T09:43:51Z</time>
      </trkpt>
      <trkpt lat="46.32272" lon="-0.58314">
        <ele>8.2</ele>
        <time>2021-03-31T09:43:52Z</time>
      </trkpt>
      <trkpt lat="46.32271" lon="-0.58322">
        <ele>8.2</ele>
        <time>2021-03-31T09:43:53Z</time>
      </trkpt>
      <trkpt lat="46.3227" lon="-0.5833">
        <ele>8.2</ele>
        <time>2021-03-31T09:43:54Z</time>
      </trkpt>
      <trkpt lat="46.32269" lon="-0.58339">
        <ele>8.2</ele>
        <time>2021-03-31T09:43:55Z</time>
      </trkpt>
      <trkpt lat="46.32268" lon="-0.58348">
        <ele>8.2</ele>
        <time>2021-03-31T09:43:56Z</time>
      </trkpt>
      <trkpt lat="46.32264" lon="-0.58375">
        <ele>8.4</ele>
        <time>2021-03-31T09:43:59Z</time>
      </trkpt>
      <trkpt lat="46.32262" lon="-0.58391">
        <ele>8.4</ele>
        <time>2021-03-31T09:44:01Z</time>
      </trkpt>
      <trkpt lat="46.32259" lon="-0.58423">
        <ele>9</ele>
        <time>2021-03-31T09:44:05Z</time>
      </trkpt>
      <trkpt lat="46.32259" lon="-0.5843">
        <ele>9</ele>
        <time>2021-03-31T09:44:06Z</time>
      </trkpt>
      <trkpt lat="46.32259" lon="-0.58437">
        <ele>9</ele>
        <time>2021-03-31T09:44:07Z</time>
      </trkpt>
      <trkpt lat="46.32259" lon="-0.58444">
        <ele>9</ele>
        <time>2021-03-31T09:44:08Z</time>
      </trkpt>
      <trkpt lat="46.32258" lon="-0.58451">
        <ele>9</ele>
        <time>2021-03-31T09:44:09Z</time>
      </trkpt>
      <trkpt lat="46.32257" lon="-0.58459">
        <ele>9</ele>
        <time>2021-03-31T09:44:10Z</time>
      </trkpt>
      <trkpt lat="46.32253" lon="-0.58475">
        <ele>9</ele>
        <time>2021-03-31T09:44:12Z</time>
      </trkpt>
      <trkpt lat="46.32247" lon="-0.58503">
        <ele>9.2</ele>
        <time>2021-03-31T09:44:15Z</time>
      </trkpt>
      <trkpt lat="46.32242" lon="-0.58519">
        <ele>9.2</ele>
        <time>2021-03-31T09:44:17Z</time>
      </trkpt>
      <trkpt lat="46.32239" lon="-0.58525">
        <ele>9.2</ele>
        <time>2021-03-31T09:44:18Z</time>
      </trkpt>
      <trkpt lat="46.32236" lon="-0.5853">
        <ele>9.2</ele>
        <time>2021-03-31T09:44:19Z</time>
      </trkpt>
      <trkpt lat="46.32234" lon="-0.58535">
        <ele>9.2</ele>
        <time>2021-03-31T09:44:20Z</time>
      </trkpt>
      <trkpt lat="46.32232" lon="-0.58539">
        <ele>9.4</ele>
        <time>2021-03-31T09:44:21Z</time>
      </trkpt>
      <trkpt lat="46.32232" lon="-0.58543">
        <ele>9.4</ele>
        <time>2021-03-31T09:44:22Z</time>
      </trkpt>
      <trkpt lat="46.32234" lon="-0.58545">
        <ele>9.6</ele>
        <time>2021-03-31T09:44:23Z</time>
      </trkpt>
      <trkpt lat="46.32238" lon="-0.58548">
        <ele>9.6</ele>
        <time>2021-03-31T09:44:24Z</time>
      </trkpt>
      <trkpt lat="46.32249" lon="-0.58554">
        <ele>9.8</ele>
        <time>2021-03-31T09:44:26Z</time>
      </trkpt>
      <trkpt lat="46.32255" lon="-0.58558">
        <ele>9.8</ele>
        <time>2021-03-31T09:44:27Z</time>
      </trkpt>
      <trkpt lat="46.32263" lon="-0.58566">
        <ele>9.8</ele>
        <time>2021-03-31T09:44:29Z</time>
      </trkpt>
      <trkpt lat="46.32265" lon="-0.58566">
        <ele>9.8</ele>
        <time>2021-03-31T09:44:30Z</time>
      </trkpt>
      <trkpt lat="46.32266" lon="-0.58565">
        <ele>10</ele>
        <time>2021-03-31T09:44:31Z</time>
      </trkpt>
      <trkpt lat="46.32268" lon="-0.58562">
        <ele>10</ele>
        <time>2021-03-31T09:44:32Z</time>
      </trkpt>
      <trkpt lat="46.32272" lon="-0.58558">
        <ele>10</ele>
        <time>2021-03-31T09:44:33Z</time>
      </trkpt>
      <trkpt lat="46.32281" lon="-0.58551">
        <ele>10</ele>
        <time>2021-03-31T09:44:35Z</time>
      </trkpt>
      <trkpt lat="46.32287" lon="-0.58549">
        <ele>10</ele>
        <time>2021-03-31T09:44:36Z</time>
      </trkpt>
      <trkpt lat="46.32294" lon="-0.58547">
        <ele>10</ele>
        <time>2021-03-31T09:44:37Z</time>
      </trkpt>
      <trkpt lat="46.32308" lon="-0.58547">
        <ele>10</ele>
        <time>2021-03-31T09:44:39Z</time>
      </trkpt>
      <trkpt lat="46.32327" lon="-0.58549">
        <ele>9.8</ele>
        <time>2021-03-31T09:44:42Z</time>
      </trkpt>
      <trkpt lat="46.32333" lon="-0.5855">
        <ele>9.8</ele>
        <time>2021-03-31T09:44:43Z</time>
      </trkpt>
      <trkpt lat="46.32338" lon="-0.5855">
        <ele>9.6</ele>
        <time>2021-03-31T09:44:44Z</time>
      </trkpt>
      <trkpt lat="46.32342" lon="-0.5855">
        <ele>9.6</ele>
        <time>2021-03-31T09:44:45Z</time>
      </trkpt>
      <trkpt lat="46.32346" lon="-0.5855">
        <ele>9.6</ele>
        <time>2021-03-31T09:44:46Z</time>
      </trkpt>
      <trkpt lat="46.32349" lon="-0.5855">
        <ele>9.6</ele>
        <time>2021-03-31T09:44:47Z</time>
      </trkpt>
      <trkpt lat="46.32352" lon="-0.5855">
        <ele>9.6</ele>
        <time>2021-03-31T09:44:48Z</time>
      </trkpt>
      <trkpt lat="46.32354" lon="-0.58551">
        <ele>9.6</ele>
        <time>2021-03-31T09:44:49Z</time>
      </trkpt>
      <trkpt lat="46.32356" lon="-0.58553">
        <ele>9.6</ele>
        <time>2021-03-31T09:44:50Z</time>
      </trkpt>
      <trkpt lat="46.32358" lon="-0.58555">
        <ele>9.6</ele>
        <time>2021-03-31T09:44:51Z</time>
      </trkpt>
      <trkpt lat="46.32359" lon="-0.58557">
        <ele>9.6</ele>
        <time>2021-03-31T09:44:52Z</time>
      </trkpt>
      <trkpt lat="46.32358" lon="-0.5856">
        <ele>9.6</ele>
        <time>2021-03-31T09:44:53Z</time>
      </trkpt>
      <trkpt lat="46.32357" lon="-0.58564">
        <ele>9.6</ele>
        <time>2021-03-31T09:44:54Z</time>
      </trkpt>
      <trkpt lat="46.32356" lon="-0.5857">
        <ele>9.6</ele>
        <time>2021-03-31T09:44:55Z</time>
      </trkpt>
      <trkpt lat="46.32355" lon="-0.58578">
        <ele>9.8</ele>
        <time>2021-03-31T09:44:56Z</time>
      </trkpt>
      <trkpt lat="46.32354" lon="-0.58587">
        <ele>10</ele>
        <time>2021-03-31T09:44:57Z</time>
      </trkpt>
      <trkpt lat="46.32349" lon="-0.58614">
        <ele>10.2</ele>
        <time>2021-03-31T09:45:00Z</time>
      </trkpt>
      <trkpt lat="46.32346" lon="-0.58638">
        <ele>10.4</ele>
        <time>2021-03-31T09:45:03Z</time>
      </trkpt>
      <trkpt lat="46.32345" lon="-0.58644">
        <ele>10.4</ele>
        <time>2021-03-31T09:45:04Z</time>
      </trkpt>
      <trkpt lat="46.32344" lon="-0.58648">
        <ele>10.4</ele>
        <time>2021-03-31T09:45:05Z</time>
      </trkpt>
      <trkpt lat="46.32344" lon="-0.58651">
        <ele>10.6</ele>
        <time>2021-03-31T09:45:06Z</time>
      </trkpt>
      <trkpt lat="46.32343" lon="-0.58652">
        <ele>10.6</ele>
        <time>2021-03-31T09:45:07Z</time>
      </trkpt>
      <trkpt lat="46.32343" lon="-0.58652">
        <ele>10.8</ele>
        <time>2021-03-31T09:45:08Z</time>
      </trkpt>
      <trkpt lat="46.32343" lon="-0.58652">
        <ele>10.8</ele>
        <time>2021-03-31T09:45:09Z</time>
      </trkpt>
    </trkseg>
  </trk>
</gpx>